<?xml version="1.0" encoding="UTF-8"?>
<gpx xmlns="http://www.topografix.com/GPX/1/1" version="1.1" xmlns:xsi="http://www.w3.org/2001/XMLSchema-instance" xsi:schemaLocation="http://www.topografix.com/GPX/1/1 http://www.topografix.com/GPX/1/1/gpx.xsd" creator="MotionXGPSFull 24.4 Build 5112 R64">
<trk>
<name><![CDATA[XV Adv Nightwalk 2]]></name>
<desc><![CDATA[Dec 21, 2017  9:49 pm]]></desc>
<trkseg>
<trkpt lat="22.2482576" lon="113.9429540">
<ele>330.662</ele>
<time>2017-12-21T13:49:09.998Z</time>
</trkpt>
<trkpt lat="22.2482740" lon="113.9429427">
<ele>331.061</ele>
<time>2017-12-21T13:49:11.463Z</time>
</trkpt>
<trkpt lat="22.2483514" lon="113.9428725">
<ele>331.600</ele>
<time>2017-12-21T13:49:18.269Z</time>
</trkpt>
<trkpt lat="22.2484259" lon="113.9428106">
<ele>332.249</ele>
<time>2017-12-21T13:49:24.015Z</time>
</trkpt>
<trkpt lat="22.2485088" lon="113.9427583">
<ele>333.147</ele>
<time>2017-12-21T13:49:29.780Z</time>
</trkpt>
<trkpt lat="22.2485870" lon="113.9427104">
<ele>333.889</ele>
<time>2017-12-21T13:49:35.362Z</time>
</trkpt>
<trkpt lat="22.2486626" lon="113.9426463">
<ele>334.037</ele>
<time>2017-12-21T13:49:41.997Z</time>
</trkpt>
<trkpt lat="22.2486626" lon="113.9426463">
<ele>333.761</ele>
<time>2017-12-21T13:49:41.997Z</time>
</trkpt>
<trkpt lat="22.2486626" lon="113.9426463">
<ele>333.450</ele>
<time>2017-12-21T13:49:42.097Z</time>
</trkpt>
<trkpt lat="22.2488368" lon="113.9425378">
<ele>333.313</ele>
<time>2017-12-21T13:50:04.852Z</time>
</trkpt>
<trkpt lat="22.2490679" lon="113.9425410">
<ele>332.937</ele>
<time>2017-12-21T13:50:22.079Z</time>
</trkpt>
<trkpt lat="22.2491595" lon="113.9424998">
<ele>331.655</ele>
<time>2017-12-21T13:50:29.262Z</time>
</trkpt>
<trkpt lat="22.2492453" lon="113.9424199">
<ele>329.516</ele>
<time>2017-12-21T13:50:37.459Z</time>
</trkpt>
<trkpt lat="22.2493217" lon="113.9423503">
<ele>327.373</ele>
<time>2017-12-21T13:50:44.148Z</time>
</trkpt>
<trkpt lat="22.2493890" lon="113.9422851">
<ele>325.971</ele>
<time>2017-12-21T13:50:49.558Z</time>
</trkpt>
<trkpt lat="22.2494651" lon="113.9422209">
<ele>325.244</ele>
<time>2017-12-21T13:50:55.887Z</time>
</trkpt>
<trkpt lat="22.2495604" lon="113.9421737">
<ele>324.601</ele>
<time>2017-12-21T13:51:02.860Z</time>
</trkpt>
<trkpt lat="22.2496478" lon="113.9421251">
<ele>323.681</ele>
<time>2017-12-21T13:51:09.169Z</time>
</trkpt>
<trkpt lat="22.2497056" lon="113.9420387">
<ele>322.398</ele>
<time>2017-12-21T13:51:15.363Z</time>
</trkpt>
<trkpt lat="22.2497536" lon="113.9419429">
<ele>319.983</ele>
<time>2017-12-21T13:51:20.906Z</time>
</trkpt>
<trkpt lat="22.2498176" lon="113.9418521">
<ele>319.240</ele>
<time>2017-12-21T13:51:25.337Z</time>
</trkpt>
<trkpt lat="22.2498729" lon="113.9417459">
<ele>318.556</ele>
<time>2017-12-21T13:51:29.369Z</time>
</trkpt>
<trkpt lat="22.2499155" lon="113.9416479">
<ele>317.959</ele>
<time>2017-12-21T13:51:32.732Z</time>
</trkpt>
<trkpt lat="22.2499771" lon="113.9415694">
<ele>317.409</ele>
<time>2017-12-21T13:51:35.839Z</time>
</trkpt>
<trkpt lat="22.2500461" lon="113.9414604">
<ele>316.794</ele>
<time>2017-12-21T13:51:39.733Z</time>
</trkpt>
<trkpt lat="22.2500726" lon="113.9413548">
<ele>316.054</ele>
<time>2017-12-21T13:51:42.962Z</time>
</trkpt>
<trkpt lat="22.2501298" lon="113.9412784">
<ele>315.275</ele>
<time>2017-12-21T13:51:45.852Z</time>
</trkpt>
<trkpt lat="22.2501819" lon="113.9411789">
<ele>314.567</ele>
<time>2017-12-21T13:51:49.278Z</time>
</trkpt>
<trkpt lat="22.2502166" lon="113.9410886">
<ele>313.827</ele>
<time>2017-12-21T13:51:52.292Z</time>
</trkpt>
<trkpt lat="22.2502583" lon="113.9409885">
<ele>313.062</ele>
<time>2017-12-21T13:51:55.768Z</time>
</trkpt>
<trkpt lat="22.2503643" lon="113.9409284">
<ele>312.311</ele>
<time>2017-12-21T13:51:59.730Z</time>
</trkpt>
<trkpt lat="22.2504500" lon="113.9408720">
<ele>311.206</ele>
<time>2017-12-21T13:52:02.865Z</time>
</trkpt>
<trkpt lat="22.2505331" lon="113.9408041">
<ele>309.629</ele>
<time>2017-12-21T13:52:06.075Z</time>
</trkpt>
<trkpt lat="22.2506203" lon="113.9407603">
<ele>308.090</ele>
<time>2017-12-21T13:52:09.090Z</time>
</trkpt>
<trkpt lat="22.2507131" lon="113.9407310">
<ele>307.049</ele>
<time>2017-12-21T13:52:12.175Z</time>
</trkpt>
<trkpt lat="22.2508243" lon="113.9407112">
<ele>306.560</ele>
<time>2017-12-21T13:52:15.794Z</time>
</trkpt>
<trkpt lat="22.2509147" lon="113.9406664">
<ele>306.217</ele>
<time>2017-12-21T13:52:18.950Z</time>
</trkpt>
<trkpt lat="22.2510018" lon="113.9406400">
<ele>305.568</ele>
<time>2017-12-21T13:52:21.803Z</time>
</trkpt>
<trkpt lat="22.2510979" lon="113.9406212">
<ele>304.753</ele>
<time>2017-12-21T13:52:24.958Z</time>
</trkpt>
<trkpt lat="22.2511894" lon="113.9406272">
<ele>303.912</ele>
<time>2017-12-21T13:52:28.057Z</time>
</trkpt>
<trkpt lat="22.2512871" lon="113.9406245">
<ele>302.661</ele>
<time>2017-12-21T13:52:31.593Z</time>
</trkpt>
<trkpt lat="22.2513755" lon="113.9406447">
<ele>301.045</ele>
<time>2017-12-21T13:52:35.023Z</time>
</trkpt>
<trkpt lat="22.2514850" lon="113.9406387">
<ele>299.714</ele>
<time>2017-12-21T13:52:39.244Z</time>
</trkpt>
<trkpt lat="22.2515839" lon="113.9406111">
<ele>298.745</ele>
<time>2017-12-21T13:52:43.113Z</time>
</trkpt>
<trkpt lat="22.2516860" lon="113.9405781">
<ele>298.278</ele>
<time>2017-12-21T13:52:47.640Z</time>
</trkpt>
<trkpt lat="22.2517930" lon="113.9405799">
<ele>296.514</ele>
<time>2017-12-21T13:52:52.431Z</time>
</trkpt>
<trkpt lat="22.2518856" lon="113.9405518">
<ele>295.336</ele>
<time>2017-12-21T13:52:57.278Z</time>
</trkpt>
<trkpt lat="22.2519936" lon="113.9405506">
<ele>293.296</ele>
<time>2017-12-21T13:53:02.349Z</time>
</trkpt>
<trkpt lat="22.2520982" lon="113.9405397">
<ele>290.960</ele>
<time>2017-12-21T13:53:06.838Z</time>
</trkpt>
<trkpt lat="22.2522095" lon="113.9405516">
<ele>288.785</ele>
<time>2017-12-21T13:53:11.383Z</time>
</trkpt>
<trkpt lat="22.2523003" lon="113.9405421">
<ele>286.461</ele>
<time>2017-12-21T13:53:14.991Z</time>
</trkpt>
<trkpt lat="22.2523003" lon="113.9405421">
<ele>284.370</ele>
<time>2017-12-21T13:53:19.991Z</time>
</trkpt>
<trkpt lat="22.2523003" lon="113.9405421">
<ele>283.334</ele>
<time>2017-12-21T13:53:32.462Z</time>
</trkpt>
<trkpt lat="22.2521967" lon="113.9405910">
<ele>283.324</ele>
<time>2017-12-21T13:53:44.991Z</time>
</trkpt>
<trkpt lat="22.2521967" lon="113.9405910">
<ele>283.559</ele>
<time>2017-12-21T13:53:56.990Z</time>
</trkpt>
<trkpt lat="22.2521967" lon="113.9405910">
<ele>283.472</ele>
<time>2017-12-21T13:55:45.311Z</time>
</trkpt>
<trkpt lat="22.2520509" lon="113.9405619">
<ele>283.194</ele>
<time>2017-12-21T13:56:08.125Z</time>
</trkpt>
<trkpt lat="22.2520786" lon="113.9404592">
<ele>279.904</ele>
<time>2017-12-21T13:56:14.317Z</time>
</trkpt>
<trkpt lat="22.2521565" lon="113.9404106">
<ele>271.741</ele>
<time>2017-12-21T13:56:18.562Z</time>
</trkpt>
<trkpt lat="22.2522091" lon="113.9403163">
<ele>263.217</ele>
<time>2017-12-21T13:56:22.877Z</time>
</trkpt>
<trkpt lat="22.2522318" lon="113.9402035">
<ele>258.755</ele>
<time>2017-12-21T13:56:28.143Z</time>
</trkpt>
<trkpt lat="22.2522957" lon="113.9401288">
<ele>257.592</ele>
<time>2017-12-21T13:56:32.999Z</time>
</trkpt>
<trkpt lat="22.2522957" lon="113.9401288">
<ele>257.804</ele>
<time>2017-12-21T13:56:38.999Z</time>
</trkpt>
<trkpt lat="22.2522957" lon="113.9401288">
<ele>257.982</ele>
<time>2017-12-21T13:56:42.985Z</time>
</trkpt>
<trkpt lat="22.2524108" lon="113.9400592">
<ele>257.803</ele>
<time>2017-12-21T13:56:56.810Z</time>
</trkpt>
<trkpt lat="22.2524349" lon="113.9399580">
<ele>257.216</ele>
<time>2017-12-21T13:57:02.672Z</time>
</trkpt>
<trkpt lat="22.2524270" lon="113.9398556">
<ele>255.362</ele>
<time>2017-12-21T13:57:07.136Z</time>
</trkpt>
<trkpt lat="22.2524187" lon="113.9397551">
<ele>254.738</ele>
<time>2017-12-21T13:57:11.194Z</time>
</trkpt>
<trkpt lat="22.2524126" lon="113.9396383">
<ele>254.170</ele>
<time>2017-12-21T13:57:15.718Z</time>
</trkpt>
<trkpt lat="22.2524334" lon="113.9395312">
<ele>253.643</ele>
<time>2017-12-21T13:57:20.043Z</time>
</trkpt>
<trkpt lat="22.2524446" lon="113.9394257">
<ele>253.133</ele>
<time>2017-12-21T13:57:24.455Z</time>
</trkpt>
<trkpt lat="22.2524650" lon="113.9393223">
<ele>252.106</ele>
<time>2017-12-21T13:57:29.176Z</time>
</trkpt>
<trkpt lat="22.2525020" lon="113.9392304">
<ele>251.286</ele>
<time>2017-12-21T13:57:33.391Z</time>
</trkpt>
<trkpt lat="22.2525455" lon="113.9391208">
<ele>250.195</ele>
<time>2017-12-21T13:57:37.997Z</time>
</trkpt>
<trkpt lat="22.2525455" lon="113.9391208">
<ele>249.167</ele>
<time>2017-12-21T13:57:41.997Z</time>
</trkpt>
<trkpt lat="22.2525455" lon="113.9391208">
<ele>248.577</ele>
<time>2017-12-21T13:57:56.116Z</time>
</trkpt>
<trkpt lat="22.2526453" lon="113.9390870">
<ele>248.696</ele>
<time>2017-12-21T13:58:02.997Z</time>
</trkpt>
<trkpt lat="22.2526453" lon="113.9390870">
<ele>248.779</ele>
<time>2017-12-21T13:58:08.997Z</time>
</trkpt>
<trkpt lat="22.2526453" lon="113.9390870">
<ele>248.671</ele>
<time>2017-12-21T13:58:11.790Z</time>
</trkpt>
<trkpt lat="22.2525496" lon="113.9390269">
<ele>248.445</ele>
<time>2017-12-21T13:58:27.189Z</time>
</trkpt>
<trkpt lat="22.2525153" lon="113.9389341">
<ele>247.665</ele>
<time>2017-12-21T13:58:37.288Z</time>
</trkpt>
<trkpt lat="22.2524820" lon="113.9388403">
<ele>245.876</ele>
<time>2017-12-21T13:58:49.359Z</time>
</trkpt>
<trkpt lat="22.2524417" lon="113.9387523">
<ele>243.985</ele>
<time>2017-12-21T13:59:01.802Z</time>
</trkpt>
<trkpt lat="22.2523594" lon="113.9386980">
<ele>242.870</ele>
<time>2017-12-21T13:59:14.592Z</time>
</trkpt>
<trkpt lat="22.2523243" lon="113.9386039">
<ele>242.556</ele>
<time>2017-12-21T13:59:26.932Z</time>
</trkpt>
<trkpt lat="22.2523554" lon="113.9385102">
<ele>243.262</ele>
<time>2017-12-21T13:59:37.456Z</time>
</trkpt>
<trkpt lat="22.2524337" lon="113.9384583">
<ele>244.815</ele>
<time>2017-12-21T13:59:43.995Z</time>
</trkpt>
<trkpt lat="22.2524337" lon="113.9384583">
<ele>246.168</ele>
<time>2017-12-21T13:59:46.995Z</time>
</trkpt>
<trkpt lat="22.2524337" lon="113.9384583">
<ele>246.579</ele>
<time>2017-12-21T13:59:47.095Z</time>
</trkpt>
<trkpt lat="22.2525394" lon="113.9383876">
<ele>246.365</ele>
<time>2017-12-21T14:00:03.289Z</time>
</trkpt>
<trkpt lat="22.2526202" lon="113.9383377">
<ele>246.402</ele>
<time>2017-12-21T14:00:11.429Z</time>
</trkpt>
<trkpt lat="22.2526635" lon="113.9382464">
<ele>247.198</ele>
<time>2017-12-21T14:00:21.223Z</time>
</trkpt>
<trkpt lat="22.2527434" lon="113.9381966">
<ele>249.055</ele>
<time>2017-12-21T14:00:31.005Z</time>
</trkpt>
<trkpt lat="22.2528404" lon="113.9381724">
<ele>249.740</ele>
<time>2017-12-21T14:00:39.854Z</time>
</trkpt>
<trkpt lat="22.2529426" lon="113.9381560">
<ele>250.108</ele>
<time>2017-12-21T14:00:47.930Z</time>
</trkpt>
<trkpt lat="22.2530351" lon="113.9381168">
<ele>251.009</ele>
<time>2017-12-21T14:00:54.418Z</time>
</trkpt>
<trkpt lat="22.2531260" lon="113.9381146">
<ele>252.259</ele>
<time>2017-12-21T14:00:59.926Z</time>
</trkpt>
<trkpt lat="22.2532234" lon="113.9380765">
<ele>253.700</ele>
<time>2017-12-21T14:01:06.492Z</time>
</trkpt>
<trkpt lat="22.2533135" lon="113.9380705">
<ele>254.878</ele>
<time>2017-12-21T14:01:13.372Z</time>
</trkpt>
<trkpt lat="22.2534193" lon="113.9380774">
<ele>255.428</ele>
<time>2017-12-21T14:01:21.198Z</time>
</trkpt>
<trkpt lat="22.2535149" lon="113.9380892">
<ele>255.572</ele>
<time>2017-12-21T14:01:27.456Z</time>
</trkpt>
<trkpt lat="22.2536132" lon="113.9381029">
<ele>255.626</ele>
<time>2017-12-21T14:01:33.854Z</time>
</trkpt>
<trkpt lat="22.2537096" lon="113.9380963">
<ele>255.352</ele>
<time>2017-12-21T14:01:39.858Z</time>
</trkpt>
<trkpt lat="22.2538012" lon="113.9381348">
<ele>254.550</ele>
<time>2017-12-21T14:01:45.890Z</time>
</trkpt>
<trkpt lat="22.2538846" lon="113.9381796">
<ele>253.727</ele>
<time>2017-12-21T14:01:52.077Z</time>
</trkpt>
<trkpt lat="22.2539786" lon="113.9382094">
<ele>253.373</ele>
<time>2017-12-21T14:01:59.501Z</time>
</trkpt>
<trkpt lat="22.2540741" lon="113.9381852">
<ele>253.501</ele>
<time>2017-12-21T14:02:06.983Z</time>
</trkpt>
<trkpt lat="22.2541713" lon="113.9381508">
<ele>254.113</ele>
<time>2017-12-21T14:02:14.022Z</time>
</trkpt>
<trkpt lat="22.2542416" lon="113.9380804">
<ele>255.205</ele>
<time>2017-12-21T14:02:21.463Z</time>
</trkpt>
<trkpt lat="22.2542835" lon="113.9379943">
<ele>256.546</ele>
<time>2017-12-21T14:02:29.244Z</time>
</trkpt>
<trkpt lat="22.2543631" lon="113.9379359">
<ele>257.827</ele>
<time>2017-12-21T14:02:37.205Z</time>
</trkpt>
<trkpt lat="22.2544473" lon="113.9378868">
<ele>258.830</ele>
<time>2017-12-21T14:02:43.839Z</time>
</trkpt>
<trkpt lat="22.2545461" lon="113.9378597">
<ele>259.545</ele>
<time>2017-12-21T14:02:50.866Z</time>
</trkpt>
<trkpt lat="22.2546407" lon="113.9378692">
<ele>260.111</ele>
<time>2017-12-21T14:02:57.582Z</time>
</trkpt>
<trkpt lat="22.2547146" lon="113.9379343">
<ele>260.575</ele>
<time>2017-12-21T14:03:04.491Z</time>
</trkpt>
<trkpt lat="22.2548106" lon="113.9379699">
<ele>260.875</ele>
<time>2017-12-21T14:03:12.213Z</time>
</trkpt>
<trkpt lat="22.2549057" lon="113.9379809">
<ele>261.011</ele>
<time>2017-12-21T14:03:20.642Z</time>
</trkpt>
<trkpt lat="22.2549842" lon="113.9380480">
<ele>260.952</ele>
<time>2017-12-21T14:03:30.830Z</time>
</trkpt>
<trkpt lat="22.2550736" lon="113.9380585">
<ele>260.728</ele>
<time>2017-12-21T14:03:40.063Z</time>
</trkpt>
<trkpt lat="22.2551585" lon="113.9379998">
<ele>260.480</ele>
<time>2017-12-21T14:03:49.807Z</time>
</trkpt>
<trkpt lat="22.2552510" lon="113.9380225">
<ele>260.317</ele>
<time>2017-12-21T14:03:59.919Z</time>
</trkpt>
<trkpt lat="22.2553512" lon="113.9379849">
<ele>260.262</ele>
<time>2017-12-21T14:04:11.723Z</time>
</trkpt>
<trkpt lat="22.2554352" lon="113.9379270">
<ele>260.355</ele>
<time>2017-12-21T14:04:21.739Z</time>
</trkpt>
<trkpt lat="22.2555205" lon="113.9378899">
<ele>260.575</ele>
<time>2017-12-21T14:04:31.439Z</time>
</trkpt>
<trkpt lat="22.2555749" lon="113.9378121">
<ele>260.751</ele>
<time>2017-12-21T14:04:42.997Z</time>
</trkpt>
<trkpt lat="22.2555749" lon="113.9378121">
<ele>260.743</ele>
<time>2017-12-21T14:04:52.997Z</time>
</trkpt>
<trkpt lat="22.2555749" lon="113.9378121">
<ele>260.612</ele>
<time>2017-12-21T14:04:53.097Z</time>
</trkpt>
<trkpt lat="22.2556734" lon="113.9376834">
<ele>260.488</ele>
<time>2017-12-21T14:05:02.997Z</time>
</trkpt>
<trkpt lat="22.2556734" lon="113.9376834">
<ele>260.432</ele>
<time>2017-12-21T14:05:09.997Z</time>
</trkpt>
<trkpt lat="22.2556734" lon="113.9376834">
<ele>260.388</ele>
<time>2017-12-21T14:05:10.097Z</time>
</trkpt>
<trkpt lat="22.2556745" lon="113.9375817">
<ele>260.191</ele>
<time>2017-12-21T14:05:34.877Z</time>
</trkpt>
<trkpt lat="22.2557010" lon="113.9374853">
<ele>262.156</ele>
<time>2017-12-21T14:05:46.824Z</time>
</trkpt>
<trkpt lat="22.2556741" lon="113.9373901">
<ele>267.814</ele>
<time>2017-12-21T14:05:55.692Z</time>
</trkpt>
<trkpt lat="22.2556430" lon="113.9372982">
<ele>274.270</ele>
<time>2017-12-21T14:06:03.756Z</time>
</trkpt>
<trkpt lat="22.2556217" lon="113.9372029">
<ele>277.956</ele>
<time>2017-12-21T14:06:11.560Z</time>
</trkpt>
<trkpt lat="22.2556566" lon="113.9371122">
<ele>279.199</ele>
<time>2017-12-21T14:06:18.870Z</time>
</trkpt>
<trkpt lat="22.2556746" lon="113.9370087">
<ele>279.581</ele>
<time>2017-12-21T14:06:25.837Z</time>
</trkpt>
<trkpt lat="22.2557534" lon="113.9369564">
<ele>279.942</ele>
<time>2017-12-21T14:06:31.876Z</time>
</trkpt>
<trkpt lat="22.2557816" lon="113.9368497">
<ele>280.407</ele>
<time>2017-12-21T14:06:38.786Z</time>
</trkpt>
<trkpt lat="22.2557865" lon="113.9367496">
<ele>280.823</ele>
<time>2017-12-21T14:06:45.779Z</time>
</trkpt>
<trkpt lat="22.2557375" lon="113.9366600">
<ele>281.053</ele>
<time>2017-12-21T14:06:53.899Z</time>
</trkpt>
<trkpt lat="22.2557348" lon="113.9365593">
<ele>281.145</ele>
<time>2017-12-21T14:07:01.994Z</time>
</trkpt>
<trkpt lat="22.2557806" lon="113.9364735">
<ele>281.006</ele>
<time>2017-12-21T14:07:10.504Z</time>
</trkpt>
<trkpt lat="22.2557896" lon="113.9363708">
<ele>280.572</ele>
<time>2017-12-21T14:07:20.204Z</time>
</trkpt>
<trkpt lat="22.2558067" lon="113.9362674">
<ele>280.009</ele>
<time>2017-12-21T14:07:28.805Z</time>
</trkpt>
<trkpt lat="22.2557760" lon="113.9361679">
<ele>279.388</ele>
<time>2017-12-21T14:07:36.222Z</time>
</trkpt>
<trkpt lat="22.2557282" lon="113.9360628">
<ele>278.703</ele>
<time>2017-12-21T14:07:42.987Z</time>
</trkpt>
<trkpt lat="22.2556381" lon="113.9360180">
<ele>278.153</ele>
<time>2017-12-21T14:07:48.784Z</time>
</trkpt>
<trkpt lat="22.2555996" lon="113.9359203">
<ele>277.876</ele>
<time>2017-12-21T14:07:54.626Z</time>
</trkpt>
<trkpt lat="22.2556262" lon="113.9358255">
<ele>277.896</ele>
<time>2017-12-21T14:08:00.095Z</time>
</trkpt>
<trkpt lat="22.2555884" lon="113.9357205">
<ele>278.459</ele>
<time>2017-12-21T14:08:07.008Z</time>
</trkpt>
<trkpt lat="22.2555946" lon="113.9356124">
<ele>278.517</ele>
<time>2017-12-21T14:08:14.823Z</time>
</trkpt>
<trkpt lat="22.2556810" lon="113.9355779">
<ele>278.109</ele>
<time>2017-12-21T14:08:21.994Z</time>
</trkpt>
<trkpt lat="22.2556810" lon="113.9355779">
<ele>277.945</ele>
<time>2017-12-21T14:08:28.994Z</time>
</trkpt>
<trkpt lat="22.2556810" lon="113.9355779">
<ele>277.800</ele>
<time>2017-12-21T14:08:29.094Z</time>
</trkpt>
<trkpt lat="22.2557759" lon="113.9355459">
<ele>277.688</ele>
<time>2017-12-21T14:08:46.878Z</time>
</trkpt>
<trkpt lat="22.2558700" lon="113.9355194">
<ele>277.623</ele>
<time>2017-12-21T14:08:57.491Z</time>
</trkpt>
<trkpt lat="22.2559646" lon="113.9355274">
<ele>277.789</ele>
<time>2017-12-21T14:09:06.760Z</time>
</trkpt>
<trkpt lat="22.2560556" lon="113.9355058">
<ele>278.435</ele>
<time>2017-12-21T14:09:15.425Z</time>
</trkpt>
<trkpt lat="22.2561523" lon="113.9354798">
<ele>279.548</ele>
<time>2017-12-21T14:09:23.011Z</time>
</trkpt>
<trkpt lat="22.2562455" lon="113.9354518">
<ele>280.854</ele>
<time>2017-12-21T14:09:30.256Z</time>
</trkpt>
<trkpt lat="22.2563136" lon="113.9353816">
<ele>282.001</ele>
<time>2017-12-21T14:09:38.311Z</time>
</trkpt>
<trkpt lat="22.2563723" lon="113.9353034">
<ele>282.701</ele>
<time>2017-12-21T14:09:47.142Z</time>
</trkpt>
<trkpt lat="22.2564664" lon="113.9352596">
<ele>283.001</ele>
<time>2017-12-21T14:09:56.053Z</time>
</trkpt>
<trkpt lat="22.2565484" lon="113.9351982">
<ele>283.141</ele>
<time>2017-12-21T14:10:02.878Z</time>
</trkpt>
<trkpt lat="22.2566227" lon="113.9351391">
<ele>283.187</ele>
<time>2017-12-21T14:10:09.070Z</time>
</trkpt>
<trkpt lat="22.2566993" lon="113.9350775">
<ele>283.005</ele>
<time>2017-12-21T14:10:16.359Z</time>
</trkpt>
<trkpt lat="22.2567816" lon="113.9350176">
<ele>282.442</ele>
<time>2017-12-21T14:10:24.917Z</time>
</trkpt>
<trkpt lat="22.2568745" lon="113.9349950">
<ele>281.638</ele>
<time>2017-12-21T14:10:36.986Z</time>
</trkpt>
<trkpt lat="22.2569561" lon="113.9349222">
<ele>281.015</ele>
<time>2017-12-21T14:10:48.045Z</time>
</trkpt>
<trkpt lat="22.2570310" lon="113.9348605">
<ele>280.819</ele>
<time>2017-12-21T14:10:55.999Z</time>
</trkpt>
<trkpt lat="22.2570310" lon="113.9348605">
<ele>280.939</ele>
<time>2017-12-21T14:10:56.999Z</time>
</trkpt>
<trkpt lat="22.2570310" lon="113.9348605">
<ele>281.047</ele>
<time>2017-12-21T14:10:59.335Z</time>
</trkpt>
<trkpt lat="22.2571174" lon="113.9348145">
<ele>280.732</ele>
<time>2017-12-21T14:11:15.729Z</time>
</trkpt>
<trkpt lat="22.2572044" lon="113.9347770">
<ele>281.055</ele>
<time>2017-12-21T14:11:28.003Z</time>
</trkpt>
<trkpt lat="22.2572957" lon="113.9347843">
<ele>282.426</ele>
<time>2017-12-21T14:11:42.804Z</time>
</trkpt>
<trkpt lat="22.2573358" lon="113.9346816">
<ele>284.725</ele>
<time>2017-12-21T14:11:58.054Z</time>
</trkpt>
<trkpt lat="22.2573275" lon="113.9345765">
<ele>287.714</ele>
<time>2017-12-21T14:12:10.997Z</time>
</trkpt>
<trkpt lat="22.2573275" lon="113.9345765">
<ele>290.794</ele>
<time>2017-12-21T14:12:16.997Z</time>
</trkpt>
<trkpt lat="22.2573275" lon="113.9345765">
<ele>292.472</ele>
<time>2017-12-21T14:12:17.097Z</time>
</trkpt>
<trkpt lat="22.2574053" lon="113.9344906">
<ele>292.221</ele>
<time>2017-12-21T14:12:28.996Z</time>
</trkpt>
<trkpt lat="22.2574053" lon="113.9344906">
<ele>291.407</ele>
<time>2017-12-21T14:12:47.996Z</time>
</trkpt>
<trkpt lat="22.2574053" lon="113.9344906">
<ele>291.233</ele>
<time>2017-12-21T14:13:00.915Z</time>
</trkpt>
<trkpt lat="22.2574410" lon="113.9343000">
<ele>291.530</ele>
<time>2017-12-21T14:13:19.995Z</time>
</trkpt>
<trkpt lat="22.2574410" lon="113.9343000">
<ele>291.709</ele>
<time>2017-12-21T14:13:31.995Z</time>
</trkpt>
<trkpt lat="22.2574410" lon="113.9343000">
<ele>291.606</ele>
<time>2017-12-21T14:13:48.144Z</time>
</trkpt>
<trkpt lat="22.2574426" lon="113.9341982">
<ele>291.428</ele>
<time>2017-12-21T14:14:06.059Z</time>
</trkpt>
<trkpt lat="22.2574491" lon="113.9340946">
<ele>294.025</ele>
<time>2017-12-21T14:14:17.547Z</time>
</trkpt>
<trkpt lat="22.2574323" lon="113.9339815">
<ele>301.104</ele>
<time>2017-12-21T14:14:27.498Z</time>
</trkpt>
<trkpt lat="22.2574342" lon="113.9338830">
<ele>308.577</ele>
<time>2017-12-21T14:14:35.435Z</time>
</trkpt>
<trkpt lat="22.2575105" lon="113.9338239">
<ele>312.398</ele>
<time>2017-12-21T14:14:42.783Z</time>
</trkpt>
<trkpt lat="22.2575836" lon="113.9337521">
<ele>313.432</ele>
<time>2017-12-21T14:14:49.291Z</time>
</trkpt>
<trkpt lat="22.2576692" lon="113.9337216">
<ele>313.526</ele>
<time>2017-12-21T14:14:54.785Z</time>
</trkpt>
<trkpt lat="22.2577561" lon="113.9336934">
<ele>313.686</ele>
<time>2017-12-21T14:15:01.613Z</time>
</trkpt>
<trkpt lat="22.2577872" lon="113.9335920">
<ele>314.036</ele>
<time>2017-12-21T14:15:10.732Z</time>
</trkpt>
<trkpt lat="22.2578036" lon="113.9334899">
<ele>314.690</ele>
<time>2017-12-21T14:15:21.028Z</time>
</trkpt>
<trkpt lat="22.2577558" lon="113.9334007">
<ele>315.742</ele>
<time>2017-12-21T14:15:30.884Z</time>
</trkpt>
<trkpt lat="22.2577449" lon="113.9333007">
<ele>316.780</ele>
<time>2017-12-21T14:15:39.134Z</time>
</trkpt>
<trkpt lat="22.2577469" lon="113.9332013">
<ele>317.483</ele>
<time>2017-12-21T14:15:47.565Z</time>
</trkpt>
<trkpt lat="22.2577291" lon="113.9331036">
<ele>317.940</ele>
<time>2017-12-21T14:15:57.082Z</time>
</trkpt>
<trkpt lat="22.2576446" lon="113.9330543">
<ele>318.211</ele>
<time>2017-12-21T14:16:07.270Z</time>
</trkpt>
<trkpt lat="22.2576332" lon="113.9329573">
<ele>318.316</ele>
<time>2017-12-21T14:16:14.474Z</time>
</trkpt>
<trkpt lat="22.2576063" lon="113.9328558">
<ele>318.267</ele>
<time>2017-12-21T14:16:22.216Z</time>
</trkpt>
<trkpt lat="22.2576824" lon="113.9327924">
<ele>318.149</ele>
<time>2017-12-21T14:16:30.405Z</time>
</trkpt>
<trkpt lat="22.2577806" lon="113.9328053">
<ele>318.044</ele>
<time>2017-12-21T14:16:39.681Z</time>
</trkpt>
<trkpt lat="22.2578606" lon="113.9327437">
<ele>317.943</ele>
<time>2017-12-21T14:16:48.908Z</time>
</trkpt>
<trkpt lat="22.2579423" lon="113.9326786">
<ele>317.689</ele>
<time>2017-12-21T14:16:56.032Z</time>
</trkpt>
<trkpt lat="22.2579923" lon="113.9325973">
<ele>317.119</ele>
<time>2017-12-21T14:17:01.422Z</time>
</trkpt>
<trkpt lat="22.2580450" lon="113.9325043">
<ele>316.443</ele>
<time>2017-12-21T14:17:08.091Z</time>
</trkpt>
<trkpt lat="22.2580535" lon="113.9323989">
<ele>316.059</ele>
<time>2017-12-21T14:17:15.038Z</time>
</trkpt>
<trkpt lat="22.2580388" lon="113.9322880">
<ele>316.104</ele>
<time>2017-12-21T14:17:21.997Z</time>
</trkpt>
<trkpt lat="22.2579918" lon="113.9321990">
<ele>316.424</ele>
<time>2017-12-21T14:17:27.312Z</time>
</trkpt>
<trkpt lat="22.2579951" lon="113.9320895">
<ele>316.893</ele>
<time>2017-12-21T14:17:31.904Z</time>
</trkpt>
<trkpt lat="22.2579659" lon="113.9319942">
<ele>316.846</ele>
<time>2017-12-21T14:17:35.377Z</time>
</trkpt>
<trkpt lat="22.2579249" lon="113.9319025">
<ele>316.625</ele>
<time>2017-12-21T14:17:39.177Z</time>
</trkpt>
<trkpt lat="22.2578888" lon="113.9318099">
<ele>316.313</ele>
<time>2017-12-21T14:17:44.691Z</time>
</trkpt>
<trkpt lat="22.2578070" lon="113.9317522">
<ele>315.783</ele>
<time>2017-12-21T14:17:50.482Z</time>
</trkpt>
<trkpt lat="22.2578207" lon="113.9316499">
<ele>315.912</ele>
<time>2017-12-21T14:17:59.748Z</time>
</trkpt>
<trkpt lat="22.2578361" lon="113.9315509">
<ele>316.345</ele>
<time>2017-12-21T14:18:11.341Z</time>
</trkpt>
<trkpt lat="22.2578991" lon="113.9314629">
<ele>316.686</ele>
<time>2017-12-21T14:18:19.774Z</time>
</trkpt>
<trkpt lat="22.2579533" lon="113.9313849">
<ele>316.664</ele>
<time>2017-12-21T14:18:26.775Z</time>
</trkpt>
<trkpt lat="22.2579581" lon="113.9312773">
<ele>316.463</ele>
<time>2017-12-21T14:18:34.180Z</time>
</trkpt>
<trkpt lat="22.2579732" lon="113.9311667">
<ele>316.275</ele>
<time>2017-12-21T14:18:41.790Z</time>
</trkpt>
<trkpt lat="22.2579875" lon="113.9310574">
<ele>316.222</ele>
<time>2017-12-21T14:18:50.006Z</time>
</trkpt>
<trkpt lat="22.2580410" lon="113.9309582">
<ele>316.404</ele>
<time>2017-12-21T14:18:58.959Z</time>
</trkpt>
<trkpt lat="22.2580597" lon="113.9308539">
<ele>316.695</ele>
<time>2017-12-21T14:19:06.146Z</time>
</trkpt>
<trkpt lat="22.2581168" lon="113.9307743">
<ele>316.902</ele>
<time>2017-12-21T14:19:12.214Z</time>
</trkpt>
<trkpt lat="22.2581170" lon="113.9306716">
<ele>316.507</ele>
<time>2017-12-21T14:19:17.640Z</time>
</trkpt>
<trkpt lat="22.2580955" lon="113.9305705">
<ele>315.604</ele>
<time>2017-12-21T14:19:22.939Z</time>
</trkpt>
<trkpt lat="22.2581281" lon="113.9304701">
<ele>314.461</ele>
<time>2017-12-21T14:19:28.873Z</time>
</trkpt>
<trkpt lat="22.2581049" lon="113.9303705">
<ele>314.282</ele>
<time>2017-12-21T14:19:34.807Z</time>
</trkpt>
<trkpt lat="22.2581230" lon="113.9302637">
<ele>313.947</ele>
<time>2017-12-21T14:19:40.444Z</time>
</trkpt>
<trkpt lat="22.2581256" lon="113.9301654">
<ele>313.413</ele>
<time>2017-12-21T14:19:45.370Z</time>
</trkpt>
<trkpt lat="22.2581995" lon="113.9301098">
<ele>312.468</ele>
<time>2017-12-21T14:19:50.610Z</time>
</trkpt>
<trkpt lat="22.2582988" lon="113.9301207">
<ele>310.888</ele>
<time>2017-12-21T14:19:57.124Z</time>
</trkpt>
<trkpt lat="22.2583479" lon="113.9300166">
<ele>309.073</ele>
<time>2017-12-21T14:20:04.567Z</time>
</trkpt>
<trkpt lat="22.2583530" lon="113.9299114">
<ele>307.439</ele>
<time>2017-12-21T14:20:11.436Z</time>
</trkpt>
<trkpt lat="22.2583756" lon="113.9298031">
<ele>305.787</ele>
<time>2017-12-21T14:20:18.805Z</time>
</trkpt>
<trkpt lat="22.2584372" lon="113.9297306">
<ele>303.842</ele>
<time>2017-12-21T14:20:25.724Z</time>
</trkpt>
<trkpt lat="22.2584733" lon="113.9296410">
<ele>301.720</ele>
<time>2017-12-21T14:20:32.790Z</time>
</trkpt>
<trkpt lat="22.2585667" lon="113.9296244">
<ele>298.617</ele>
<time>2017-12-21T14:20:39.608Z</time>
</trkpt>
<trkpt lat="22.2586222" lon="113.9295376">
<ele>297.457</ele>
<time>2017-12-21T14:20:47.400Z</time>
</trkpt>
<trkpt lat="22.2585897" lon="113.9294374">
<ele>296.379</ele>
<time>2017-12-21T14:20:55.268Z</time>
</trkpt>
<trkpt lat="22.2586705" lon="113.9293880">
<ele>292.934</ele>
<time>2017-12-21T14:21:03.423Z</time>
</trkpt>
<trkpt lat="22.2587725" lon="113.9294079">
<ele>291.070</ele>
<time>2017-12-21T14:21:12.402Z</time>
</trkpt>
<trkpt lat="22.2588500" lon="113.9293484">
<ele>287.049</ele>
<time>2017-12-21T14:21:18.774Z</time>
</trkpt>
<trkpt lat="22.2589050" lon="113.9292669">
<ele>285.876</ele>
<time>2017-12-21T14:21:25.227Z</time>
</trkpt>
<trkpt lat="22.2588993" lon="113.9291598">
<ele>285.403</ele>
<time>2017-12-21T14:21:32.873Z</time>
</trkpt>
<trkpt lat="22.2588421" lon="113.9290810">
<ele>284.344</ele>
<time>2017-12-21T14:21:40.432Z</time>
</trkpt>
<trkpt lat="22.2588912" lon="113.9289932">
<ele>281.728</ele>
<time>2017-12-21T14:21:48.279Z</time>
</trkpt>
<trkpt lat="22.2589491" lon="113.9289080">
<ele>280.270</ele>
<time>2017-12-21T14:21:55.354Z</time>
</trkpt>
<trkpt lat="22.2590201" lon="113.9288396">
<ele>277.134</ele>
<time>2017-12-21T14:22:01.037Z</time>
</trkpt>
<trkpt lat="22.2591116" lon="113.9288014">
<ele>276.057</ele>
<time>2017-12-21T14:22:07.042Z</time>
</trkpt>
<trkpt lat="22.2591586" lon="113.9287055">
<ele>274.739</ele>
<time>2017-12-21T14:22:13.233Z</time>
</trkpt>
<trkpt lat="22.2591072" lon="113.9285987">
<ele>274.649</ele>
<time>2017-12-21T14:22:19.619Z</time>
</trkpt>
<trkpt lat="22.2590355" lon="113.9285174">
<ele>274.174</ele>
<time>2017-12-21T14:22:25.232Z</time>
</trkpt>
<trkpt lat="22.2589399" lon="113.9285074">
<ele>272.542</ele>
<time>2017-12-21T14:22:30.340Z</time>
</trkpt>
<trkpt lat="22.2588647" lon="113.9284352">
<ele>268.632</ele>
<time>2017-12-21T14:22:35.992Z</time>
</trkpt>
<trkpt lat="22.2588647" lon="113.9284352">
<ele>267.338</ele>
<time>2017-12-21T14:22:49.992Z</time>
</trkpt>
<trkpt lat="22.2588647" lon="113.9284352">
<ele>267.384</ele>
<time>2017-12-21T14:28:39.994Z</time>
</trkpt>
<trkpt lat="22.2588647" lon="113.9284352">
<ele>267.325</ele>
<time>2017-12-21T14:29:50.992Z</time>
</trkpt>
<trkpt lat="22.2588647" lon="113.9284352">
<ele>267.202</ele>
<time>2017-12-21T14:34:38.127Z</time>
</trkpt>
<trkpt lat="22.2587935" lon="113.9283616">
<ele>267.080</ele>
<time>2017-12-21T14:34:51.485Z</time>
</trkpt>
<trkpt lat="22.2587724" lon="113.9282616">
<ele>260.592</ele>
<time>2017-12-21T14:35:00.835Z</time>
</trkpt>
<trkpt lat="22.2587777" lon="113.9281570">
<ele>243.823</ele>
<time>2017-12-21T14:35:09.403Z</time>
</trkpt>
<trkpt lat="22.2587851" lon="113.9280414">
<ele>226.592</ele>
<time>2017-12-21T14:35:17.484Z</time>
</trkpt>
<trkpt lat="22.2587909" lon="113.9279440">
<ele>218.423</ele>
<time>2017-12-21T14:35:23.400Z</time>
</trkpt>
<trkpt lat="22.2588118" lon="113.9278368">
<ele>217.628</ele>
<time>2017-12-21T14:35:29.973Z</time>
</trkpt>
<trkpt lat="22.2588321" lon="113.9277343">
<ele>220.496</ele>
<time>2017-12-21T14:35:36.647Z</time>
</trkpt>
<trkpt lat="22.2588031" lon="113.9276334">
<ele>224.223</ele>
<time>2017-12-21T14:35:44.410Z</time>
</trkpt>
<trkpt lat="22.2587771" lon="113.9275402">
<ele>227.002</ele>
<time>2017-12-21T14:35:52.324Z</time>
</trkpt>
<trkpt lat="22.2587213" lon="113.9274535">
<ele>228.305</ele>
<time>2017-12-21T14:36:02.868Z</time>
</trkpt>
<trkpt lat="22.2586200" lon="113.9273620">
<ele>228.961</ele>
<time>2017-12-21T14:36:16.993Z</time>
</trkpt>
<trkpt lat="22.2586200" lon="113.9273620">
<ele>229.776</ele>
<time>2017-12-21T14:36:18.993Z</time>
</trkpt>
<trkpt lat="22.2586200" lon="113.9273620">
<ele>230.363</ele>
<time>2017-12-21T14:36:19.093Z</time>
</trkpt>
<trkpt lat="22.2585265" lon="113.9273376">
<ele>229.825</ele>
<time>2017-12-21T14:36:50.880Z</time>
</trkpt>
<trkpt lat="22.2584353" lon="113.9273365">
<ele>231.381</ele>
<time>2017-12-21T14:37:04.954Z</time>
</trkpt>
<trkpt lat="22.2583422" lon="113.9273594">
<ele>236.333</ele>
<time>2017-12-21T14:37:20.902Z</time>
</trkpt>
<trkpt lat="22.2582503" lon="113.9273530">
<ele>241.949</ele>
<time>2017-12-21T14:37:36.367Z</time>
</trkpt>
<trkpt lat="22.2581942" lon="113.9274317">
<ele>245.669</ele>
<time>2017-12-21T14:37:48.904Z</time>
</trkpt>
<trkpt lat="22.2581067" lon="113.9274684">
<ele>248.224</ele>
<time>2017-12-21T14:38:01.641Z</time>
</trkpt>
<trkpt lat="22.2580205" lon="113.9275144">
<ele>250.148</ele>
<time>2017-12-21T14:38:13.007Z</time>
</trkpt>
<trkpt lat="22.2579281" lon="113.9274913">
<ele>251.293</ele>
<time>2017-12-21T14:38:24.071Z</time>
</trkpt>
<trkpt lat="22.2578359" lon="113.9274690">
<ele>252.040</ele>
<time>2017-12-21T14:38:37.164Z</time>
</trkpt>
<trkpt lat="22.2577399" lon="113.9274492">
<ele>252.807</ele>
<time>2017-12-21T14:38:52.146Z</time>
</trkpt>
<trkpt lat="22.2577079" lon="113.9273566">
<ele>253.662</ele>
<time>2017-12-21T14:39:08.194Z</time>
</trkpt>
<trkpt lat="22.2577091" lon="113.9272444">
<ele>254.805</ele>
<time>2017-12-21T14:39:25.789Z</time>
</trkpt>
<trkpt lat="22.2577348" lon="113.9271477">
<ele>257.107</ele>
<time>2017-12-21T14:39:33.995Z</time>
</trkpt>
<trkpt lat="22.2577366" lon="113.9270454">
<ele>260.560</ele>
<time>2017-12-21T14:39:41.187Z</time>
</trkpt>
<trkpt lat="22.2577141" lon="113.9269448">
<ele>263.558</ele>
<time>2017-12-21T14:39:50.341Z</time>
</trkpt>
<trkpt lat="22.2576283" lon="113.9269072">
<ele>265.042</ele>
<time>2017-12-21T14:40:03.372Z</time>
</trkpt>
<trkpt lat="22.2575557" lon="113.9268206">
<ele>265.497</ele>
<time>2017-12-21T14:40:22.998Z</time>
</trkpt>
<trkpt lat="22.2575557" lon="113.9268206">
<ele>265.554</ele>
<time>2017-12-21T14:40:25.998Z</time>
</trkpt>
<trkpt lat="22.2575557" lon="113.9268206">
<ele>265.487</ele>
<time>2017-12-21T14:40:26.098Z</time>
</trkpt>
<trkpt lat="22.2573788" lon="113.9267334">
<ele>265.369</ele>
<time>2017-12-21T14:40:53.864Z</time>
</trkpt>
<trkpt lat="22.2572910" lon="113.9267651">
<ele>266.319</ele>
<time>2017-12-21T14:41:06.609Z</time>
</trkpt>
<trkpt lat="22.2571992" lon="113.9267583">
<ele>269.416</ele>
<time>2017-12-21T14:41:21.297Z</time>
</trkpt>
<trkpt lat="22.2571044" lon="113.9267873">
<ele>273.350</ele>
<time>2017-12-21T14:41:37.734Z</time>
</trkpt>
<trkpt lat="22.2570348" lon="113.9267240">
<ele>276.861</ele>
<time>2017-12-21T14:41:51.996Z</time>
</trkpt>
<trkpt lat="22.2570348" lon="113.9267240">
<ele>280.101</ele>
<time>2017-12-21T14:41:54.996Z</time>
</trkpt>
<trkpt lat="22.2570348" lon="113.9267240">
<ele>282.018</ele>
<time>2017-12-21T14:42:06.927Z</time>
</trkpt>
<trkpt lat="22.2570381" lon="113.9266097">
<ele>280.645</ele>
<time>2017-12-21T14:42:24.196Z</time>
</trkpt>
<trkpt lat="22.2570872" lon="113.9265112">
<ele>280.857</ele>
<time>2017-12-21T14:42:30.142Z</time>
</trkpt>
<trkpt lat="22.2570988" lon="113.9264115">
<ele>283.212</ele>
<time>2017-12-21T14:42:34.995Z</time>
</trkpt>
<trkpt lat="22.2570988" lon="113.9264115">
<ele>285.965</ele>
<time>2017-12-21T14:42:36.994Z</time>
</trkpt>
<trkpt lat="22.2570988" lon="113.9264115">
<ele>287.177</ele>
<time>2017-12-21T14:42:38.589Z</time>
</trkpt>
<trkpt lat="22.2571372" lon="113.9262089">
<ele>286.913</ele>
<time>2017-12-21T14:42:58.158Z</time>
</trkpt>
<trkpt lat="22.2571623" lon="113.9261032">
<ele>286.509</ele>
<time>2017-12-21T14:43:06.907Z</time>
</trkpt>
<trkpt lat="22.2572132" lon="113.9260175">
<ele>287.177</ele>
<time>2017-12-21T14:43:15.857Z</time>
</trkpt>
<trkpt lat="22.2572826" lon="113.9259399">
<ele>288.617</ele>
<time>2017-12-21T14:43:23.549Z</time>
</trkpt>
<trkpt lat="22.2573595" lon="113.9258870">
<ele>289.791</ele>
<time>2017-12-21T14:43:30.250Z</time>
</trkpt>
<trkpt lat="22.2574368" lon="113.9258349">
<ele>290.349</ele>
<time>2017-12-21T14:43:36.662Z</time>
</trkpt>
<trkpt lat="22.2575156" lon="113.9257837">
<ele>290.614</ele>
<time>2017-12-21T14:43:42.721Z</time>
</trkpt>
<trkpt lat="22.2576071" lon="113.9257801">
<ele>290.903</ele>
<time>2017-12-21T14:43:48.694Z</time>
</trkpt>
<trkpt lat="22.2576892" lon="113.9258280">
<ele>291.272</ele>
<time>2017-12-21T14:43:54.993Z</time>
</trkpt>
<trkpt lat="22.2576892" lon="113.9258280">
<ele>291.594</ele>
<time>2017-12-21T14:44:12.992Z</time>
</trkpt>
<trkpt lat="22.2576892" lon="113.9258280">
<ele>291.692</ele>
<time>2017-12-21T14:44:24.071Z</time>
</trkpt>
<trkpt lat="22.2577840" lon="113.9257522">
<ele>291.554</ele>
<time>2017-12-21T14:44:43.817Z</time>
</trkpt>
<trkpt lat="22.2578489" lon="113.9256836">
<ele>292.388</ele>
<time>2017-12-21T14:44:52.296Z</time>
</trkpt>
<trkpt lat="22.2579869" lon="113.9255834">
<ele>294.985</ele>
<time>2017-12-21T14:45:05.648Z</time>
</trkpt>
<trkpt lat="22.2580464" lon="113.9255091">
<ele>297.936</ele>
<time>2017-12-21T14:45:11.785Z</time>
</trkpt>
<trkpt lat="22.2581059" lon="113.9254311">
<ele>299.967</ele>
<time>2017-12-21T14:45:18.680Z</time>
</trkpt>
<trkpt lat="22.2581463" lon="113.9253317">
<ele>301.277</ele>
<time>2017-12-21T14:45:26.233Z</time>
</trkpt>
<trkpt lat="22.2581612" lon="113.9252227">
<ele>301.987</ele>
<time>2017-12-21T14:45:34.479Z</time>
</trkpt>
<trkpt lat="22.2582021" lon="113.9251348">
<ele>302.556</ele>
<time>2017-12-21T14:45:42.219Z</time>
</trkpt>
<trkpt lat="22.2582839" lon="113.9250766">
<ele>303.567</ele>
<time>2017-12-21T14:45:50.503Z</time>
</trkpt>
<trkpt lat="22.2583623" lon="113.9250257">
<ele>304.730</ele>
<time>2017-12-21T14:45:57.924Z</time>
</trkpt>
<trkpt lat="22.2584279" lon="113.9249542">
<ele>305.424</ele>
<time>2017-12-21T14:46:06.033Z</time>
</trkpt>
<trkpt lat="22.2585000" lon="113.9248898">
<ele>305.728</ele>
<time>2017-12-21T14:46:15.132Z</time>
</trkpt>
<trkpt lat="22.2585344" lon="113.9248000">
<ele>306.095</ele>
<time>2017-12-21T14:46:24.999Z</time>
</trkpt>
<trkpt lat="22.2585344" lon="113.9248000">
<ele>306.631</ele>
<time>2017-12-21T14:46:36.999Z</time>
</trkpt>
<trkpt lat="22.2585344" lon="113.9248000">
<ele>306.936</ele>
<time>2017-12-21T14:46:59.276Z</time>
</trkpt>
<trkpt lat="22.2583695" lon="113.9247275">
<ele>306.792</ele>
<time>2017-12-21T14:47:18.215Z</time>
</trkpt>
<trkpt lat="22.2582662" lon="113.9247348">
<ele>307.146</ele>
<time>2017-12-21T14:47:25.523Z</time>
</trkpt>
<trkpt lat="22.2581725" lon="113.9247101">
<ele>308.835</ele>
<time>2017-12-21T14:47:32.287Z</time>
</trkpt>
<trkpt lat="22.2580808" lon="113.9247121">
<ele>311.085</ele>
<time>2017-12-21T14:47:39.190Z</time>
</trkpt>
<trkpt lat="22.2579780" lon="113.9246925">
<ele>312.718</ele>
<time>2017-12-21T14:47:47.769Z</time>
</trkpt>
<trkpt lat="22.2578838" lon="113.9246684">
<ele>313.690</ele>
<time>2017-12-21T14:47:56.505Z</time>
</trkpt>
<trkpt lat="22.2577993" lon="113.9246289">
<ele>314.562</ele>
<time>2017-12-21T14:48:05.026Z</time>
</trkpt>
<trkpt lat="22.2577464" lon="113.9245370">
<ele>315.730</ele>
<time>2017-12-21T14:48:13.570Z</time>
</trkpt>
<trkpt lat="22.2577382" lon="113.9244255">
<ele>317.317</ele>
<time>2017-12-21T14:48:22.152Z</time>
</trkpt>
<trkpt lat="22.2577389" lon="113.9243153">
<ele>319.351</ele>
<time>2017-12-21T14:48:31.143Z</time>
</trkpt>
<trkpt lat="22.2577478" lon="113.9242137">
<ele>321.732</ele>
<time>2017-12-21T14:48:40.733Z</time>
</trkpt>
<trkpt lat="22.2577257" lon="113.9241081">
<ele>324.194</ele>
<time>2017-12-21T14:48:51.867Z</time>
</trkpt>
<trkpt lat="22.2577483" lon="113.9240125">
<ele>326.318</ele>
<time>2017-12-21T14:49:01.212Z</time>
</trkpt>
<trkpt lat="22.2577712" lon="113.9239137">
<ele>327.954</ele>
<time>2017-12-21T14:49:10.142Z</time>
</trkpt>
<trkpt lat="22.2577371" lon="113.9238175">
<ele>329.326</ele>
<time>2017-12-21T14:49:20.072Z</time>
</trkpt>
<trkpt lat="22.2576589" lon="113.9237534">
<ele>330.535</ele>
<time>2017-12-21T14:49:30.593Z</time>
</trkpt>
<trkpt lat="22.2576147" lon="113.9236668">
<ele>331.771</ele>
<time>2017-12-21T14:49:38.995Z</time>
</trkpt>
<trkpt lat="22.2575388" lon="113.9235999">
<ele>333.369</ele>
<time>2017-12-21T14:49:47.254Z</time>
</trkpt>
<trkpt lat="22.2574933" lon="113.9235041">
<ele>335.246</ele>
<time>2017-12-21T14:49:55.530Z</time>
</trkpt>
<trkpt lat="22.2574708" lon="113.9234086">
<ele>336.850</ele>
<time>2017-12-21T14:50:03.145Z</time>
</trkpt>
<trkpt lat="22.2574259" lon="113.9233125">
<ele>337.890</ele>
<time>2017-12-21T14:50:12.066Z</time>
</trkpt>
<trkpt lat="22.2573640" lon="113.9232387">
<ele>338.569</ele>
<time>2017-12-21T14:50:21.924Z</time>
</trkpt>
<trkpt lat="22.2573217" lon="113.9231493">
<ele>339.436</ele>
<time>2017-12-21T14:50:32.513Z</time>
</trkpt>
<trkpt lat="22.2572885" lon="113.9230509">
<ele>340.788</ele>
<time>2017-12-21T14:50:42.876Z</time>
</trkpt>
<trkpt lat="22.2572607" lon="113.9229461">
<ele>342.532</ele>
<time>2017-12-21T14:50:53.440Z</time>
</trkpt>
<trkpt lat="22.2572546" lon="113.9228426">
<ele>344.531</ele>
<time>2017-12-21T14:51:03.075Z</time>
</trkpt>
<trkpt lat="22.2572709" lon="113.9227438">
<ele>346.759</ele>
<time>2017-12-21T14:51:12.651Z</time>
</trkpt>
<trkpt lat="22.2572618" lon="113.9226430">
<ele>349.140</ele>
<time>2017-12-21T14:51:22.944Z</time>
</trkpt>
<trkpt lat="22.2572083" lon="113.9225634">
<ele>351.713</ele>
<time>2017-12-21T14:51:33.831Z</time>
</trkpt>
<trkpt lat="22.2572073" lon="113.9224557">
<ele>354.192</ele>
<time>2017-12-21T14:51:45.521Z</time>
</trkpt>
<trkpt lat="22.2572515" lon="113.9223671">
<ele>356.496</ele>
<time>2017-12-21T14:51:54.113Z</time>
</trkpt>
<trkpt lat="22.2573394" lon="113.9223284">
<ele>358.759</ele>
<time>2017-12-21T14:52:01.991Z</time>
</trkpt>
<trkpt lat="22.2573394" lon="113.9223284">
<ele>360.524</ele>
<time>2017-12-21T14:52:10.991Z</time>
</trkpt>
<trkpt lat="22.2573394" lon="113.9223284">
<ele>361.154</ele>
<time>2017-12-21T14:52:14.452Z</time>
</trkpt>
<trkpt lat="22.2573966" lon="113.9222500">
<ele>360.898</ele>
<time>2017-12-21T14:52:29.842Z</time>
</trkpt>
<trkpt lat="22.2573730" lon="113.9221545">
<ele>361.000</ele>
<time>2017-12-21T14:52:40.794Z</time>
</trkpt>
<trkpt lat="22.2573527" lon="113.9220531">
<ele>362.548</ele>
<time>2017-12-21T14:52:52.707Z</time>
</trkpt>
<trkpt lat="22.2573505" lon="113.9219528">
<ele>365.075</ele>
<time>2017-12-21T14:53:02.364Z</time>
</trkpt>
<trkpt lat="22.2573302" lon="113.9218558">
<ele>367.600</ele>
<time>2017-12-21T14:53:10.904Z</time>
</trkpt>
<trkpt lat="22.2572328" lon="113.9218456">
<ele>369.761</ele>
<time>2017-12-21T14:53:20.152Z</time>
</trkpt>
<trkpt lat="22.2571395" lon="113.9218405">
<ele>371.508</ele>
<time>2017-12-21T14:53:28.464Z</time>
</trkpt>
<trkpt lat="22.2570471" lon="113.9218816">
<ele>373.008</ele>
<time>2017-12-21T14:53:35.900Z</time>
</trkpt>
<trkpt lat="22.2569697" lon="113.9218289">
<ele>374.602</ele>
<time>2017-12-21T14:53:42.683Z</time>
</trkpt>
<trkpt lat="22.2569011" lon="113.9217535">
<ele>376.341</ele>
<time>2017-12-21T14:53:49.853Z</time>
</trkpt>
<trkpt lat="22.2568260" lon="113.9216777">
<ele>377.761</ele>
<time>2017-12-21T14:53:57.082Z</time>
</trkpt>
<trkpt lat="22.2567531" lon="113.9216046">
<ele>378.535</ele>
<time>2017-12-21T14:54:04.057Z</time>
</trkpt>
<trkpt lat="22.2567281" lon="113.9215104">
<ele>378.872</ele>
<time>2017-12-21T14:54:10.897Z</time>
</trkpt>
<trkpt lat="22.2567057" lon="113.9214021">
<ele>379.000</ele>
<time>2017-12-21T14:54:19.052Z</time>
</trkpt>
<trkpt lat="22.2567490" lon="113.9213071">
<ele>378.910</ele>
<time>2017-12-21T14:54:26.470Z</time>
</trkpt>
<trkpt lat="22.2567693" lon="113.9211985">
<ele>378.629</ele>
<time>2017-12-21T14:54:33.647Z</time>
</trkpt>
<trkpt lat="22.2568001" lon="113.9211049">
<ele>378.598</ele>
<time>2017-12-21T14:54:39.763Z</time>
</trkpt>
<trkpt lat="22.2568136" lon="113.9210046">
<ele>379.335</ele>
<time>2017-12-21T14:54:45.714Z</time>
</trkpt>
<trkpt lat="22.2568427" lon="113.9208980">
<ele>380.812</ele>
<time>2017-12-21T14:54:52.148Z</time>
</trkpt>
<trkpt lat="22.2569017" lon="113.9208234">
<ele>382.468</ele>
<time>2017-12-21T14:54:57.753Z</time>
</trkpt>
<trkpt lat="22.2569483" lon="113.9207286">
<ele>384.075</ele>
<time>2017-12-21T14:55:03.919Z</time>
</trkpt>
<trkpt lat="22.2569951" lon="113.9206407">
<ele>385.958</ele>
<time>2017-12-21T14:55:10.032Z</time>
</trkpt>
<trkpt lat="22.2570374" lon="113.9205520">
<ele>388.149</ele>
<time>2017-12-21T14:55:17.341Z</time>
</trkpt>
<trkpt lat="22.2570462" lon="113.9204505">
<ele>390.214</ele>
<time>2017-12-21T14:55:26.848Z</time>
</trkpt>
<trkpt lat="22.2570002" lon="113.9203639">
<ele>392.066</ele>
<time>2017-12-21T14:55:35.656Z</time>
</trkpt>
<trkpt lat="22.2569925" lon="113.9202593">
<ele>393.790</ele>
<time>2017-12-21T14:55:42.283Z</time>
</trkpt>
<trkpt lat="22.2569797" lon="113.9201363">
<ele>395.195</ele>
<time>2017-12-21T14:55:51.196Z</time>
</trkpt>
<trkpt lat="22.2570601" lon="113.9200872">
<ele>396.171</ele>
<time>2017-12-21T14:55:59.340Z</time>
</trkpt>
<trkpt lat="22.2571360" lon="113.9200345">
<ele>396.952</ele>
<time>2017-12-21T14:56:05.996Z</time>
</trkpt>
<trkpt lat="22.2571360" lon="113.9200345">
<ele>397.591</ele>
<time>2017-12-21T14:56:12.996Z</time>
</trkpt>
<trkpt lat="22.2571360" lon="113.9200345">
<ele>397.832</ele>
<time>2017-12-21T14:56:13.096Z</time>
</trkpt>
<trkpt lat="22.2572893" lon="113.9199180">
<ele>397.625</ele>
<time>2017-12-21T14:56:27.554Z</time>
</trkpt>
<trkpt lat="22.2572998" lon="113.9198148">
<ele>397.285</ele>
<time>2017-12-21T14:56:31.995Z</time>
</trkpt>
<trkpt lat="22.2572998" lon="113.9198148">
<ele>397.088</ele>
<time>2017-12-21T14:56:38.995Z</time>
</trkpt>
<trkpt lat="22.2572998" lon="113.9198148">
<ele>396.995</ele>
<time>2017-12-21T14:56:39.864Z</time>
</trkpt>
<trkpt lat="22.2572886" lon="113.9197160">
<ele>396.745</ele>
<time>2017-12-21T14:58:06.347Z</time>
</trkpt>
<trkpt lat="22.2569919" lon="113.9193310">
<ele>396.760</ele>
<time>2017-12-21T15:01:04.926Z</time>
</trkpt>
<trkpt lat="22.2569083" lon="113.9192821">
<ele>397.155</ele>
<time>2017-12-21T15:01:41.535Z</time>
</trkpt>
<trkpt lat="22.2568241" lon="113.9192361">
<ele>397.583</ele>
<time>2017-12-21T15:02:17.832Z</time>
</trkpt>
<trkpt lat="22.2567311" lon="113.9192037">
<ele>397.881</ele>
<time>2017-12-21T15:02:55.444Z</time>
</trkpt>
<trkpt lat="22.2566633" lon="113.9191275">
<ele>398.204</ele>
<time>2017-12-21T15:03:33.126Z</time>
</trkpt>
<trkpt lat="22.2566651" lon="113.9190278">
<ele>398.593</ele>
<time>2017-12-21T15:04:08.662Z</time>
</trkpt>
<trkpt lat="22.2566390" lon="113.9189265">
<ele>398.778</ele>
<time>2017-12-21T15:04:46.136Z</time>
</trkpt>
<trkpt lat="22.2566927" lon="113.9188252">
<ele>398.615</ele>
<time>2017-12-21T15:05:27.727Z</time>
</trkpt>
<trkpt lat="22.2567156" lon="113.9187212">
<ele>398.267</ele>
<time>2017-12-21T15:06:05.823Z</time>
</trkpt>
<trkpt lat="22.2566757" lon="113.9186317">
<ele>397.879</ele>
<time>2017-12-21T15:06:41.187Z</time>
</trkpt>
<trkpt lat="22.2565889" lon="113.9185975">
<ele>397.530</ele>
<time>2017-12-21T15:07:16.792Z</time>
</trkpt>
<trkpt lat="22.2565194" lon="113.9185303">
<ele>397.445</ele>
<time>2017-12-21T15:07:52.674Z</time>
</trkpt>
<trkpt lat="22.2564833" lon="113.9184329">
<ele>397.938</ele>
<time>2017-12-21T15:08:30.078Z</time>
</trkpt>
<trkpt lat="22.2564549" lon="113.9183348">
<ele>399.021</ele>
<time>2017-12-21T15:09:06.722Z</time>
</trkpt>
<trkpt lat="22.2564323" lon="113.9182385">
<ele>400.276</ele>
<time>2017-12-21T15:09:42.119Z</time>
</trkpt>
<trkpt lat="22.2564462" lon="113.9181297">
<ele>401.614</ele>
<time>2017-12-21T15:10:21.254Z</time>
</trkpt>
<trkpt lat="22.2564473" lon="113.9180246">
<ele>403.088</ele>
<time>2017-12-21T15:10:58.693Z</time>
</trkpt>
<trkpt lat="22.2563849" lon="113.9179507">
<ele>404.442</ele>
<time>2017-12-21T15:11:34.367Z</time>
</trkpt>
<trkpt lat="22.2564042" lon="113.9178551">
<ele>405.554</ele>
<time>2017-12-21T15:12:09.246Z</time>
</trkpt>
<trkpt lat="22.2563452" lon="113.9177722">
<ele>406.378</ele>
<time>2017-12-21T15:12:46.478Z</time>
</trkpt>
<trkpt lat="22.2562829" lon="113.9176997">
<ele>406.785</ele>
<time>2017-12-21T15:13:21.737Z</time>
</trkpt>
<trkpt lat="22.2562137" lon="113.9176314">
<ele>406.923</ele>
<time>2017-12-21T15:13:57.826Z</time>
</trkpt>
<trkpt lat="22.2561177" lon="113.9176302">
<ele>407.163</ele>
<time>2017-12-21T15:14:34.816Z</time>
</trkpt>
<trkpt lat="22.2560311" lon="113.9175929">
<ele>407.822</ele>
<time>2017-12-21T15:15:10.698Z</time>
</trkpt>
<trkpt lat="22.2560155" lon="113.9174861">
<ele>409.033</ele>
<time>2017-12-21T15:15:49.210Z</time>
</trkpt>
<trkpt lat="22.2559988" lon="113.9173887">
<ele>410.674</ele>
<time>2017-12-21T15:16:24.503Z</time>
</trkpt>
<trkpt lat="22.2559736" lon="113.9172870">
<ele>412.213</ele>
<time>2017-12-21T15:17:02.046Z</time>
</trkpt>
<trkpt lat="22.2559544" lon="113.9171805">
<ele>413.047</ele>
<time>2017-12-21T15:17:40.697Z</time>
</trkpt>
<trkpt lat="22.2559468" lon="113.9170787">
<ele>413.105</ele>
<time>2017-12-21T15:18:17.063Z</time>
</trkpt>
<trkpt lat="22.2558753" lon="113.9170098">
<ele>412.764</ele>
<time>2017-12-21T15:18:53.949Z</time>
</trkpt>
<trkpt lat="22.2558500" lon="113.9169166">
<ele>412.582</ele>
<time>2017-12-21T15:19:28.550Z</time>
</trkpt>
<trkpt lat="22.2558065" lon="113.9168254">
<ele>412.876</ele>
<time>2017-12-21T15:20:05.090Z</time>
</trkpt>
<trkpt lat="22.2558012" lon="113.9167215">
<ele>413.665</ele>
<time>2017-12-21T15:20:42.148Z</time>
</trkpt>
<trkpt lat="22.2557987" lon="113.9166244">
<ele>414.924</ele>
<time>2017-12-21T15:21:16.785Z</time>
</trkpt>
<trkpt lat="22.2557916" lon="113.9165236">
<ele>416.438</ele>
<time>2017-12-21T15:21:52.805Z</time>
</trkpt>
<trkpt lat="22.2558778" lon="113.9164679">
<ele>417.792</ele>
<time>2017-12-21T15:22:31.490Z</time>
</trkpt>
<trkpt lat="22.2558233" lon="113.9163863">
<ele>418.918</ele>
<time>2017-12-21T15:23:05.429Z</time>
</trkpt>
<trkpt lat="22.2558237" lon="113.9162872">
<ele>420.142</ele>
<time>2017-12-21T15:23:39.025Z</time>
</trkpt>
<trkpt lat="22.2557459" lon="113.9162237">
<ele>421.657</ele>
<time>2017-12-21T15:24:10.087Z</time>
</trkpt>
<trkpt lat="22.2557093" lon="113.9161241">
<ele>423.110</ele>
<time>2017-12-21T15:24:43.524Z</time>
</trkpt>
<trkpt lat="22.2556758" lon="113.9160285">
<ele>424.109</ele>
<time>2017-12-21T15:25:12.368Z</time>
</trkpt>
<trkpt lat="22.2556227" lon="113.9159497">
<ele>424.697</ele>
<time>2017-12-21T15:25:49.493Z</time>
</trkpt>
<trkpt lat="22.2555987" lon="113.9158386">
<ele>425.028</ele>
<time>2017-12-21T15:26:24.434Z</time>
</trkpt>
<trkpt lat="22.2556100" lon="113.9157380">
<ele>425.042</ele>
<time>2017-12-21T15:27:02.005Z</time>
</trkpt>
<trkpt lat="22.2555774" lon="113.9156450">
<ele>424.766</ele>
<time>2017-12-21T15:27:33.205Z</time>
</trkpt>
<trkpt lat="22.2555509" lon="113.9155438">
<ele>424.539</ele>
<time>2017-12-21T15:28:03.862Z</time>
</trkpt>
<trkpt lat="22.2554974" lon="113.9154615">
<ele>424.683</ele>
<time>2017-12-21T15:28:35.710Z</time>
</trkpt>
<trkpt lat="22.2554418" lon="113.9153850">
<ele>425.105</ele>
<time>2017-12-21T15:29:03.289Z</time>
</trkpt>
<trkpt lat="22.2554333" lon="113.9152849">
<ele>425.669</ele>
<time>2017-12-21T15:29:36.347Z</time>
</trkpt>
<trkpt lat="22.2554594" lon="113.9151901">
<ele>426.488</ele>
<time>2017-12-21T15:30:03.340Z</time>
</trkpt>
<trkpt lat="22.2553946" lon="113.9151133">
<ele>427.879</ele>
<time>2017-12-21T15:30:33.125Z</time>
</trkpt>
<trkpt lat="22.2554148" lon="113.9150082">
<ele>429.836</ele>
<time>2017-12-21T15:31:07.214Z</time>
</trkpt>
<trkpt lat="22.2554176" lon="113.9149060">
<ele>431.993</ele>
<time>2017-12-21T15:31:42.446Z</time>
</trkpt>
<trkpt lat="22.2554460" lon="113.9148099">
<ele>433.992</ele>
<time>2017-12-21T15:32:09.995Z</time>
</trkpt>
<trkpt lat="22.2554460" lon="113.9148099">
<ele>435.455</ele>
<time>2017-12-21T15:32:13.995Z</time>
</trkpt>
<trkpt lat="22.2554460" lon="113.9148099">
<ele>435.974</ele>
<time>2017-12-21T15:32:25.458Z</time>
</trkpt>
<trkpt lat="22.2554752" lon="113.9146961">
<ele>435.230</ele>
<time>2017-12-21T15:32:40.764Z</time>
</trkpt>
<trkpt lat="22.2554485" lon="113.9146022">
<ele>435.467</ele>
<time>2017-12-21T15:32:50.822Z</time>
</trkpt>
<trkpt lat="22.2554581" lon="113.9144998">
<ele>436.743</ele>
<time>2017-12-21T15:33:03.160Z</time>
</trkpt>
<trkpt lat="22.2554295" lon="113.9144010">
<ele>438.186</ele>
<time>2017-12-21T15:33:19.229Z</time>
</trkpt>
<trkpt lat="22.2554014" lon="113.9142969">
<ele>438.967</ele>
<time>2017-12-21T15:33:34.125Z</time>
</trkpt>
<trkpt lat="22.2553820" lon="113.9141929">
<ele>439.630</ele>
<time>2017-12-21T15:33:41.995Z</time>
</trkpt>
<trkpt lat="22.2553820" lon="113.9141929">
<ele>440.749</ele>
<time>2017-12-21T15:33:49.994Z</time>
</trkpt>
<trkpt lat="22.2553820" lon="113.9141929">
<ele>441.583</ele>
<time>2017-12-21T15:33:59.490Z</time>
</trkpt>
<trkpt lat="22.2553216" lon="113.9141204">
<ele>440.716</ele>
<time>2017-12-21T15:34:15.596Z</time>
</trkpt>
<trkpt lat="22.2552759" lon="113.9140301">
<ele>441.704</ele>
<time>2017-12-21T15:34:24.628Z</time>
</trkpt>
<trkpt lat="22.2552051" lon="113.9139600">
<ele>445.337</ele>
<time>2017-12-21T15:34:31.993Z</time>
</trkpt>
<trkpt lat="22.2552051" lon="113.9139600">
<ele>449.261</ele>
<time>2017-12-21T15:34:38.993Z</time>
</trkpt>
<trkpt lat="22.2552051" lon="113.9139600">
<ele>450.880</ele>
<time>2017-12-21T15:34:39.093Z</time>
</trkpt>
<trkpt lat="22.2551375" lon="113.9138731">
<ele>450.456</ele>
<time>2017-12-21T15:34:54.026Z</time>
</trkpt>
<trkpt lat="22.2550577" lon="113.9139265">
<ele>450.106</ele>
<time>2017-12-21T15:35:04.076Z</time>
</trkpt>
<trkpt lat="22.2550223" lon="113.9140177">
<ele>451.446</ele>
<time>2017-12-21T15:35:13.271Z</time>
</trkpt>
<trkpt lat="22.2550324" lon="113.9141199">
<ele>453.782</ele>
<time>2017-12-21T15:35:22.460Z</time>
</trkpt>
<trkpt lat="22.2550081" lon="113.9142164">
<ele>456.275</ele>
<time>2017-12-21T15:35:32.992Z</time>
</trkpt>
<trkpt lat="22.2550081" lon="113.9142164">
<ele>458.801</ele>
<time>2017-12-21T15:35:44.992Z</time>
</trkpt>
<trkpt lat="22.2550081" lon="113.9142164">
<ele>460.263</ele>
<time>2017-12-21T15:36:08.553Z</time>
</trkpt>
<trkpt lat="22.2549198" lon="113.9142965">
<ele>459.978</ele>
<time>2017-12-21T15:36:25.990Z</time>
</trkpt>
<trkpt lat="22.2549198" lon="113.9142965">
<ele>459.150</ele>
<time>2017-12-21T15:36:35.998Z</time>
</trkpt>
<trkpt lat="22.2549198" lon="113.9142965">
<ele>458.911</ele>
<time>2017-12-21T15:36:43.118Z</time>
</trkpt>
<trkpt lat="22.2549198" lon="113.9142965">
<ele>458.949</ele>
<time>2017-12-21T15:36:56.998Z</time>
</trkpt>
</trkseg>
<trkseg>
<trkpt lat="22.2551553" lon="113.9144025">
<ele>467.274</ele>
<time>2017-12-21T20:30:43.008Z</time>
</trkpt>
<trkpt lat="22.2550996" lon="113.9143715">
<ele>467.194</ele>
<time>2017-12-21T20:30:43.427Z</time>
</trkpt>
<trkpt lat="22.2550996" lon="113.9143715">
<ele>467.155</ele>
<time>2017-12-21T20:31:18.263Z</time>
</trkpt>
<trkpt lat="22.2549582" lon="113.9142463">
<ele>467.182</ele>
<time>2017-12-21T20:31:40.590Z</time>
</trkpt>
<trkpt lat="22.2549530" lon="113.9142421">
<ele>467.369</ele>
<time>2017-12-21T20:31:40.998Z</time>
</trkpt>
<trkpt lat="22.2549530" lon="113.9142421">
<ele>467.609</ele>
<time>2017-12-21T20:31:53.997Z</time>
</trkpt>
<trkpt lat="22.2549530" lon="113.9142421">
<ele>467.646</ele>
<time>2017-12-21T20:31:58.997Z</time>
</trkpt>
<trkpt lat="22.2549530" lon="113.9142421">
<ele>467.440</ele>
<time>2017-12-21T20:32:09.120Z</time>
</trkpt>
<trkpt lat="22.2549781" lon="113.9141458">
<ele>467.070</ele>
<time>2017-12-21T20:32:28.506Z</time>
</trkpt>
<trkpt lat="22.2549295" lon="113.9140621">
<ele>466.474</ele>
<time>2017-12-21T20:32:36.861Z</time>
</trkpt>
<trkpt lat="22.2549402" lon="113.9139489">
<ele>464.950</ele>
<time>2017-12-21T20:32:46.725Z</time>
</trkpt>
<trkpt lat="22.2549976" lon="113.9138691">
<ele>463.034</ele>
<time>2017-12-21T20:32:57.995Z</time>
</trkpt>
<trkpt lat="22.2549976" lon="113.9138691">
<ele>461.442</ele>
<time>2017-12-21T20:33:03.995Z</time>
</trkpt>
<trkpt lat="22.2549976" lon="113.9138691">
<ele>460.547</ele>
<time>2017-12-21T20:33:32.610Z</time>
</trkpt>
<trkpt lat="22.2551125" lon="113.9138280">
<ele>460.430</ele>
<time>2017-12-21T20:33:47.994Z</time>
</trkpt>
<trkpt lat="22.2551125" lon="113.9138280">
<ele>460.513</ele>
<time>2017-12-21T20:34:01.994Z</time>
</trkpt>
<trkpt lat="22.2551125" lon="113.9138280">
<ele>460.350</ele>
<time>2017-12-21T20:34:07.122Z</time>
</trkpt>
<trkpt lat="22.2550569" lon="113.9137449">
<ele>459.937</ele>
<time>2017-12-21T20:34:39.083Z</time>
</trkpt>
<trkpt lat="22.2549708" lon="113.9137070">
<ele>459.639</ele>
<time>2017-12-21T20:34:53.754Z</time>
</trkpt>
<trkpt lat="22.2548823" lon="113.9136785">
<ele>458.902</ele>
<time>2017-12-21T20:35:08.856Z</time>
</trkpt>
<trkpt lat="22.2547963" lon="113.9136457">
<ele>458.028</ele>
<time>2017-12-21T20:35:22.820Z</time>
</trkpt>
<trkpt lat="22.2547074" lon="113.9136283">
<ele>457.363</ele>
<time>2017-12-21T20:35:31.571Z</time>
</trkpt>
<trkpt lat="22.2546104" lon="113.9135874">
<ele>456.925</ele>
<time>2017-12-21T20:35:39.602Z</time>
</trkpt>
<trkpt lat="22.2545161" lon="113.9135567">
<ele>456.735</ele>
<time>2017-12-21T20:35:47.075Z</time>
</trkpt>
<trkpt lat="22.2544211" lon="113.9135100">
<ele>456.747</ele>
<time>2017-12-21T20:35:54.723Z</time>
</trkpt>
<trkpt lat="22.2543374" lon="113.9134599">
<ele>456.829</ele>
<time>2017-12-21T20:36:02.335Z</time>
</trkpt>
<trkpt lat="22.2542441" lon="113.9134948">
<ele>456.888</ele>
<time>2017-12-21T20:36:11.597Z</time>
</trkpt>
<trkpt lat="22.2541573" lon="113.9135362">
<ele>456.938</ele>
<time>2017-12-21T20:36:20.581Z</time>
</trkpt>
<trkpt lat="22.2540599" lon="113.9135091">
<ele>457.016</ele>
<time>2017-12-21T20:36:30.396Z</time>
</trkpt>
<trkpt lat="22.2540017" lon="113.9134349">
<ele>457.094</ele>
<time>2017-12-21T20:36:38.768Z</time>
</trkpt>
<trkpt lat="22.2539181" lon="113.9133937">
<ele>457.129</ele>
<time>2017-12-21T20:36:47.020Z</time>
</trkpt>
<trkpt lat="22.2538529" lon="113.9133112">
<ele>457.109</ele>
<time>2017-12-21T20:36:56.983Z</time>
</trkpt>
<trkpt lat="22.2537988" lon="113.9132282">
<ele>457.018</ele>
<time>2017-12-21T20:37:06.182Z</time>
</trkpt>
<trkpt lat="22.2537389" lon="113.9131431">
<ele>456.799</ele>
<time>2017-12-21T20:37:16.464Z</time>
</trkpt>
<trkpt lat="22.2536490" lon="113.9130987">
<ele>456.393</ele>
<time>2017-12-21T20:37:26.467Z</time>
</trkpt>
<trkpt lat="22.2535910" lon="113.9130194">
<ele>455.918</ele>
<time>2017-12-21T20:37:35.316Z</time>
</trkpt>
<trkpt lat="22.2535115" lon="113.9129659">
<ele>455.545</ele>
<time>2017-12-21T20:37:43.428Z</time>
</trkpt>
<trkpt lat="22.2534494" lon="113.9128876">
<ele>455.297</ele>
<time>2017-12-21T20:37:50.881Z</time>
</trkpt>
<trkpt lat="22.2534314" lon="113.9127813">
<ele>455.027</ele>
<time>2017-12-21T20:37:59.114Z</time>
</trkpt>
<trkpt lat="22.2533583" lon="113.9127186">
<ele>454.644</ele>
<time>2017-12-21T20:38:07.374Z</time>
</trkpt>
<trkpt lat="22.2529261" lon="113.9125775">
<ele>454.108</ele>
<time>2017-12-21T20:38:47.331Z</time>
</trkpt>
<trkpt lat="22.2528383" lon="113.9125401">
<ele>453.724</ele>
<time>2017-12-21T20:38:56.926Z</time>
</trkpt>
<trkpt lat="22.2527503" lon="113.9125182">
<ele>452.858</ele>
<time>2017-12-21T20:39:07.272Z</time>
</trkpt>
<trkpt lat="22.2526604" lon="113.9124782">
<ele>451.987</ele>
<time>2017-12-21T20:39:17.421Z</time>
</trkpt>
<trkpt lat="22.2525998" lon="113.9123996">
<ele>451.600</ele>
<time>2017-12-21T20:39:25.997Z</time>
</trkpt>
<trkpt lat="22.2525998" lon="113.9123996">
<ele>451.476</ele>
<time>2017-12-21T20:39:32.997Z</time>
</trkpt>
<trkpt lat="22.2525998" lon="113.9123996">
<ele>451.305</ele>
<time>2017-12-21T20:42:11.545Z</time>
</trkpt>
<trkpt lat="22.2524599" lon="113.9123499">
<ele>451.105</ele>
<time>2017-12-21T20:42:41.242Z</time>
</trkpt>
<trkpt lat="22.2524239" lon="113.9124423">
<ele>451.648</ele>
<time>2017-12-21T20:42:51.123Z</time>
</trkpt>
<trkpt lat="22.2523378" lon="113.9124916">
<ele>453.299</ele>
<time>2017-12-21T20:43:01.341Z</time>
</trkpt>
<trkpt lat="22.2522535" lon="113.9125424">
<ele>454.811</ele>
<time>2017-12-21T20:43:11.043Z</time>
</trkpt>
<trkpt lat="22.2521597" lon="113.9125511">
<ele>455.029</ele>
<time>2017-12-21T20:43:19.975Z</time>
</trkpt>
<trkpt lat="22.2520814" lon="113.9126214">
<ele>454.314</ele>
<time>2017-12-21T20:43:29.697Z</time>
</trkpt>
<trkpt lat="22.2520508" lon="113.9127208">
<ele>453.422</ele>
<time>2017-12-21T20:43:39.128Z</time>
</trkpt>
<trkpt lat="22.2520492" lon="113.9128231">
<ele>452.820</ele>
<time>2017-12-21T20:43:48.843Z</time>
</trkpt>
<trkpt lat="22.2520125" lon="113.9129137">
<ele>452.742</ele>
<time>2017-12-21T20:43:58.474Z</time>
</trkpt>
<trkpt lat="22.2520607" lon="113.9130069">
<ele>453.164</ele>
<time>2017-12-21T20:44:08.618Z</time>
</trkpt>
<trkpt lat="22.2521046" lon="113.9130930">
<ele>453.837</ele>
<time>2017-12-21T20:44:21.355Z</time>
</trkpt>
<trkpt lat="22.2520669" lon="113.9131895">
<ele>454.706</ele>
<time>2017-12-21T20:44:35.840Z</time>
</trkpt>
<trkpt lat="22.2519901" lon="113.9132565">
<ele>456.001</ele>
<time>2017-12-21T20:44:45.373Z</time>
</trkpt>
<trkpt lat="22.2518955" lon="113.9132754">
<ele>457.476</ele>
<time>2017-12-21T20:44:53.989Z</time>
</trkpt>
<trkpt lat="22.2518955" lon="113.9132754">
<ele>458.372</ele>
<time>2017-12-21T20:45:01.997Z</time>
</trkpt>
<trkpt lat="22.2518955" lon="113.9132754">
<ele>458.428</ele>
<time>2017-12-21T20:45:02.613Z</time>
</trkpt>
<trkpt lat="22.2517680" lon="113.9133258">
<ele>458.057</ele>
<time>2017-12-21T20:45:30.311Z</time>
</trkpt>
<trkpt lat="22.2516759" lon="113.9133505">
<ele>457.725</ele>
<time>2017-12-21T20:45:42.699Z</time>
</trkpt>
<trkpt lat="22.2515752" lon="113.9133642">
<ele>457.653</ele>
<time>2017-12-21T20:45:54.294Z</time>
</trkpt>
<trkpt lat="22.2514787" lon="113.9133592">
<ele>457.781</ele>
<time>2017-12-21T20:46:02.254Z</time>
</trkpt>
<trkpt lat="22.2513813" lon="113.9133270">
<ele>457.910</ele>
<time>2017-12-21T20:46:10.534Z</time>
</trkpt>
<trkpt lat="22.2512904" lon="113.9133081">
<ele>457.916</ele>
<time>2017-12-21T20:46:18.190Z</time>
</trkpt>
<trkpt lat="22.2511926" lon="113.9133072">
<ele>457.668</ele>
<time>2017-12-21T20:46:26.722Z</time>
</trkpt>
<trkpt lat="22.2511035" lon="113.9133344">
<ele>457.326</ele>
<time>2017-12-21T20:46:35.720Z</time>
</trkpt>
<trkpt lat="22.2510090" lon="113.9132950">
<ele>457.486</ele>
<time>2017-12-21T20:46:45.737Z</time>
</trkpt>
<trkpt lat="22.2509128" lon="113.9133134">
<ele>458.328</ele>
<time>2017-12-21T20:46:53.924Z</time>
</trkpt>
<trkpt lat="22.2508298" lon="113.9133585">
<ele>459.262</ele>
<time>2017-12-21T20:47:02.064Z</time>
</trkpt>
<trkpt lat="22.2507414" lon="113.9133831">
<ele>459.807</ele>
<time>2017-12-21T20:47:11.377Z</time>
</trkpt>
<trkpt lat="22.2506626" lon="113.9134311">
<ele>460.033</ele>
<time>2017-12-21T20:47:22.326Z</time>
</trkpt>
<trkpt lat="22.2506162" lon="113.9135222">
<ele>460.334</ele>
<time>2017-12-21T20:47:34.174Z</time>
</trkpt>
<trkpt lat="22.2505453" lon="113.9135841">
<ele>460.940</ele>
<time>2017-12-21T20:47:46.669Z</time>
</trkpt>
<trkpt lat="22.2504638" lon="113.9136311">
<ele>462.130</ele>
<time>2017-12-21T20:48:03.342Z</time>
</trkpt>
<trkpt lat="22.2503731" lon="113.9136265">
<ele>464.004</ele>
<time>2017-12-21T20:48:19.127Z</time>
</trkpt>
<trkpt lat="22.2502705" lon="113.9136527">
<ele>466.161</ele>
<time>2017-12-21T20:48:33.995Z</time>
</trkpt>
<trkpt lat="22.2502705" lon="113.9136527">
<ele>468.012</ele>
<time>2017-12-21T20:48:36.994Z</time>
</trkpt>
<trkpt lat="22.2502705" lon="113.9136527">
<ele>468.913</ele>
<time>2017-12-21T20:48:41.925Z</time>
</trkpt>
<trkpt lat="22.2500762" lon="113.9137003">
<ele>468.634</ele>
<time>2017-12-21T20:49:08.994Z</time>
</trkpt>
<trkpt lat="22.2500762" lon="113.9137003">
<ele>468.022</ele>
<time>2017-12-21T20:49:25.993Z</time>
</trkpt>
<trkpt lat="22.2500762" lon="113.9137003">
<ele>467.800</ele>
<time>2017-12-21T20:49:26.093Z</time>
</trkpt>
<trkpt lat="22.2499861" lon="113.9137151">
<ele>467.894</ele>
<time>2017-12-21T20:49:37.993Z</time>
</trkpt>
<trkpt lat="22.2499861" lon="113.9137151">
<ele>467.943</ele>
<time>2017-12-21T20:49:47.993Z</time>
</trkpt>
<trkpt lat="22.2499861" lon="113.9137151">
<ele>467.786</ele>
<time>2017-12-21T20:49:48.093Z</time>
</trkpt>
<trkpt lat="22.2499384" lon="113.9138108">
<ele>467.405</ele>
<time>2017-12-21T20:50:16.857Z</time>
</trkpt>
<trkpt lat="22.2498392" lon="113.9138347">
<ele>469.335</ele>
<time>2017-12-21T20:50:30.410Z</time>
</trkpt>
<trkpt lat="22.2497430" lon="113.9138408">
<ele>474.479</ele>
<time>2017-12-21T20:50:43.221Z</time>
</trkpt>
<trkpt lat="22.2496802" lon="113.9139113">
<ele>479.495</ele>
<time>2017-12-21T20:50:56.720Z</time>
</trkpt>
<trkpt lat="22.2495865" lon="113.9139285">
<ele>481.293</ele>
<time>2017-12-21T20:51:07.898Z</time>
</trkpt>
<trkpt lat="22.2496766" lon="113.9139443">
<ele>481.035</ele>
<time>2017-12-21T20:51:18.723Z</time>
</trkpt>
<trkpt lat="22.2495936" lon="113.9139819">
<ele>481.097</ele>
<time>2017-12-21T20:51:30.703Z</time>
</trkpt>
<trkpt lat="22.2495259" lon="113.9139137">
<ele>482.387</ele>
<time>2017-12-21T20:51:40.835Z</time>
</trkpt>
<trkpt lat="22.2495967" lon="113.9138438">
<ele>483.890</ele>
<time>2017-12-21T20:51:50.573Z</time>
</trkpt>
<trkpt lat="22.2495157" lon="113.9138997">
<ele>484.515</ele>
<time>2017-12-21T20:52:02.865Z</time>
</trkpt>
<trkpt lat="22.2494293" lon="113.9139362">
<ele>484.344</ele>
<time>2017-12-21T20:52:21.998Z</time>
</trkpt>
<trkpt lat="22.2494293" lon="113.9139362">
<ele>483.943</ele>
<time>2017-12-21T20:53:45.997Z</time>
</trkpt>
<trkpt lat="22.2494293" lon="113.9139362">
<ele>483.726</ele>
<time>2017-12-21T20:53:46.097Z</time>
</trkpt>
<trkpt lat="22.2492807" lon="113.9139334">
<ele>483.696</ele>
<time>2017-12-21T20:54:36.996Z</time>
</trkpt>
<trkpt lat="22.2492807" lon="113.9139334">
<ele>483.681</ele>
<time>2017-12-21T20:54:41.996Z</time>
</trkpt>
<trkpt lat="22.2492807" lon="113.9139334">
<ele>483.541</ele>
<time>2017-12-21T20:54:46.679Z</time>
</trkpt>
<trkpt lat="22.2491905" lon="113.9139109">
<ele>483.154</ele>
<time>2017-12-21T20:55:23.995Z</time>
</trkpt>
<trkpt lat="22.2491905" lon="113.9139109">
<ele>483.091</ele>
<time>2017-12-21T20:55:40.994Z</time>
</trkpt>
<trkpt lat="22.2491905" lon="113.9139109">
<ele>483.018</ele>
<time>2017-12-21T20:55:41.094Z</time>
</trkpt>
<trkpt lat="22.2490827" lon="113.9139815">
<ele>482.846</ele>
<time>2017-12-21T20:55:56.994Z</time>
</trkpt>
<trkpt lat="22.2490827" lon="113.9139815">
<ele>482.656</ele>
<time>2017-12-21T20:55:59.994Z</time>
</trkpt>
<trkpt lat="22.2490827" lon="113.9139815">
<ele>482.513</ele>
<time>2017-12-21T20:56:00.094Z</time>
</trkpt>
<trkpt lat="22.2490221" lon="113.9140572">
<ele>482.387</ele>
<time>2017-12-21T20:56:11.994Z</time>
</trkpt>
<trkpt lat="22.2490221" lon="113.9140572">
<ele>482.274</ele>
<time>2017-12-21T20:56:11.994Z</time>
</trkpt>
<trkpt lat="22.2490221" lon="113.9140572">
<ele>482.139</ele>
<time>2017-12-21T20:56:50.378Z</time>
</trkpt>
<trkpt lat="22.2489658" lon="113.9141792">
<ele>481.974</ele>
<time>2017-12-21T20:57:46.726Z</time>
</trkpt>
<trkpt lat="22.2488725" lon="113.9141806">
<ele>487.941</ele>
<time>2017-12-21T20:58:02.991Z</time>
</trkpt>
<trkpt lat="22.2488725" lon="113.9141806">
<ele>503.757</ele>
<time>2017-12-21T20:58:11.991Z</time>
</trkpt>
<trkpt lat="22.2488725" lon="113.9141806">
<ele>516.902</ele>
<time>2017-12-21T20:58:20.386Z</time>
</trkpt>
<trkpt lat="22.2488153" lon="113.9142613">
<ele>509.262</ele>
<time>2017-12-21T20:58:54.990Z</time>
</trkpt>
<trkpt lat="22.2488153" lon="113.9142613">
<ele>504.726</ele>
<time>2017-12-21T20:59:08.989Z</time>
</trkpt>
<trkpt lat="22.2488153" lon="113.9142613">
<ele>504.778</ele>
<time>2017-12-21T20:59:13.818Z</time>
</trkpt>
<trkpt lat="22.2488153" lon="113.9142613">
<ele>506.170</ele>
<time>2017-12-21T20:59:34.998Z</time>
</trkpt>
<trkpt lat="22.2488153" lon="113.9142613">
<ele>505.269</ele>
<time>2017-12-21T20:59:35.098Z</time>
</trkpt>
<trkpt lat="22.2487257" lon="113.9143279">
<ele>504.993</ele>
<time>2017-12-21T20:59:44.999Z</time>
</trkpt>
<trkpt lat="22.2487257" lon="113.9143279">
<ele>505.250</ele>
<time>2017-12-21T20:59:49.999Z</time>
</trkpt>
<trkpt lat="22.2487257" lon="113.9143279">
<ele>505.386</ele>
<time>2017-12-21T21:00:14.763Z</time>
</trkpt>
<trkpt lat="22.2486101" lon="113.9144150">
<ele>505.170</ele>
<time>2017-12-21T21:00:54.998Z</time>
</trkpt>
<trkpt lat="22.2486101" lon="113.9144150">
<ele>504.841</ele>
<time>2017-12-21T21:01:08.997Z</time>
</trkpt>
<trkpt lat="22.2486101" lon="113.9144150">
<ele>504.644</ele>
<time>2017-12-21T21:01:09.097Z</time>
</trkpt>
<trkpt lat="22.2485263" lon="113.9144681">
<ele>504.395</ele>
<time>2017-12-21T21:03:44.614Z</time>
</trkpt>
<trkpt lat="22.2485144" lon="113.9145654">
<ele>512.928</ele>
<time>2017-12-21T21:04:01.825Z</time>
</trkpt>
<trkpt lat="22.2485148" lon="113.9146628">
<ele>535.417</ele>
<time>2017-12-21T21:04:18.678Z</time>
</trkpt>
<trkpt lat="22.2485025" lon="113.9147631">
<ele>558.618</ele>
<time>2017-12-21T21:04:38.897Z</time>
</trkpt>
<trkpt lat="22.2484569" lon="113.9148508">
<ele>570.264</ele>
<time>2017-12-21T21:04:55.851Z</time>
</trkpt>
<trkpt lat="22.2484526" lon="113.9149572">
<ele>573.429</ele>
<time>2017-12-21T21:05:16.444Z</time>
</trkpt>
<trkpt lat="22.2484449" lon="113.9150541">
<ele>573.077</ele>
<time>2017-12-21T21:05:33.738Z</time>
</trkpt>
<trkpt lat="22.2484339" lon="113.9151634">
<ele>572.054</ele>
<time>2017-12-21T21:05:54.080Z</time>
</trkpt>
<trkpt lat="22.2484269" lon="113.9152603">
<ele>571.567</ele>
<time>2017-12-21T21:06:13.600Z</time>
</trkpt>
<trkpt lat="22.2483598" lon="113.9153252">
<ele>571.598</ele>
<time>2017-12-21T21:06:33.805Z</time>
</trkpt>
<trkpt lat="22.2482688" lon="113.9153522">
<ele>571.789</ele>
<time>2017-12-21T21:06:54.999Z</time>
</trkpt>
<trkpt lat="22.2482688" lon="113.9153522">
<ele>571.853</ele>
<time>2017-12-21T21:07:28.998Z</time>
</trkpt>
<trkpt lat="22.2482688" lon="113.9153522">
<ele>571.669</ele>
<time>2017-12-21T21:07:29.098Z</time>
</trkpt>
<trkpt lat="22.2482479" lon="113.9154962">
<ele>571.376</ele>
<time>2017-12-21T21:07:56.998Z</time>
</trkpt>
<trkpt lat="22.2482479" lon="113.9154962">
<ele>571.113</ele>
<time>2017-12-21T21:08:08.998Z</time>
</trkpt>
<trkpt lat="22.2482479" lon="113.9154962">
<ele>570.849</ele>
<time>2017-12-21T21:08:09.098Z</time>
</trkpt>
<trkpt lat="22.2482241" lon="113.9156239">
<ele>570.637</ele>
<time>2017-12-21T21:08:27.157Z</time>
</trkpt>
<trkpt lat="22.2481340" lon="113.9156218">
<ele>570.808</ele>
<time>2017-12-21T21:08:36.997Z</time>
</trkpt>
<trkpt lat="22.2481340" lon="113.9156218">
<ele>571.450</ele>
<time>2017-12-21T21:08:41.997Z</time>
</trkpt>
<trkpt lat="22.2481340" lon="113.9156218">
<ele>571.894</ele>
<time>2017-12-21T21:09:20.110Z</time>
</trkpt>
<trkpt lat="22.2480113" lon="113.9156937">
<ele>571.647</ele>
<time>2017-12-21T21:09:38.995Z</time>
</trkpt>
<trkpt lat="22.2480113" lon="113.9156937">
<ele>571.149</ele>
<time>2017-12-21T21:10:04.995Z</time>
</trkpt>
<trkpt lat="22.2480113" lon="113.9156937">
<ele>570.895</ele>
<time>2017-12-21T21:10:20.181Z</time>
</trkpt>
<trkpt lat="22.2477954" lon="113.9157419">
<ele>570.873</ele>
<time>2017-12-21T21:11:42.612Z</time>
</trkpt>
<trkpt lat="22.2476986" lon="113.9157271">
<ele>576.120</ele>
<time>2017-12-21T21:12:12.600Z</time>
</trkpt>
<trkpt lat="22.2476193" lon="113.9157790">
<ele>590.051</ele>
<time>2017-12-21T21:12:40.991Z</time>
</trkpt>
<trkpt lat="22.2476193" lon="113.9157790">
<ele>604.893</ele>
<time>2017-12-21T21:12:48.991Z</time>
</trkpt>
<trkpt lat="22.2476193" lon="113.9157790">
<ele>611.486</ele>
<time>2017-12-21T21:12:58.370Z</time>
</trkpt>
<trkpt lat="22.2475455" lon="113.9158396">
<ele>610.438</ele>
<time>2017-12-21T21:13:54.998Z</time>
</trkpt>
<trkpt lat="22.2475455" lon="113.9158396">
<ele>607.580</ele>
<time>2017-12-21T21:13:57.998Z</time>
</trkpt>
<trkpt lat="22.2475455" lon="113.9158396">
<ele>607.148</ele>
<time>2017-12-21T21:14:12.835Z</time>
</trkpt>
<trkpt lat="22.2475235" lon="113.9159443">
<ele>608.404</ele>
<time>2017-12-21T21:14:56.998Z</time>
</trkpt>
<trkpt lat="22.2475235" lon="113.9159443">
<ele>609.191</ele>
<time>2017-12-21T21:15:17.998Z</time>
</trkpt>
<trkpt lat="22.2475235" lon="113.9159443">
<ele>609.013</ele>
<time>2017-12-21T21:18:12.706Z</time>
</trkpt>
<trkpt lat="22.2474245" lon="113.9160919">
<ele>608.575</ele>
<time>2017-12-21T21:18:56.992Z</time>
</trkpt>
<trkpt lat="22.2474245" lon="113.9160919">
<ele>608.405</ele>
<time>2017-12-21T21:19:00.992Z</time>
</trkpt>
<trkpt lat="22.2474245" lon="113.9160919">
<ele>608.317</ele>
<time>2017-12-21T21:19:16.992Z</time>
</trkpt>
<trkpt lat="22.2474245" lon="113.9160919">
<ele>608.118</ele>
<time>2017-12-21T21:19:17.092Z</time>
</trkpt>
<trkpt lat="22.2472967" lon="113.9161445">
<ele>607.864</ele>
<time>2017-12-21T21:20:07.990Z</time>
</trkpt>
<trkpt lat="22.2472967" lon="113.9161445">
<ele>607.695</ele>
<time>2017-12-21T21:20:12.990Z</time>
</trkpt>
<trkpt lat="22.2472967" lon="113.9161445">
<ele>607.555</ele>
<time>2017-12-21T21:20:13.090Z</time>
</trkpt>
<trkpt lat="22.2472967" lon="113.9161445">
<ele>607.123</ele>
<time>2017-12-21T21:21:11.998Z</time>
</trkpt>
<trkpt lat="22.2472967" lon="113.9161445">
<ele>606.944</ele>
<time>2017-12-21T21:21:14.676Z</time>
</trkpt>
<trkpt lat="22.2474493" lon="113.9163188">
<ele>606.783</ele>
<time>2017-12-21T21:22:14.998Z</time>
</trkpt>
<trkpt lat="22.2474493" lon="113.9163188">
<ele>606.634</ele>
<time>2017-12-21T21:22:18.998Z</time>
</trkpt>
<trkpt lat="22.2474493" lon="113.9163188">
<ele>606.464</ele>
<time>2017-12-21T21:25:41.371Z</time>
</trkpt>
<trkpt lat="22.2473315" lon="113.9164602">
<ele>606.260</ele>
<time>2017-12-21T21:26:19.992Z</time>
</trkpt>
<trkpt lat="22.2473315" lon="113.9164602">
<ele>606.088</ele>
<time>2017-12-21T21:26:23.992Z</time>
</trkpt>
<trkpt lat="22.2473315" lon="113.9164602">
<ele>605.927</ele>
<time>2017-12-21T21:26:28.016Z</time>
</trkpt>
<trkpt lat="22.2472877" lon="113.9165497">
<ele>605.505</ele>
<time>2017-12-21T21:27:32.990Z</time>
</trkpt>
<trkpt lat="22.2472877" lon="113.9165497">
<ele>605.384</ele>
<time>2017-12-21T21:27:37.990Z</time>
</trkpt>
<trkpt lat="22.2472877" lon="113.9165497">
<ele>605.273</ele>
<time>2017-12-21T21:28:15.092Z</time>
</trkpt>
<trkpt lat="22.2472877" lon="113.9165497">
<ele>604.816</ele>
<time>2017-12-21T21:28:47.999Z</time>
</trkpt>
<trkpt lat="22.2472877" lon="113.9165497">
<ele>604.634</ele>
<time>2017-12-21T21:29:29.315Z</time>
</trkpt>
<trkpt lat="22.2471124" lon="113.9167598">
<ele>604.482</ele>
<time>2017-12-21T21:31:21.995Z</time>
</trkpt>
<trkpt lat="22.2471124" lon="113.9167598">
<ele>604.341</ele>
<time>2017-12-21T21:31:25.995Z</time>
</trkpt>
<trkpt lat="22.2471124" lon="113.9167598">
<ele>604.170</ele>
<time>2017-12-21T21:31:41.994Z</time>
</trkpt>
<trkpt lat="22.2471124" lon="113.9167598">
<ele>603.944</ele>
<time>2017-12-21T21:32:28.472Z</time>
</trkpt>
<trkpt lat="22.2471124" lon="113.9167598">
<ele>603.546</ele>
<time>2017-12-21T21:32:44.993Z</time>
</trkpt>
<trkpt lat="22.2471124" lon="113.9167598">
<ele>603.397</ele>
<time>2017-12-21T21:33:42.038Z</time>
</trkpt>
<trkpt lat="22.2469956" lon="113.9169915">
<ele>603.217</ele>
<time>2017-12-21T21:37:48.996Z</time>
</trkpt>
<trkpt lat="22.2469956" lon="113.9169915">
<ele>603.038</ele>
<time>2017-12-21T21:37:52.996Z</time>
</trkpt>
<trkpt lat="22.2469956" lon="113.9169915">
<ele>602.866</ele>
<time>2017-12-21T21:40:11.013Z</time>
</trkpt>
<trkpt lat="22.2468904" lon="113.9171927">
<ele>602.679</ele>
<time>2017-12-21T21:46:02.995Z</time>
</trkpt>
<trkpt lat="22.2468904" lon="113.9171927">
<ele>602.518</ele>
<time>2017-12-21T21:46:15.994Z</time>
</trkpt>
<trkpt lat="22.2468904" lon="113.9171927">
<ele>602.355</ele>
<time>2017-12-21T21:46:17.775Z</time>
</trkpt>
<trkpt lat="22.2468904" lon="113.9171927">
<ele>601.932</ele>
<time>2017-12-21T21:46:29.994Z</time>
</trkpt>
<trkpt lat="22.2468904" lon="113.9171927">
<ele>601.764</ele>
<time>2017-12-21T21:47:16.739Z</time>
</trkpt>
<trkpt lat="22.2468814" lon="113.9173766">
<ele>601.599</ele>
<time>2017-12-21T21:47:41.992Z</time>
</trkpt>
<trkpt lat="22.2468814" lon="113.9173766">
<ele>601.442</ele>
<time>2017-12-21T21:47:44.992Z</time>
</trkpt>
<trkpt lat="22.2468814" lon="113.9173766">
<ele>601.272</ele>
<time>2017-12-21T21:47:45.092Z</time>
</trkpt>
<trkpt lat="22.2467734" lon="113.9173977">
<ele>601.075</ele>
<time>2017-12-21T21:48:43.991Z</time>
</trkpt>
<trkpt lat="22.2467734" lon="113.9173977">
<ele>600.907</ele>
<time>2017-12-21T21:48:46.990Z</time>
</trkpt>
<trkpt lat="22.2467734" lon="113.9173977">
<ele>600.747</ele>
<time>2017-12-21T21:48:47.090Z</time>
</trkpt>
<trkpt lat="22.2467236" lon="113.9176076">
<ele>600.558</ele>
<time>2017-12-21T21:53:43.994Z</time>
</trkpt>
<trkpt lat="22.2467236" lon="113.9176076">
<ele>600.388</ele>
<time>2017-12-21T21:53:47.994Z</time>
</trkpt>
<trkpt lat="22.2467236" lon="113.9176076">
<ele>600.223</ele>
<time>2017-12-21T21:54:49.270Z</time>
</trkpt>
<trkpt lat="22.2466908" lon="113.9178314">
<ele>600.034</ele>
<time>2017-12-21T21:55:33.430Z</time>
</trkpt>
<trkpt lat="22.2466005" lon="113.9178446">
<ele>622.303</ele>
<time>2017-12-21T21:55:39.993Z</time>
</trkpt>
<trkpt lat="22.2466005" lon="113.9178446">
<ele>680.621</ele>
<time>2017-12-21T21:55:49.993Z</time>
</trkpt>
<trkpt lat="22.2466005" lon="113.9178446">
<ele>729.193</ele>
<time>2017-12-21T21:55:56.078Z</time>
</trkpt>
<trkpt lat="22.2467089" lon="113.9179019">
<ele>728.077</ele>
<time>2017-12-21T21:56:05.992Z</time>
</trkpt>
<trkpt lat="22.2467089" lon="113.9179019">
<ele>708.607</ele>
<time>2017-12-21T21:56:39.992Z</time>
</trkpt>
<trkpt lat="22.2467089" lon="113.9179019">
<ele>706.432</ele>
<time>2017-12-21T21:59:44.498Z</time>
</trkpt>
<trkpt lat="22.2467905" lon="113.9181178">
<ele>716.902</ele>
<time>2017-12-21T22:00:17.199Z</time>
</trkpt>
<trkpt lat="22.2468735" lon="113.9181599">
<ele>734.910</ele>
<time>2017-12-21T22:00:27.994Z</time>
</trkpt>
<trkpt lat="22.2468735" lon="113.9181599">
<ele>763.098</ele>
<time>2017-12-21T22:00:41.994Z</time>
</trkpt>
<trkpt lat="22.2468735" lon="113.9181599">
<ele>784.002</ele>
<time>2017-12-21T22:00:42.094Z</time>
</trkpt>
<trkpt lat="22.2469772" lon="113.9183013">
<ele>783.026</ele>
<time>2017-12-21T22:01:43.937Z</time>
</trkpt>
<trkpt lat="22.2470447" lon="113.9183678">
<ele>777.886</ele>
<time>2017-12-21T22:01:55.277Z</time>
</trkpt>
<trkpt lat="22.2471264" lon="113.9184181">
<ele>786.105</ele>
<time>2017-12-21T22:02:02.992Z</time>
</trkpt>
<trkpt lat="22.2471264" lon="113.9184181">
<ele>800.475</ele>
<time>2017-12-21T22:02:17.992Z</time>
</trkpt>
<trkpt lat="22.2471264" lon="113.9184181">
<ele>807.877</ele>
<time>2017-12-21T22:03:08.990Z</time>
</trkpt>
<trkpt lat="22.2471264" lon="113.9184181">
<ele>806.882</ele>
<time>2017-12-21T22:03:09.090Z</time>
</trkpt>
<trkpt lat="22.2472087" lon="113.9185336">
<ele>803.716</ele>
<time>2017-12-21T22:03:17.990Z</time>
</trkpt>
<trkpt lat="22.2472087" lon="113.9185336">
<ele>803.514</ele>
<time>2017-12-21T22:03:19.990Z</time>
</trkpt>
<trkpt lat="22.2472087" lon="113.9185336">
<ele>804.711</ele>
<time>2017-12-21T22:04:18.973Z</time>
</trkpt>
<trkpt lat="22.2472481" lon="113.9186267">
<ele>803.507</ele>
<time>2017-12-21T22:05:02.695Z</time>
</trkpt>
<trkpt lat="22.2473113" lon="113.9187018">
<ele>806.276</ele>
<time>2017-12-21T22:05:42.488Z</time>
</trkpt>
<trkpt lat="22.2473842" lon="113.9187648">
<ele>815.738</ele>
<time>2017-12-21T22:06:23.829Z</time>
</trkpt>
<trkpt lat="22.2474358" lon="113.9188559">
<ele>826.832</ele>
<time>2017-12-21T22:07:08.439Z</time>
</trkpt>
<trkpt lat="22.2474975" lon="113.9189265">
<ele>833.938</ele>
<time>2017-12-21T22:07:48.994Z</time>
</trkpt>
<trkpt lat="22.2474975" lon="113.9189265">
<ele>837.154</ele>
<time>2017-12-21T22:08:02.994Z</time>
</trkpt>
<trkpt lat="22.2474975" lon="113.9189265">
<ele>837.832</ele>
<time>2017-12-21T22:08:03.094Z</time>
</trkpt>
<trkpt lat="22.2475866" lon="113.9190099">
<ele>837.247</ele>
<time>2017-12-21T22:08:32.993Z</time>
</trkpt>
<trkpt lat="22.2475866" lon="113.9190099">
<ele>836.530</ele>
<time>2017-12-21T22:08:35.993Z</time>
</trkpt>
<trkpt lat="22.2475866" lon="113.9190099">
<ele>836.182</ele>
<time>2017-12-21T22:09:56.279Z</time>
</trkpt>
<trkpt lat="22.2477085" lon="113.9191341">
<ele>836.137</ele>
<time>2017-12-21T22:10:51.201Z</time>
</trkpt>
<trkpt lat="22.2477787" lon="113.9192049">
<ele>839.440</ele>
<time>2017-12-21T22:11:01.471Z</time>
</trkpt>
<trkpt lat="22.2478405" lon="113.9192845">
<ele>848.024</ele>
<time>2017-12-21T22:11:10.997Z</time>
</trkpt>
<trkpt lat="22.2478405" lon="113.9192845">
<ele>856.943</ele>
<time>2017-12-21T22:11:31.999Z</time>
</trkpt>
<trkpt lat="22.2478405" lon="113.9192845">
<ele>860.688</ele>
<time>2017-12-21T22:11:52.999Z</time>
</trkpt>
<trkpt lat="22.2478405" lon="113.9192845">
<ele>859.840</ele>
<time>2017-12-21T22:12:51.763Z</time>
</trkpt>
<trkpt lat="22.2479264" lon="113.9194033">
<ele>858.047</ele>
<time>2017-12-21T22:14:10.929Z</time>
</trkpt>
<trkpt lat="22.2479480" lon="113.9195014">
<ele>859.697</ele>
<time>2017-12-21T22:14:27.532Z</time>
</trkpt>
<trkpt lat="22.2479817" lon="113.9195948">
<ele>865.432</ele>
<time>2017-12-21T22:14:40.995Z</time>
</trkpt>
<trkpt lat="22.2479817" lon="113.9195948">
<ele>871.318</ele>
<time>2017-12-21T22:14:43.995Z</time>
</trkpt>
<trkpt lat="22.2479817" lon="113.9195948">
<ele>873.781</ele>
<time>2017-12-21T22:14:51.090Z</time>
</trkpt>
<trkpt lat="22.2481532" lon="113.9196987">
<ele>873.098</ele>
<time>2017-12-21T22:15:44.871Z</time>
</trkpt>
<trkpt lat="22.2482469" lon="113.9197137">
<ele>873.736</ele>
<time>2017-12-21T22:15:55.993Z</time>
</trkpt>
<trkpt lat="22.2482469" lon="113.9197137">
<ele>878.698</ele>
<time>2017-12-21T22:16:03.993Z</time>
</trkpt>
<trkpt lat="22.2482469" lon="113.9197137">
<ele>883.268</ele>
<time>2017-12-21T22:16:04.093Z</time>
</trkpt>
<trkpt lat="22.2483564" lon="113.9197779">
<ele>882.891</ele>
<time>2017-12-21T22:16:22.934Z</time>
</trkpt>
<trkpt lat="22.2484358" lon="113.9197320">
<ele>881.293</ele>
<time>2017-12-21T22:16:34.993Z</time>
</trkpt>
<trkpt lat="22.2484358" lon="113.9197320">
<ele>882.575</ele>
<time>2017-12-21T22:16:38.994Z</time>
</trkpt>
<trkpt lat="22.2484358" lon="113.9197320">
<ele>884.530</ele>
<time>2017-12-21T22:16:57.604Z</time>
</trkpt>
<trkpt lat="22.2485743" lon="113.9197558">
<ele>884.251</ele>
<time>2017-12-21T22:17:16.993Z</time>
</trkpt>
<trkpt lat="22.2485743" lon="113.9197558">
<ele>882.968</ele>
<time>2017-12-21T22:17:25.993Z</time>
</trkpt>
<trkpt lat="22.2485743" lon="113.9197558">
<ele>882.513</ele>
<time>2017-12-21T22:17:26.093Z</time>
</trkpt>
<trkpt lat="22.2486699" lon="113.9197941">
<ele>882.767</ele>
<time>2017-12-21T22:18:26.264Z</time>
</trkpt>
<trkpt lat="22.2487539" lon="113.9198326">
<ele>884.883</ele>
<time>2017-12-21T22:18:55.544Z</time>
</trkpt>
<trkpt lat="22.2488397" lon="113.9198617">
<ele>890.599</ele>
<time>2017-12-21T22:19:21.827Z</time>
</trkpt>
<trkpt lat="22.2488980" lon="113.9199423">
<ele>898.487</ele>
<time>2017-12-21T22:19:46.222Z</time>
</trkpt>
<trkpt lat="22.2489840" lon="113.9199832">
<ele>905.594</ele>
<time>2017-12-21T22:20:07.997Z</time>
</trkpt>
<trkpt lat="22.2489840" lon="113.9199832">
<ele>910.373</ele>
<time>2017-12-21T22:20:22.997Z</time>
</trkpt>
<trkpt lat="22.2489840" lon="113.9199832">
<ele>912.104</ele>
<time>2017-12-21T22:20:23.097Z</time>
</trkpt>
<trkpt lat="22.2490720" lon="113.9200450">
<ele>911.442</ele>
<time>2017-12-21T22:21:10.893Z</time>
</trkpt>
<trkpt lat="22.2491590" lon="113.9200733">
<ele>911.329</ele>
<time>2017-12-21T22:21:23.995Z</time>
</trkpt>
<trkpt lat="22.2491590" lon="113.9200733">
<ele>913.663</ele>
<time>2017-12-21T22:22:20.994Z</time>
</trkpt>
<trkpt lat="22.2491590" lon="113.9200733">
<ele>915.905</ele>
<time>2017-12-21T22:22:38.907Z</time>
</trkpt>
<trkpt lat="22.2491590" lon="113.9200733">
<ele>913.874</ele>
<time>2017-12-21T22:23:17.992Z</time>
</trkpt>
<trkpt lat="22.2491590" lon="113.9200733">
<ele>912.756</ele>
<time>2017-12-21T22:23:59.991Z</time>
</trkpt>
<trkpt lat="22.2491590" lon="113.9200733">
<ele>912.444</ele>
<time>2017-12-21T22:26:09.999Z</time>
</trkpt>
<trkpt lat="22.2491590" lon="113.9200733">
<ele>912.402</ele>
<time>2017-12-21T22:28:57.995Z</time>
</trkpt>
<trkpt lat="22.2491590" lon="113.9200733">
<ele>912.130</ele>
<time>2017-12-21T22:29:48.993Z</time>
</trkpt>
<trkpt lat="22.2491590" lon="113.9200733">
<ele>911.698</ele>
<time>2017-12-21T22:31:14.991Z</time>
</trkpt>
<trkpt lat="22.2491590" lon="113.9200733">
<ele>911.358</ele>
<time>2017-12-21T22:37:32.993Z</time>
</trkpt>
<trkpt lat="22.2491590" lon="113.9200733">
<ele>911.092</ele>
<time>2017-12-21T22:48:02.838Z</time>
</trkpt>
<trkpt lat="22.2491590" lon="113.9200733">
<ele>910.497</ele>
<time>2017-12-21T22:48:15.998Z</time>
</trkpt>
<trkpt lat="22.2491590" lon="113.9200733">
<ele>910.235</ele>
<time>2017-12-21T22:50:48.352Z</time>
</trkpt>
<trkpt lat="22.2491163" lon="113.9201754">
<ele>948.227</ele>
<time>2017-12-21T22:51:10.995Z</time>
</trkpt>
<trkpt lat="22.2491163" lon="113.9201754">
<ele>947.789</ele>
<time>2017-12-21T22:51:24.995Z</time>
</trkpt>
<trkpt lat="22.2491163" lon="113.9201754">
<ele>947.546</ele>
<time>2017-12-21T23:03:58.717Z</time>
</trkpt>
<trkpt lat="22.2492039" lon="113.9201502">
<ele>946.953</ele>
<time>2017-12-21T23:05:29.995Z</time>
</trkpt>
<trkpt lat="22.2492039" lon="113.9201502">
<ele>946.610</ele>
<time>2017-12-21T23:05:31.994Z</time>
</trkpt>
<trkpt lat="22.2492039" lon="113.9201502">
<ele>946.182</ele>
<time>2017-12-21T23:05:32.094Z</time>
</trkpt>
<trkpt lat="22.2492039" lon="113.9201502">
<ele>945.509</ele>
<time>2017-12-21T23:08:24.991Z</time>
</trkpt>
<trkpt lat="22.2492039" lon="113.9201502">
<ele>945.327</ele>
<time>2017-12-21T23:08:25.782Z</time>
</trkpt>
<trkpt lat="22.2492039" lon="113.9201502">
<ele>944.638</ele>
<time>2017-12-21T23:08:36.998Z</time>
</trkpt>
<trkpt lat="22.2492039" lon="113.9201502">
<ele>944.347</ele>
<time>2017-12-21T23:09:27.996Z</time>
</trkpt>
<trkpt lat="22.2492389" lon="113.9200584">
<ele>943.754</ele>
<time>2017-12-21T23:09:52.998Z</time>
</trkpt>
<trkpt lat="22.2492389" lon="113.9200584">
<ele>943.438</ele>
<time>2017-12-21T23:10:06.998Z</time>
</trkpt>
<trkpt lat="22.2492389" lon="113.9200584">
<ele>943.016</ele>
<time>2017-12-21T23:10:43.997Z</time>
</trkpt>
<trkpt lat="22.2492389" lon="113.9200584">
<ele>942.586</ele>
<time>2017-12-21T23:13:41.993Z</time>
</trkpt>
<trkpt lat="22.2492389" lon="113.9200584">
<ele>942.280</ele>
<time>2017-12-21T23:14:06.992Z</time>
</trkpt>
<trkpt lat="22.2492389" lon="113.9200584">
<ele>942.006</ele>
<time>2017-12-21T23:14:18.358Z</time>
</trkpt>
<trkpt lat="22.2492389" lon="113.9200584">
<ele>941.369</ele>
<time>2017-12-21T23:15:41.990Z</time>
</trkpt>
<trkpt lat="22.2492389" lon="113.9200584">
<ele>941.106</ele>
<time>2017-12-21T23:16:37.999Z</time>
</trkpt>
<trkpt lat="22.2492389" lon="113.9200584">
<ele>940.798</ele>
<time>2017-12-21T23:17:49.997Z</time>
</trkpt>
<trkpt lat="22.2492389" lon="113.9200584">
<ele>940.443</ele>
<time>2017-12-21T23:19:05.995Z</time>
</trkpt>
<trkpt lat="22.2492389" lon="113.9200584">
<ele>940.112</ele>
<time>2017-12-21T23:25:52.810Z</time>
</trkpt>
<trkpt lat="22.2491988" lon="113.9201479">
<ele>939.271</ele>
<time>2017-12-21T23:28:51.992Z</time>
</trkpt>
<trkpt lat="22.2491988" lon="113.9201479">
<ele>938.920</ele>
<time>2017-12-21T23:29:01.992Z</time>
</trkpt>
<trkpt lat="22.2491988" lon="113.9201479">
<ele>938.456</ele>
<time>2017-12-21T23:30:06.990Z</time>
</trkpt>
<trkpt lat="22.2491988" lon="113.9201479">
<ele>938.044</ele>
<time>2017-12-21T23:30:56.678Z</time>
</trkpt>
<trkpt lat="22.2492352" lon="113.9200533">
<ele>937.534</ele>
<time>2017-12-21T23:31:23.998Z</time>
</trkpt>
<trkpt lat="22.2492352" lon="113.9200533">
<ele>937.260</ele>
<time>2017-12-21T23:31:24.998Z</time>
</trkpt>
<trkpt lat="22.2492352" lon="113.9200533">
<ele>936.842</ele>
<time>2017-12-21T23:32:39.496Z</time>
</trkpt>
<trkpt lat="22.2492081" lon="113.9201598">
<ele>936.164</ele>
<time>2017-12-21T23:33:07.996Z</time>
</trkpt>
<trkpt lat="22.2492081" lon="113.9201598">
<ele>936.103</ele>
<time>2017-12-21T23:33:14.996Z</time>
</trkpt>
<trkpt lat="22.2492081" lon="113.9201598">
<ele>935.976</ele>
<time>2017-12-21T23:33:41.811Z</time>
</trkpt>
<trkpt lat="22.2491916" lon="113.9200568">
<ele>935.202</ele>
<time>2017-12-21T23:34:06.994Z</time>
</trkpt>
<trkpt lat="22.2491916" lon="113.9200568">
<ele>934.993</ele>
<time>2017-12-21T23:34:12.994Z</time>
</trkpt>
<trkpt lat="22.2491916" lon="113.9200568">
<ele>934.826</ele>
<time>2017-12-21T23:35:06.741Z</time>
</trkpt>
<trkpt lat="22.2491083" lon="113.9200153">
<ele>934.126</ele>
<time>2017-12-21T23:35:34.156Z</time>
</trkpt>
<trkpt lat="22.2490153" lon="113.9199745">
<ele>934.355</ele>
<time>2017-12-21T23:35:47.171Z</time>
</trkpt>
<trkpt lat="22.2489320" lon="113.9199229">
<ele>935.464</ele>
<time>2017-12-21T23:35:57.038Z</time>
</trkpt>
<trkpt lat="22.2488551" lon="113.9198668">
<ele>935.290</ele>
<time>2017-12-21T23:36:04.991Z</time>
</trkpt>
<trkpt lat="22.2488551" lon="113.9198668">
<ele>932.268</ele>
<time>2017-12-21T23:36:09.991Z</time>
</trkpt>
<trkpt lat="22.2488551" lon="113.9198668">
<ele>929.221</ele>
<time>2017-12-21T23:36:34.739Z</time>
</trkpt>
<trkpt lat="22.2487651" lon="113.9198379">
<ele>929.986</ele>
<time>2017-12-21T23:37:01.523Z</time>
</trkpt>
<trkpt lat="22.2486741" lon="113.9197968">
<ele>929.108</ele>
<time>2017-12-21T23:37:09.990Z</time>
</trkpt>
<trkpt lat="22.2486741" lon="113.9197968">
<ele>924.696</ele>
<time>2017-12-21T23:37:11.990Z</time>
</trkpt>
<trkpt lat="22.2486741" lon="113.9197968">
<ele>920.581</ele>
<time>2017-12-21T23:37:15.292Z</time>
</trkpt>
<trkpt lat="22.2485848" lon="113.9197618">
<ele>921.944</ele>
<time>2017-12-21T23:37:30.170Z</time>
</trkpt>
<trkpt lat="22.2484939" lon="113.9197662">
<ele>922.352</ele>
<time>2017-12-21T23:37:37.955Z</time>
</trkpt>
<trkpt lat="22.2484033" lon="113.9197996">
<ele>919.902</ele>
<time>2017-12-21T23:37:44.777Z</time>
</trkpt>
<trkpt lat="22.2483117" lon="113.9197636">
<ele>916.066</ele>
<time>2017-12-21T23:37:51.412Z</time>
</trkpt>
<trkpt lat="22.2482274" lon="113.9197237">
<ele>913.221</ele>
<time>2017-12-21T23:37:58.173Z</time>
</trkpt>
<trkpt lat="22.2481387" lon="113.9196820">
<ele>911.463</ele>
<time>2017-12-21T23:38:05.999Z</time>
</trkpt>
<trkpt lat="22.2481387" lon="113.9196820">
<ele>909.984</ele>
<time>2017-12-21T23:38:15.998Z</time>
</trkpt>
<trkpt lat="22.2481387" lon="113.9196820">
<ele>908.929</ele>
<time>2017-12-21T23:39:09.383Z</time>
</trkpt>
<trkpt lat="22.2480569" lon="113.9196212">
<ele>908.607</ele>
<time>2017-12-21T23:39:24.881Z</time>
</trkpt>
<trkpt lat="22.2479836" lon="113.9195631">
<ele>908.165</ele>
<time>2017-12-21T23:39:34.469Z</time>
</trkpt>
<trkpt lat="22.2479361" lon="113.9194671">
<ele>905.691</ele>
<time>2017-12-21T23:39:44.716Z</time>
</trkpt>
<trkpt lat="22.2478709" lon="113.9193968">
<ele>901.094</ele>
<time>2017-12-21T23:39:54.135Z</time>
</trkpt>
<trkpt lat="22.2478411" lon="113.9193039">
<ele>897.066</ele>
<time>2017-12-21T23:40:03.355Z</time>
</trkpt>
<trkpt lat="22.2478261" lon="113.9192075">
<ele>895.317</ele>
<time>2017-12-21T23:40:11.326Z</time>
</trkpt>
<trkpt lat="22.2477580" lon="113.9191327">
<ele>895.046</ele>
<time>2017-12-21T23:40:20.074Z</time>
</trkpt>
<trkpt lat="22.2476986" lon="113.9190565">
<ele>894.639</ele>
<time>2017-12-21T23:40:28.995Z</time>
</trkpt>
<trkpt lat="22.2476986" lon="113.9190565">
<ele>893.708</ele>
<time>2017-12-21T23:40:48.995Z</time>
</trkpt>
<trkpt lat="22.2476986" lon="113.9190565">
<ele>893.337</ele>
<time>2017-12-21T23:40:49.095Z</time>
</trkpt>
<trkpt lat="22.2476047" lon="113.9189583">
<ele>893.054</ele>
<time>2017-12-21T23:41:09.348Z</time>
</trkpt>
<trkpt lat="22.2475204" lon="113.9189223">
<ele>891.118</ele>
<time>2017-12-21T23:41:21.691Z</time>
</trkpt>
<trkpt lat="22.2474992" lon="113.9188237">
<ele>886.041</ele>
<time>2017-12-21T23:41:31.446Z</time>
</trkpt>
<trkpt lat="22.2474274" lon="113.9187474">
<ele>879.512</ele>
<time>2017-12-21T23:41:38.851Z</time>
</trkpt>
<trkpt lat="22.2473519" lon="113.9186907">
<ele>873.889</ele>
<time>2017-12-21T23:41:46.112Z</time>
</trkpt>
<trkpt lat="22.2473093" lon="113.9186044">
<ele>869.695</ele>
<time>2017-12-21T23:41:53.788Z</time>
</trkpt>
<trkpt lat="22.2472774" lon="113.9185097">
<ele>865.686</ele>
<time>2017-12-21T23:42:05.246Z</time>
</trkpt>
<trkpt lat="22.2472118" lon="113.9184323">
<ele>864.277</ele>
<time>2017-12-21T23:42:16.072Z</time>
</trkpt>
<trkpt lat="22.2471474" lon="113.9183637">
<ele>855.854</ele>
<time>2017-12-21T23:42:24.552Z</time>
</trkpt>
<trkpt lat="22.2470811" lon="113.9182956">
<ele>851.912</ele>
<time>2017-12-21T23:42:34.084Z</time>
</trkpt>
<trkpt lat="22.2469763" lon="113.9182744">
<ele>850.231</ele>
<time>2017-12-21T23:42:44.139Z</time>
</trkpt>
<trkpt lat="22.2469259" lon="113.9181854">
<ele>845.894</ele>
<time>2017-12-21T23:42:52.170Z</time>
</trkpt>
<trkpt lat="22.2469214" lon="113.9180840">
<ele>843.260</ele>
<time>2017-12-21T23:43:01.782Z</time>
</trkpt>
<trkpt lat="22.2468293" lon="113.9180385">
<ele>837.173</ele>
<time>2017-12-21T23:43:12.991Z</time>
</trkpt>
<trkpt lat="22.2468293" lon="113.9180385">
<ele>831.706</ele>
<time>2017-12-21T23:43:15.991Z</time>
</trkpt>
<trkpt lat="22.2468293" lon="113.9180385">
<ele>829.298</ele>
<time>2017-12-21T23:43:46.521Z</time>
</trkpt>
<trkpt lat="22.2467318" lon="113.9180139">
<ele>830.705</ele>
<time>2017-12-21T23:44:02.263Z</time>
</trkpt>
<trkpt lat="22.2466519" lon="113.9179676">
<ele>827.866</ele>
<time>2017-12-21T23:44:08.990Z</time>
</trkpt>
<trkpt lat="22.2466519" lon="113.9179676">
<ele>819.969</ele>
<time>2017-12-21T23:44:10.990Z</time>
</trkpt>
<trkpt lat="22.2466519" lon="113.9179676">
<ele>813.218</ele>
<time>2017-12-21T23:44:14.064Z</time>
</trkpt>
<trkpt lat="22.2465600" lon="113.9179782">
<ele>816.140</ele>
<time>2017-12-21T23:45:10.861Z</time>
</trkpt>
<trkpt lat="22.2466470" lon="113.9180127">
<ele>816.670</ele>
<time>2017-12-21T23:45:50.759Z</time>
</trkpt>
<trkpt lat="22.2463419" lon="113.9176341">
<ele>806.841</ele>
<time>2017-12-21T23:48:25.613Z</time>
</trkpt>
<trkpt lat="22.2462560" lon="113.9175870">
<ele>801.215</ele>
<time>2017-12-21T23:48:57.715Z</time>
</trkpt>
<trkpt lat="22.2462164" lon="113.9174944">
<ele>798.374</ele>
<time>2017-12-21T23:49:26.638Z</time>
</trkpt>
<trkpt lat="22.2461710" lon="113.9174106">
<ele>791.594</ele>
<time>2017-12-21T23:49:41.992Z</time>
</trkpt>
<trkpt lat="22.2461710" lon="113.9174106">
<ele>790.134</ele>
<time>2017-12-21T23:49:43.992Z</time>
</trkpt>
<trkpt lat="22.2461710" lon="113.9174106">
<ele>789.645</ele>
<time>2017-12-21T23:49:53.036Z</time>
</trkpt>
<trkpt lat="22.2460668" lon="113.9173808">
<ele>789.300</ele>
<time>2017-12-21T23:50:00.992Z</time>
</trkpt>
<trkpt lat="22.2460668" lon="113.9173808">
<ele>789.092</ele>
<time>2017-12-21T23:50:04.992Z</time>
</trkpt>
<trkpt lat="22.2460668" lon="113.9173808">
<ele>788.747</ele>
<time>2017-12-21T23:50:21.562Z</time>
</trkpt>
<trkpt lat="22.2461127" lon="113.9172821">
<ele>788.169</ele>
<time>2017-12-21T23:50:36.165Z</time>
</trkpt>
<trkpt lat="22.2461337" lon="113.9171813">
<ele>786.844</ele>
<time>2017-12-21T23:50:43.991Z</time>
</trkpt>
<trkpt lat="22.2461337" lon="113.9171813">
<ele>785.010</ele>
<time>2017-12-21T23:50:45.991Z</time>
</trkpt>
<trkpt lat="22.2461337" lon="113.9171813">
<ele>784.077</ele>
<time>2017-12-21T23:51:04.878Z</time>
</trkpt>
<trkpt lat="22.2461161" lon="113.9170746">
<ele>784.095</ele>
<time>2017-12-21T23:51:17.432Z</time>
</trkpt>
<trkpt lat="22.2460605" lon="113.9169856">
<ele>782.444</ele>
<time>2017-12-21T23:51:21.990Z</time>
</trkpt>
<trkpt lat="22.2460605" lon="113.9169856">
<ele>778.121</ele>
<time>2017-12-21T23:51:24.990Z</time>
</trkpt>
<trkpt lat="22.2460605" lon="113.9169856">
<ele>774.388</ele>
<time>2017-12-21T23:51:27.747Z</time>
</trkpt>
<trkpt lat="22.2459871" lon="113.9168810">
<ele>775.704</ele>
<time>2017-12-21T23:51:39.814Z</time>
</trkpt>
<trkpt lat="22.2459821" lon="113.9167808">
<ele>775.655</ele>
<time>2017-12-21T23:51:46.165Z</time>
</trkpt>
<trkpt lat="22.2459976" lon="113.9166811">
<ele>772.573</ele>
<time>2017-12-21T23:51:52.791Z</time>
</trkpt>
<trkpt lat="22.2460055" lon="113.9165775">
<ele>768.381</ele>
<time>2017-12-21T23:51:59.998Z</time>
</trkpt>
<trkpt lat="22.2460055" lon="113.9165775">
<ele>765.450</ele>
<time>2017-12-21T23:52:00.998Z</time>
</trkpt>
<trkpt lat="22.2460055" lon="113.9165775">
<ele>764.170</ele>
<time>2017-12-21T23:52:13.529Z</time>
</trkpt>
<trkpt lat="22.2460033" lon="113.9166786">
<ele>764.275</ele>
<time>2017-12-21T23:52:39.870Z</time>
</trkpt>
<trkpt lat="22.2459983" lon="113.9167799">
<ele>764.025</ele>
<time>2017-12-21T23:52:46.998Z</time>
</trkpt>
<trkpt lat="22.2459983" lon="113.9167799">
<ele>762.884</ele>
<time>2017-12-21T23:52:55.998Z</time>
</trkpt>
<trkpt lat="22.2459983" lon="113.9167799">
<ele>761.742</ele>
<time>2017-12-21T23:52:56.098Z</time>
</trkpt>
<trkpt lat="22.2460462" lon="113.9169104">
<ele>761.435</ele>
<time>2017-12-21T23:53:10.105Z</time>
</trkpt>
<trkpt lat="22.2461133" lon="113.9169827">
<ele>761.652</ele>
<time>2017-12-21T23:53:17.310Z</time>
</trkpt>
<trkpt lat="22.2461318" lon="113.9170813">
<ele>761.921</ele>
<time>2017-12-21T23:53:24.734Z</time>
</trkpt>
<trkpt lat="22.2461270" lon="113.9171871">
<ele>762.323</ele>
<time>2017-12-21T23:53:32.997Z</time>
</trkpt>
<trkpt lat="22.2461270" lon="113.9171871">
<ele>762.991</ele>
<time>2017-12-21T23:53:33.997Z</time>
</trkpt>
<trkpt lat="22.2461270" lon="113.9171871">
<ele>763.374</ele>
<time>2017-12-21T23:53:37.452Z</time>
</trkpt>
<trkpt lat="22.2460966" lon="113.9172852">
<ele>762.453</ele>
<time>2017-12-21T23:53:50.997Z</time>
</trkpt>
<trkpt lat="22.2460966" lon="113.9172852">
<ele>762.103</ele>
<time>2017-12-21T23:54:15.997Z</time>
</trkpt>
<trkpt lat="22.2460966" lon="113.9172852">
<ele>761.934</ele>
<time>2017-12-21T23:54:21.997Z</time>
</trkpt>
<trkpt lat="22.2460966" lon="113.9172852">
<ele>761.721</ele>
<time>2017-12-21T23:54:25.611Z</time>
</trkpt>
<trkpt lat="22.2460117" lon="113.9173359">
<ele>761.445</ele>
<time>2017-12-21T23:54:39.797Z</time>
</trkpt>
<trkpt lat="22.2459163" lon="113.9173522">
<ele>762.719</ele>
<time>2017-12-21T23:54:47.851Z</time>
</trkpt>
<trkpt lat="22.2458167" lon="113.9173547">
<ele>766.476</ele>
<time>2017-12-21T23:54:55.928Z</time>
</trkpt>
<trkpt lat="22.2457252" lon="113.9173981">
<ele>770.333</ele>
<time>2017-12-21T23:55:04.746Z</time>
</trkpt>
<trkpt lat="22.2456325" lon="113.9174065">
<ele>771.266</ele>
<time>2017-12-21T23:55:14.439Z</time>
</trkpt>
<trkpt lat="22.2455352" lon="113.9174337">
<ele>770.173</ele>
<time>2017-12-21T23:55:24.181Z</time>
</trkpt>
<trkpt lat="22.2454398" lon="113.9174348">
<ele>769.429</ele>
<time>2017-12-21T23:55:30.267Z</time>
</trkpt>
<trkpt lat="22.2454080" lon="113.9175338">
<ele>769.807</ele>
<time>2017-12-21T23:55:35.751Z</time>
</trkpt>
<trkpt lat="22.2453364" lon="113.9175938">
<ele>769.429</ele>
<time>2017-12-21T23:55:40.995Z</time>
</trkpt>
<trkpt lat="22.2453364" lon="113.9175938">
<ele>769.059</ele>
<time>2017-12-21T23:55:44.995Z</time>
</trkpt>
<trkpt lat="22.2453364" lon="113.9175938">
<ele>768.834</ele>
<time>2017-12-21T23:55:53.911Z</time>
</trkpt>
<trkpt lat="22.2452611" lon="113.9176511">
<ele>768.640</ele>
<time>2017-12-21T23:56:01.995Z</time>
</trkpt>
<trkpt lat="22.2452611" lon="113.9176511">
<ele>768.201</ele>
<time>2017-12-21T23:56:26.994Z</time>
</trkpt>
<trkpt lat="22.2452611" lon="113.9176511">
<ele>767.927</ele>
<time>2017-12-21T23:56:27.094Z</time>
</trkpt>
<trkpt lat="22.2451280" lon="113.9176414">
<ele>767.644</ele>
<time>2017-12-21T23:57:44.219Z</time>
</trkpt>
<trkpt lat="22.2450308" lon="113.9176864">
<ele>765.324</ele>
<time>2017-12-21T23:57:50.099Z</time>
</trkpt>
<trkpt lat="22.2449270" lon="113.9176863">
<ele>760.663</ele>
<time>2017-12-21T23:57:55.373Z</time>
</trkpt>
<trkpt lat="22.2448709" lon="113.9177682">
<ele>755.862</ele>
<time>2017-12-21T23:58:00.752Z</time>
</trkpt>
<trkpt lat="22.2447839" lon="113.9177365">
<ele>752.349</ele>
<time>2017-12-21T23:58:05.992Z</time>
</trkpt>
<trkpt lat="22.2447839" lon="113.9177365">
<ele>752.020</ele>
<time>2017-12-21T23:58:05.992Z</time>
</trkpt>
<trkpt lat="22.2447839" lon="113.9177365">
<ele>751.677</ele>
<time>2017-12-21T23:58:15.427Z</time>
</trkpt>
<trkpt lat="22.2446953" lon="113.9177014">
<ele>751.150</ele>
<time>2017-12-21T23:58:59.438Z</time>
</trkpt>
<trkpt lat="22.2446897" lon="113.9178034">
<ele>750.074</ele>
<time>2017-12-21T23:59:18.922Z</time>
</trkpt>
<trkpt lat="22.2446174" lon="113.9177455">
<ele>747.032</ele>
<time>2017-12-21T23:59:36.146Z</time>
</trkpt>
<trkpt lat="22.2445222" lon="113.9177492">
<ele>742.503</ele>
<time>2017-12-21T23:59:54.908Z</time>
</trkpt>
<trkpt lat="22.2444244" lon="113.9177185">
<ele>738.091</ele>
<time>2017-12-22T00:00:14.998Z</time>
</trkpt>
<trkpt lat="22.2444244" lon="113.9177185">
<ele>735.459</ele>
<time>2017-12-22T00:00:18.998Z</time>
</trkpt>
<trkpt lat="22.2444244" lon="113.9177185">
<ele>735.097</ele>
<time>2017-12-22T00:00:20.039Z</time>
</trkpt>
<trkpt lat="22.2443396" lon="113.9178989">
<ele>735.501</ele>
<time>2017-12-22T00:00:42.997Z</time>
</trkpt>
<trkpt lat="22.2443396" lon="113.9178989">
<ele>735.411</ele>
<time>2017-12-22T00:00:53.997Z</time>
</trkpt>
<trkpt lat="22.2443396" lon="113.9178989">
<ele>734.953</ele>
<time>2017-12-22T00:01:12.996Z</time>
</trkpt>
<trkpt lat="22.2443396" lon="113.9178989">
<ele>734.623</ele>
<time>2017-12-22T00:01:13.096Z</time>
</trkpt>
<trkpt lat="22.2443066" lon="113.9180324">
<ele>734.434</ele>
<time>2017-12-22T00:01:29.628Z</time>
</trkpt>
<trkpt lat="22.2442393" lon="113.9179679">
<ele>729.766</ele>
<time>2017-12-22T00:01:39.872Z</time>
</trkpt>
<trkpt lat="22.2441580" lon="113.9179168">
<ele>716.797</ele>
<time>2017-12-22T00:01:53.017Z</time>
</trkpt>
<trkpt lat="22.2441034" lon="113.9178380">
<ele>700.998</ele>
<time>2017-12-22T00:02:05.995Z</time>
</trkpt>
<trkpt lat="22.2441034" lon="113.9178380">
<ele>690.172</ele>
<time>2017-12-22T00:02:13.995Z</time>
</trkpt>
<trkpt lat="22.2441034" lon="113.9178380">
<ele>685.953</ele>
<time>2017-12-22T00:02:19.066Z</time>
</trkpt>
<trkpt lat="22.2441034" lon="113.9178380">
<ele>688.059</ele>
<time>2017-12-22T00:03:05.994Z</time>
</trkpt>
<trkpt lat="22.2441034" lon="113.9178380">
<ele>688.964</ele>
<time>2017-12-22T00:03:06.094Z</time>
</trkpt>
<trkpt lat="22.2439955" lon="113.9178739">
<ele>687.793</ele>
<time>2017-12-22T00:04:30.991Z</time>
</trkpt>
<trkpt lat="22.2439955" lon="113.9178739">
<ele>687.244</ele>
<time>2017-12-22T00:04:57.991Z</time>
</trkpt>
<trkpt lat="22.2439955" lon="113.9178739">
<ele>686.919</ele>
<time>2017-12-22T00:05:27.194Z</time>
</trkpt>
<trkpt lat="22.2438946" lon="113.9178607">
<ele>686.654</ele>
<time>2017-12-22T00:05:47.981Z</time>
</trkpt>
<trkpt lat="22.2438007" lon="113.9178185">
<ele>679.809</ele>
<time>2017-12-22T00:06:01.351Z</time>
</trkpt>
<trkpt lat="22.2437109" lon="113.9177776">
<ele>661.514</ele>
<time>2017-12-22T00:06:13.924Z</time>
</trkpt>
<trkpt lat="22.2436161" lon="113.9178100">
<ele>641.270</ele>
<time>2017-12-22T00:06:24.349Z</time>
</trkpt>
<trkpt lat="22.2435703" lon="113.9177169">
<ele>629.750</ele>
<time>2017-12-22T00:06:35.219Z</time>
</trkpt>
<trkpt lat="22.2434853" lon="113.9176686">
<ele>625.569</ele>
<time>2017-12-22T00:06:48.802Z</time>
</trkpt>
<trkpt lat="22.2433879" lon="113.9176805">
<ele>624.397</ele>
<time>2017-12-22T00:07:00.926Z</time>
</trkpt>
<trkpt lat="22.2433017" lon="113.9176397">
<ele>623.923</ele>
<time>2017-12-22T00:07:11.877Z</time>
</trkpt>
<trkpt lat="22.2432231" lon="113.9175822">
<ele>623.503</ele>
<time>2017-12-22T00:07:23.997Z</time>
</trkpt>
<trkpt lat="22.2431468" lon="113.9175289">
<ele>622.895</ele>
<time>2017-12-22T00:07:34.667Z</time>
</trkpt>
<trkpt lat="22.2430867" lon="113.9174430">
<ele>622.031</ele>
<time>2017-12-22T00:07:44.409Z</time>
</trkpt>
<trkpt lat="22.2430370" lon="113.9173584">
<ele>621.198</ele>
<time>2017-12-22T00:07:52.407Z</time>
</trkpt>
<trkpt lat="22.2429518" lon="113.9172986">
<ele>620.794</ele>
<time>2017-12-22T00:08:00.997Z</time>
</trkpt>
<trkpt lat="22.2429518" lon="113.9172986">
<ele>620.790</ele>
<time>2017-12-22T00:08:19.996Z</time>
</trkpt>
<trkpt lat="22.2429518" lon="113.9172986">
<ele>620.799</ele>
<time>2017-12-22T00:09:10.735Z</time>
</trkpt>
<trkpt lat="22.2428600" lon="113.9172476">
<ele>620.230</ele>
<time>2017-12-22T00:09:25.995Z</time>
</trkpt>
<trkpt lat="22.2428600" lon="113.9172476">
<ele>620.055</ele>
<time>2017-12-22T00:09:33.995Z</time>
</trkpt>
<trkpt lat="22.2428600" lon="113.9172476">
<ele>619.939</ele>
<time>2017-12-22T00:10:02.276Z</time>
</trkpt>
<trkpt lat="22.2427184" lon="113.9171261">
<ele>619.758</ele>
<time>2017-12-22T00:10:24.483Z</time>
</trkpt>
<trkpt lat="22.2426375" lon="113.9170627">
<ele>621.162</ele>
<time>2017-12-22T00:10:34.353Z</time>
</trkpt>
<trkpt lat="22.2425511" lon="113.9170294">
<ele>625.207</ele>
<time>2017-12-22T00:10:42.868Z</time>
</trkpt>
<trkpt lat="22.2424539" lon="113.9170013">
<ele>629.376</ele>
<time>2017-12-22T00:10:51.878Z</time>
</trkpt>
<trkpt lat="22.2423626" lon="113.9169964">
<ele>631.124</ele>
<time>2017-12-22T00:11:00.726Z</time>
</trkpt>
<trkpt lat="22.2422662" lon="113.9169793">
<ele>630.957</ele>
<time>2017-12-22T00:11:10.992Z</time>
</trkpt>
<trkpt lat="22.2422662" lon="113.9169793">
<ele>630.289</ele>
<time>2017-12-22T00:11:18.992Z</time>
</trkpt>
<trkpt lat="22.2422662" lon="113.9169793">
<ele>629.985</ele>
<time>2017-12-22T00:11:45.991Z</time>
</trkpt>
<trkpt lat="22.2422662" lon="113.9169793">
<ele>629.938</ele>
<time>2017-12-22T00:12:24.247Z</time>
</trkpt>
<trkpt lat="22.2420937" lon="113.9169048">
<ele>629.817</ele>
<time>2017-12-22T00:12:54.835Z</time>
</trkpt>
<trkpt lat="22.2420248" lon="113.9168394">
<ele>630.857</ele>
<time>2017-12-22T00:13:05.876Z</time>
</trkpt>
<trkpt lat="22.2419463" lon="113.9167911">
<ele>634.195</ele>
<time>2017-12-22T00:13:18.087Z</time>
</trkpt>
<trkpt lat="22.2418544" lon="113.9167699">
<ele>638.483</ele>
<time>2017-12-22T00:13:27.998Z</time>
</trkpt>
<trkpt lat="22.2418544" lon="113.9167699">
<ele>641.678</ele>
<time>2017-12-22T00:13:29.998Z</time>
</trkpt>
<trkpt lat="22.2418544" lon="113.9167699">
<ele>642.943</ele>
<time>2017-12-22T00:13:38.720Z</time>
</trkpt>
<trkpt lat="22.2418544" lon="113.9167699">
<ele>641.540</ele>
<time>2017-12-22T00:15:12.997Z</time>
</trkpt>
<trkpt lat="22.2418544" lon="113.9167699">
<ele>640.948</ele>
<time>2017-12-22T00:15:13.097Z</time>
</trkpt>
<trkpt lat="22.2418234" lon="113.9168638">
<ele>640.745</ele>
<time>2017-12-22T00:15:28.997Z</time>
</trkpt>
<trkpt lat="22.2418234" lon="113.9168638">
<ele>640.772</ele>
<time>2017-12-22T00:15:41.996Z</time>
</trkpt>
<trkpt lat="22.2418234" lon="113.9168638">
<ele>640.690</ele>
<time>2017-12-22T00:15:42.096Z</time>
</trkpt>
<trkpt lat="22.2418234" lon="113.9168638">
<ele>640.141</ele>
<time>2017-12-22T00:16:02.996Z</time>
</trkpt>
<trkpt lat="22.2418234" lon="113.9168638">
<ele>639.956</ele>
<time>2017-12-22T00:17:27.654Z</time>
</trkpt>
<trkpt lat="22.2418234" lon="113.9168638">
<ele>639.560</ele>
<time>2017-12-22T00:17:43.993Z</time>
</trkpt>
<trkpt lat="22.2418234" lon="113.9168638">
<ele>639.366</ele>
<time>2017-12-22T00:17:58.993Z</time>
</trkpt>
<trkpt lat="22.2418234" lon="113.9168638">
<ele>639.156</ele>
<time>2017-12-22T00:18:30.992Z</time>
</trkpt>
<trkpt lat="22.2418234" lon="113.9168638">
<ele>638.921</ele>
<time>2017-12-22T00:18:48.991Z</time>
</trkpt>
<trkpt lat="22.2418234" lon="113.9168638">
<ele>638.697</ele>
<time>2017-12-22T00:19:15.399Z</time>
</trkpt>
<trkpt lat="22.2417806" lon="113.9169741">
<ele>638.482</ele>
<time>2017-12-22T00:20:02.581Z</time>
</trkpt>
<trkpt lat="22.2417179" lon="113.9170551">
<ele>638.296</ele>
<time>2017-12-22T00:20:16.133Z</time>
</trkpt>
<trkpt lat="22.2416296" lon="113.9170775">
<ele>638.187</ele>
<time>2017-12-22T00:20:25.989Z</time>
</trkpt>
<trkpt lat="22.2416296" lon="113.9170775">
<ele>638.165</ele>
<time>2017-12-22T00:20:26.989Z</time>
</trkpt>
<trkpt lat="22.2416296" lon="113.9170775">
<ele>638.078</ele>
<time>2017-12-22T00:20:34.189Z</time>
</trkpt>
<trkpt lat="22.2415373" lon="113.9170865">
<ele>637.543</ele>
<time>2017-12-22T00:21:04.391Z</time>
</trkpt>
<trkpt lat="22.2414547" lon="113.9171357">
<ele>637.322</ele>
<time>2017-12-22T00:21:32.126Z</time>
</trkpt>
<trkpt lat="22.2414421" lon="113.9172325">
<ele>636.582</ele>
<time>2017-12-22T00:22:23.241Z</time>
</trkpt>
<trkpt lat="22.2413601" lon="113.9172793">
<ele>633.691</ele>
<time>2017-12-22T00:22:46.996Z</time>
</trkpt>
<trkpt lat="22.2413601" lon="113.9172793">
<ele>628.659</ele>
<time>2017-12-22T00:22:50.996Z</time>
</trkpt>
<trkpt lat="22.2413601" lon="113.9172793">
<ele>624.969</ele>
<time>2017-12-22T00:22:56.188Z</time>
</trkpt>
<trkpt lat="22.2412704" lon="113.9172896">
<ele>626.455</ele>
<time>2017-12-22T00:23:13.933Z</time>
</trkpt>
<trkpt lat="22.2411856" lon="113.9172542">
<ele>625.556</ele>
<time>2017-12-22T00:23:26.692Z</time>
</trkpt>
<trkpt lat="22.2410938" lon="113.9172683">
<ele>620.303</ele>
<time>2017-12-22T00:23:37.772Z</time>
</trkpt>
<trkpt lat="22.2410049" lon="113.9173120">
<ele>613.596</ele>
<time>2017-12-22T00:23:47.176Z</time>
</trkpt>
<trkpt lat="22.2409169" lon="113.9173351">
<ele>608.668</ele>
<time>2017-12-22T00:23:54.816Z</time>
</trkpt>
<trkpt lat="22.2408254" lon="113.9173356">
<ele>605.993</ele>
<time>2017-12-22T00:24:03.363Z</time>
</trkpt>
<trkpt lat="22.2407433" lon="113.9172803">
<ele>604.982</ele>
<time>2017-12-22T00:24:13.994Z</time>
</trkpt>
<trkpt lat="22.2407433" lon="113.9172803">
<ele>604.568</ele>
<time>2017-12-22T00:24:13.994Z</time>
</trkpt>
<trkpt lat="22.2407433" lon="113.9172803">
<ele>604.264</ele>
<time>2017-12-22T00:24:31.041Z</time>
</trkpt>
<trkpt lat="22.2406589" lon="113.9173157">
<ele>603.876</ele>
<time>2017-12-22T00:24:47.905Z</time>
</trkpt>
<trkpt lat="22.2405672" lon="113.9173430">
<ele>603.670</ele>
<time>2017-12-22T00:24:54.993Z</time>
</trkpt>
<trkpt lat="22.2405672" lon="113.9173430">
<ele>602.826</ele>
<time>2017-12-22T00:25:07.993Z</time>
</trkpt>
<trkpt lat="22.2405672" lon="113.9173430">
<ele>602.582</ele>
<time>2017-12-22T00:25:08.093Z</time>
</trkpt>
<trkpt lat="22.2404498" lon="113.9173717">
<ele>602.443</ele>
<time>2017-12-22T00:25:27.992Z</time>
</trkpt>
<trkpt lat="22.2404498" lon="113.9173717">
<ele>602.245</ele>
<time>2017-12-22T00:25:32.992Z</time>
</trkpt>
<trkpt lat="22.2404498" lon="113.9173717">
<ele>601.950</ele>
<time>2017-12-22T00:26:51.982Z</time>
</trkpt>
<trkpt lat="22.2402939" lon="113.9174470">
<ele>601.681</ele>
<time>2017-12-22T00:27:10.989Z</time>
</trkpt>
<trkpt lat="22.2402939" lon="113.9174470">
<ele>601.458</ele>
<time>2017-12-22T00:27:17.989Z</time>
</trkpt>
<trkpt lat="22.2402939" lon="113.9174470">
<ele>601.191</ele>
<time>2017-12-22T00:32:35.389Z</time>
</trkpt>
<trkpt lat="22.2401398" lon="113.9174745">
<ele>600.919</ele>
<time>2017-12-22T00:33:09.183Z</time>
</trkpt>
<trkpt lat="22.2400498" lon="113.9174900">
<ele>595.253</ele>
<time>2017-12-22T00:33:24.099Z</time>
</trkpt>
<trkpt lat="22.2399577" lon="113.9174578">
<ele>580.237</ele>
<time>2017-12-22T00:33:38.986Z</time>
</trkpt>
<trkpt lat="22.2398640" lon="113.9174678">
<ele>563.770</ele>
<time>2017-12-22T00:33:49.718Z</time>
</trkpt>
<trkpt lat="22.2397694" lon="113.9174923">
<ele>554.453</ele>
<time>2017-12-22T00:33:58.803Z</time>
</trkpt>
<trkpt lat="22.2396789" lon="113.9174920">
<ele>551.340</ele>
<time>2017-12-22T00:34:08.365Z</time>
</trkpt>
<trkpt lat="22.2395806" lon="113.9175010">
<ele>551.510</ele>
<time>2017-12-22T00:34:19.981Z</time>
</trkpt>
<trkpt lat="22.2394899" lon="113.9174775">
<ele>552.941</ele>
<time>2017-12-22T00:34:31.257Z</time>
</trkpt>
<trkpt lat="22.2393949" lon="113.9175140">
<ele>553.972</ele>
<time>2017-12-22T00:34:42.989Z</time>
</trkpt>
<trkpt lat="22.2393949" lon="113.9175140">
<ele>553.931</ele>
<time>2017-12-22T00:34:48.989Z</time>
</trkpt>
<trkpt lat="22.2393949" lon="113.9175140">
<ele>553.437</ele>
<time>2017-12-22T00:34:49.089Z</time>
</trkpt>
<trkpt lat="22.2393032" lon="113.9175263">
<ele>553.160</ele>
<time>2017-12-22T00:35:54.960Z</time>
</trkpt>
<trkpt lat="22.2392284" lon="113.9175855">
<ele>553.081</ele>
<time>2017-12-22T00:36:06.218Z</time>
</trkpt>
<trkpt lat="22.2391320" lon="113.9176102">
<ele>552.743</ele>
<time>2017-12-22T00:36:13.644Z</time>
</trkpt>
<trkpt lat="22.2390305" lon="113.9176219">
<ele>552.350</ele>
<time>2017-12-22T00:36:22.942Z</time>
</trkpt>
<trkpt lat="22.2389517" lon="113.9175704">
<ele>552.180</ele>
<time>2017-12-22T00:36:31.997Z</time>
</trkpt>
<trkpt lat="22.2389517" lon="113.9175704">
<ele>552.232</ele>
<time>2017-12-22T00:36:37.997Z</time>
</trkpt>
<trkpt lat="22.2389517" lon="113.9175704">
<ele>552.240</ele>
<time>2017-12-22T00:37:08.871Z</time>
</trkpt>
<trkpt lat="22.2388393" lon="113.9175255">
<ele>552.009</ele>
<time>2017-12-22T00:37:25.407Z</time>
</trkpt>
<trkpt lat="22.2387483" lon="113.9174893">
<ele>550.405</ele>
<time>2017-12-22T00:37:35.705Z</time>
</trkpt>
<trkpt lat="22.2386584" lon="113.9175218">
<ele>543.540</ele>
<time>2017-12-22T00:37:45.931Z</time>
</trkpt>
<trkpt lat="22.2385759" lon="113.9174744">
<ele>542.440</ele>
<time>2017-12-22T00:37:53.662Z</time>
</trkpt>
<trkpt lat="22.2384822" lon="113.9174751">
<ele>542.766</ele>
<time>2017-12-22T00:38:00.415Z</time>
</trkpt>
<trkpt lat="22.2383884" lon="113.9175029">
<ele>543.297</ele>
<time>2017-12-22T00:38:07.582Z</time>
</trkpt>
<trkpt lat="22.2382973" lon="113.9174967">
<ele>543.518</ele>
<time>2017-12-22T00:38:14.995Z</time>
</trkpt>
<trkpt lat="22.2382973" lon="113.9174967">
<ele>543.431</ele>
<time>2017-12-22T00:38:22.995Z</time>
</trkpt>
<trkpt lat="22.2382973" lon="113.9174967">
<ele>543.212</ele>
<time>2017-12-22T00:38:44.570Z</time>
</trkpt>
<trkpt lat="22.2382202" lon="113.9175686">
<ele>542.845</ele>
<time>2017-12-22T00:39:01.257Z</time>
</trkpt>
<trkpt lat="22.2382290" lon="113.9176673">
<ele>542.781</ele>
<time>2017-12-22T00:39:11.831Z</time>
</trkpt>
<trkpt lat="22.2381781" lon="113.9177568">
<ele>542.768</ele>
<time>2017-12-22T00:39:24.564Z</time>
</trkpt>
<trkpt lat="22.2381123" lon="113.9178248">
<ele>542.502</ele>
<time>2017-12-22T00:39:33.993Z</time>
</trkpt>
<trkpt lat="22.2381123" lon="113.9178248">
<ele>541.816</ele>
<time>2017-12-22T00:39:44.992Z</time>
</trkpt>
<trkpt lat="22.2381123" lon="113.9178248">
<ele>541.162</ele>
<time>2017-12-22T00:40:40.765Z</time>
</trkpt>
<trkpt lat="22.2380383" lon="113.9179009">
<ele>540.947</ele>
<time>2017-12-22T00:40:50.991Z</time>
</trkpt>
<trkpt lat="22.2380383" lon="113.9179009">
<ele>540.897</ele>
<time>2017-12-22T00:40:55.991Z</time>
</trkpt>
<trkpt lat="22.2380383" lon="113.9179009">
<ele>540.691</ele>
<time>2017-12-22T00:44:20.190Z</time>
</trkpt>
<trkpt lat="22.2379737" lon="113.9179699">
<ele>540.263</ele>
<time>2017-12-22T00:44:33.996Z</time>
</trkpt>
<trkpt lat="22.2379737" lon="113.9179699">
<ele>540.138</ele>
<time>2017-12-22T00:44:48.996Z</time>
</trkpt>
<trkpt lat="22.2379737" lon="113.9179699">
<ele>539.908</ele>
<time>2017-12-22T00:45:15.455Z</time>
</trkpt>
<trkpt lat="22.2379795" lon="113.9180945">
<ele>539.506</ele>
<time>2017-12-22T00:45:32.673Z</time>
</trkpt>
<trkpt lat="22.2379820" lon="113.9181971">
<ele>539.357</ele>
<time>2017-12-22T00:45:41.902Z</time>
</trkpt>
<trkpt lat="22.2379880" lon="113.9182965">
<ele>538.761</ele>
<time>2017-12-22T00:45:50.028Z</time>
</trkpt>
<trkpt lat="22.2379992" lon="113.9183952">
<ele>537.545</ele>
<time>2017-12-22T00:45:57.612Z</time>
</trkpt>
<trkpt lat="22.2380502" lon="113.9184757">
<ele>536.237</ele>
<time>2017-12-22T00:46:04.614Z</time>
</trkpt>
<trkpt lat="22.2381042" lon="113.9185573">
<ele>535.330</ele>
<time>2017-12-22T00:46:11.623Z</time>
</trkpt>
<trkpt lat="22.2381813" lon="113.9186156">
<ele>534.721</ele>
<time>2017-12-22T00:46:20.268Z</time>
</trkpt>
<trkpt lat="22.2382599" lon="113.9186648">
<ele>534.248</ele>
<time>2017-12-22T00:46:29.993Z</time>
</trkpt>
<trkpt lat="22.2382599" lon="113.9186648">
<ele>533.918</ele>
<time>2017-12-22T00:46:47.993Z</time>
</trkpt>
<trkpt lat="22.2382599" lon="113.9186648">
<ele>533.719</ele>
<time>2017-12-22T00:47:22.747Z</time>
</trkpt>
<trkpt lat="22.2383824" lon="113.9186525">
<ele>533.571</ele>
<time>2017-12-22T00:47:33.991Z</time>
</trkpt>
<trkpt lat="22.2383824" lon="113.9186525">
<ele>533.402</ele>
<time>2017-12-22T00:47:34.991Z</time>
</trkpt>
<trkpt lat="22.2383824" lon="113.9186525">
<ele>533.197</ele>
<time>2017-12-22T00:47:46.991Z</time>
</trkpt>
<trkpt lat="22.2383824" lon="113.9186525">
<ele>533.005</ele>
<time>2017-12-22T00:48:00.991Z</time>
</trkpt>
<trkpt lat="22.2383824" lon="113.9186525">
<ele>532.830</ele>
<time>2017-12-22T00:48:01.091Z</time>
</trkpt>
<trkpt lat="22.2383824" lon="113.9186525">
<ele>532.488</ele>
<time>2017-12-22T00:48:09.991Z</time>
</trkpt>
<trkpt lat="22.2383824" lon="113.9186525">
<ele>532.341</ele>
<time>2017-12-22T00:49:00.989Z</time>
</trkpt>
<trkpt lat="22.2383824" lon="113.9186525">
<ele>532.164</ele>
<time>2017-12-22T00:49:13.996Z</time>
</trkpt>
<trkpt lat="22.2383824" lon="113.9186525">
<ele>531.962</ele>
<time>2017-12-22T00:49:24.998Z</time>
</trkpt>
<trkpt lat="22.2383824" lon="113.9186525">
<ele>531.776</ele>
<time>2017-12-22T00:49:33.998Z</time>
</trkpt>
<trkpt lat="22.2383824" lon="113.9186525">
<ele>531.600</ele>
<time>2017-12-22T00:49:45.999Z</time>
</trkpt>
<trkpt lat="22.2383824" lon="113.9186525">
<ele>531.419</ele>
<time>2017-12-22T00:50:00.999Z</time>
</trkpt>
<trkpt lat="22.2383824" lon="113.9186525">
<ele>531.233</ele>
<time>2017-12-22T00:50:10.998Z</time>
</trkpt>
<trkpt lat="22.2383824" lon="113.9186525">
<ele>531.049</ele>
<time>2017-12-22T00:50:35.998Z</time>
</trkpt>
<trkpt lat="22.2383824" lon="113.9186525">
<ele>530.867</ele>
<time>2017-12-22T00:51:20.997Z</time>
</trkpt>
<trkpt lat="22.2383824" lon="113.9186525">
<ele>530.685</ele>
<time>2017-12-22T00:51:45.004Z</time>
</trkpt>
<trkpt lat="22.2382797" lon="113.9186685">
<ele>530.526</ele>
<time>2017-12-22T00:52:02.748Z</time>
</trkpt>
<trkpt lat="22.2382065" lon="113.9186047">
<ele>531.151</ele>
<time>2017-12-22T00:52:13.396Z</time>
</trkpt>
<trkpt lat="22.2381415" lon="113.9185221">
<ele>533.042</ele>
<time>2017-12-22T00:52:23.313Z</time>
</trkpt>
<trkpt lat="22.2380796" lon="113.9184449">
<ele>535.130</ele>
<time>2017-12-22T00:52:31.854Z</time>
</trkpt>
<trkpt lat="22.2380035" lon="113.9183919">
<ele>536.381</ele>
<time>2017-12-22T00:52:39.561Z</time>
</trkpt>
<trkpt lat="22.2379861" lon="113.9182939">
<ele>536.955</ele>
<time>2017-12-22T00:52:47.445Z</time>
</trkpt>
<trkpt lat="22.2379759" lon="113.9181820">
<ele>537.086</ele>
<time>2017-12-22T00:52:56.541Z</time>
</trkpt>
<trkpt lat="22.2379744" lon="113.9180692">
<ele>536.920</ele>
<time>2017-12-22T00:53:06.356Z</time>
</trkpt>
<trkpt lat="22.2379023" lon="113.9180096">
<ele>536.691</ele>
<time>2017-12-22T00:53:15.994Z</time>
</trkpt>
<trkpt lat="22.2379023" lon="113.9180096">
<ele>536.556</ele>
<time>2017-12-22T00:53:26.993Z</time>
</trkpt>
<trkpt lat="22.2379023" lon="113.9180096">
<ele>536.453</ele>
<time>2017-12-22T00:53:55.704Z</time>
</trkpt>
<trkpt lat="22.2378226" lon="113.9179450">
<ele>536.060</ele>
<time>2017-12-22T00:54:14.716Z</time>
</trkpt>
<trkpt lat="22.2377357" lon="113.9179141">
<ele>536.126</ele>
<time>2017-12-22T00:54:21.058Z</time>
</trkpt>
<trkpt lat="22.2376448" lon="113.9178999">
<ele>536.855</ele>
<time>2017-12-22T00:54:27.095Z</time>
</trkpt>
<trkpt lat="22.2375534" lon="113.9179228">
<ele>536.376</ele>
<time>2017-12-22T00:54:33.373Z</time>
</trkpt>
<trkpt lat="22.2374566" lon="113.9179596">
<ele>534.555</ele>
<time>2017-12-22T00:54:39.992Z</time>
</trkpt>
<trkpt lat="22.2374566" lon="113.9179596">
<ele>533.606</ele>
<time>2017-12-22T00:54:42.991Z</time>
</trkpt>
<trkpt lat="22.2374566" lon="113.9179596">
<ele>533.128</ele>
<time>2017-12-22T00:54:46.597Z</time>
</trkpt>
<trkpt lat="22.2374566" lon="113.9179596">
<ele>532.997</ele>
<time>2017-12-22T00:54:56.991Z</time>
</trkpt>
<trkpt lat="22.2374566" lon="113.9179596">
<ele>532.903</ele>
<time>2017-12-22T00:54:58.390Z</time>
</trkpt>
<trkpt lat="22.2373573" lon="113.9178747">
<ele>532.697</ele>
<time>2017-12-22T00:55:17.964Z</time>
</trkpt>
<trkpt lat="22.2372697" lon="113.9178423">
<ele>531.431</ele>
<time>2017-12-22T00:55:27.990Z</time>
</trkpt>
<trkpt lat="22.2372697" lon="113.9178423">
<ele>528.591</ele>
<time>2017-12-22T00:55:41.990Z</time>
</trkpt>
<trkpt lat="22.2372697" lon="113.9178423">
<ele>526.206</ele>
<time>2017-12-22T00:55:42.090Z</time>
</trkpt>
<trkpt lat="22.2371819" lon="113.9177951">
<ele>526.035</ele>
<time>2017-12-22T00:55:55.990Z</time>
</trkpt>
<trkpt lat="22.2371819" lon="113.9177951">
<ele>526.671</ele>
<time>2017-12-22T00:56:04.989Z</time>
</trkpt>
<trkpt lat="22.2371819" lon="113.9177951">
<ele>526.544</ele>
<time>2017-12-22T00:56:05.089Z</time>
</trkpt>
<trkpt lat="22.2371819" lon="113.9177951">
<ele>525.793</ele>
<time>2017-12-22T00:56:28.997Z</time>
</trkpt>
<trkpt lat="22.2371819" lon="113.9177951">
<ele>525.786</ele>
<time>2017-12-22T00:56:56.141Z</time>
</trkpt>
<trkpt lat="22.2370918" lon="113.9177692">
<ele>525.386</ele>
<time>2017-12-22T00:57:13.998Z</time>
</trkpt>
<trkpt lat="22.2370918" lon="113.9177692">
<ele>525.152</ele>
<time>2017-12-22T00:57:30.998Z</time>
</trkpt>
<trkpt lat="22.2370918" lon="113.9177692">
<ele>524.912</ele>
<time>2017-12-22T00:57:31.098Z</time>
</trkpt>
<trkpt lat="22.2369976" lon="113.9177040">
<ele>524.545</ele>
<time>2017-12-22T00:57:44.998Z</time>
</trkpt>
<trkpt lat="22.2369976" lon="113.9177040">
<ele>524.423</ele>
<time>2017-12-22T00:58:03.997Z</time>
</trkpt>
<trkpt lat="22.2369976" lon="113.9177040">
<ele>524.199</ele>
<time>2017-12-22T00:58:12.319Z</time>
</trkpt>
<trkpt lat="22.2368894" lon="113.9177520">
<ele>523.950</ele>
<time>2017-12-22T00:58:43.579Z</time>
</trkpt>
<trkpt lat="22.2368009" lon="113.9177717">
<ele>519.901</ele>
<time>2017-12-22T00:59:04.484Z</time>
</trkpt>
<trkpt lat="22.2367195" lon="113.9177238">
<ele>508.591</ele>
<time>2017-12-22T00:59:25.908Z</time>
</trkpt>
<trkpt lat="22.2366314" lon="113.9176917">
<ele>494.984</ele>
<time>2017-12-22T00:59:50.831Z</time>
</trkpt>
<trkpt lat="22.2365603" lon="113.9176164">
<ele>486.010</ele>
<time>2017-12-22T01:00:16.994Z</time>
</trkpt>
<trkpt lat="22.2365603" lon="113.9176164">
<ele>482.310</ele>
<time>2017-12-22T01:00:23.994Z</time>
</trkpt>
<trkpt lat="22.2365603" lon="113.9176164">
<ele>481.590</ele>
<time>2017-12-22T01:00:24.094Z</time>
</trkpt>
<trkpt lat="22.2365121" lon="113.9174885">
<ele>481.694</ele>
<time>2017-12-22T01:00:34.087Z</time>
</trkpt>
<trkpt lat="22.2364546" lon="113.9174091">
<ele>481.104</ele>
<time>2017-12-22T01:00:37.993Z</time>
</trkpt>
<trkpt lat="22.2364546" lon="113.9174091">
<ele>477.926</ele>
<time>2017-12-22T01:00:44.993Z</time>
</trkpt>
<trkpt lat="22.2364546" lon="113.9174091">
<ele>477.749</ele>
<time>2017-12-22T01:01:01.945Z</time>
</trkpt>
<trkpt lat="22.2363616" lon="113.9174150">
<ele>478.090</ele>
<time>2017-12-22T01:01:13.302Z</time>
</trkpt>
<trkpt lat="22.2362577" lon="113.9174202">
<ele>477.007</ele>
<time>2017-12-22T01:01:20.992Z</time>
</trkpt>
<trkpt lat="22.2362577" lon="113.9174202">
<ele>474.025</ele>
<time>2017-12-22T01:01:22.992Z</time>
</trkpt>
<trkpt lat="22.2362577" lon="113.9174202">
<ele>471.553</ele>
<time>2017-12-22T01:01:35.687Z</time>
</trkpt>
<trkpt lat="22.2362078" lon="113.9173152">
<ele>472.471</ele>
<time>2017-12-22T01:01:54.934Z</time>
</trkpt>
<trkpt lat="22.2361425" lon="113.9172326">
<ele>470.680</ele>
<time>2017-12-22T01:02:03.593Z</time>
</trkpt>
<trkpt lat="22.2360521" lon="113.9172216">
<ele>463.777</ele>
<time>2017-12-22T01:02:10.922Z</time>
</trkpt>
<trkpt lat="22.2359693" lon="113.9171602">
<ele>450.794</ele>
<time>2017-12-22T01:02:19.435Z</time>
</trkpt>
<trkpt lat="22.2358797" lon="113.9171292">
<ele>447.919</ele>
<time>2017-12-22T01:02:28.009Z</time>
</trkpt>
<trkpt lat="22.2357919" lon="113.9171077">
<ele>446.469</ele>
<time>2017-12-22T01:02:37.003Z</time>
</trkpt>
<trkpt lat="22.2357198" lon="113.9170403">
<ele>443.496</ele>
<time>2017-12-22T01:02:43.294Z</time>
</trkpt>
<trkpt lat="22.2356317" lon="113.9170147">
<ele>439.981</ele>
<time>2017-12-22T01:02:48.150Z</time>
</trkpt>
<trkpt lat="22.2355434" lon="113.9169626">
<ele>435.374</ele>
<time>2017-12-22T01:02:53.472Z</time>
</trkpt>
<trkpt lat="22.2354510" lon="113.9169306">
<ele>433.999</ele>
<time>2017-12-22T01:02:58.990Z</time>
</trkpt>
<trkpt lat="22.2354510" lon="113.9169306">
<ele>431.069</ele>
<time>2017-12-22T01:03:05.990Z</time>
</trkpt>
<trkpt lat="22.2354510" lon="113.9169306">
<ele>430.941</ele>
<time>2017-12-22T01:03:47.785Z</time>
</trkpt>
<trkpt lat="22.2353524" lon="113.9170011">
<ele>431.193</ele>
<time>2017-12-22T01:04:06.450Z</time>
</trkpt>
<trkpt lat="22.2352649" lon="113.9169751">
<ele>428.620</ele>
<time>2017-12-22T01:04:16.362Z</time>
</trkpt>
<trkpt lat="22.2351930" lon="113.9169121">
<ele>421.842</ele>
<time>2017-12-22T01:04:26.581Z</time>
</trkpt>
<trkpt lat="22.2350970" lon="113.9168999">
<ele>415.284</ele>
<time>2017-12-22T01:04:36.055Z</time>
</trkpt>
<trkpt lat="22.2350068" lon="113.9169130">
<ele>413.545</ele>
<time>2017-12-22T01:04:44.351Z</time>
</trkpt>
<trkpt lat="22.2349123" lon="113.9169141">
<ele>415.845</ele>
<time>2017-12-22T01:04:52.918Z</time>
</trkpt>
<trkpt lat="22.2348120" lon="113.9168847">
<ele>418.995</ele>
<time>2017-12-22T01:05:01.747Z</time>
</trkpt>
<trkpt lat="22.2347140" lon="113.9168772">
<ele>420.814</ele>
<time>2017-12-22T01:05:09.998Z</time>
</trkpt>
<trkpt lat="22.2347140" lon="113.9168772">
<ele>421.266</ele>
<time>2017-12-22T01:05:27.997Z</time>
</trkpt>
<trkpt lat="22.2347140" lon="113.9168772">
<ele>421.060</ele>
<time>2017-12-22T01:28:18.767Z</time>
</trkpt>
<trkpt lat="22.2346251" lon="113.9169356">
<ele>420.683</ele>
<time>2017-12-22T01:28:52.999Z</time>
</trkpt>
<trkpt lat="22.2346251" lon="113.9169356">
<ele>420.625</ele>
<time>2017-12-22T01:28:53.999Z</time>
</trkpt>
<trkpt lat="22.2346251" lon="113.9169356">
<ele>420.454</ele>
<time>2017-12-22T01:28:54.803Z</time>
</trkpt>
<trkpt lat="22.2345346" lon="113.9169588">
<ele>420.131</ele>
<time>2017-12-22T01:29:09.713Z</time>
</trkpt>
<trkpt lat="22.2344903" lon="113.9170559">
<ele>415.750</ele>
<time>2017-12-22T01:29:19.254Z</time>
</trkpt>
<trkpt lat="22.2343862" lon="113.9170509">
<ele>404.349</ele>
<time>2017-12-22T01:29:27.769Z</time>
</trkpt>
<trkpt lat="22.2342967" lon="113.9170031">
<ele>391.530</ele>
<time>2017-12-22T01:29:36.478Z</time>
</trkpt>
<trkpt lat="22.2342030" lon="113.9169702">
<ele>383.728</ele>
<time>2017-12-22T01:29:44.284Z</time>
</trkpt>
<trkpt lat="22.2341260" lon="113.9169194">
<ele>380.295</ele>
<time>2017-12-22T01:29:50.251Z</time>
</trkpt>
<trkpt lat="22.2340267" lon="113.9169214">
<ele>378.264</ele>
<time>2017-12-22T01:29:56.205Z</time>
</trkpt>
<trkpt lat="22.2339345" lon="113.9168957">
<ele>374.271</ele>
<time>2017-12-22T01:30:02.035Z</time>
</trkpt>
<trkpt lat="22.2338423" lon="113.9168762">
<ele>372.351</ele>
<time>2017-12-22T01:30:08.343Z</time>
</trkpt>
<trkpt lat="22.2337548" lon="113.9168527">
<ele>369.369</ele>
<time>2017-12-22T01:30:14.712Z</time>
</trkpt>
<trkpt lat="22.2337135" lon="113.9167499">
<ele>368.262</ele>
<time>2017-12-22T01:30:24.175Z</time>
</trkpt>
<trkpt lat="22.2336219" lon="113.9167284">
<ele>366.898</ele>
<time>2017-12-22T01:30:34.047Z</time>
</trkpt>
<trkpt lat="22.2335257" lon="113.9166877">
<ele>365.154</ele>
<time>2017-12-22T01:30:45.627Z</time>
</trkpt>
<trkpt lat="22.2334702" lon="113.9166025">
<ele>362.633</ele>
<time>2017-12-22T01:30:54.628Z</time>
</trkpt>
<trkpt lat="22.2333720" lon="113.9166016">
<ele>359.321</ele>
<time>2017-12-22T01:31:02.774Z</time>
</trkpt>
<trkpt lat="22.2332780" lon="113.9165664">
<ele>355.803</ele>
<time>2017-12-22T01:31:09.216Z</time>
</trkpt>
<trkpt lat="22.2331714" lon="113.9165827">
<ele>352.294</ele>
<time>2017-12-22T01:31:15.178Z</time>
</trkpt>
<trkpt lat="22.2330816" lon="113.9165596">
<ele>348.679</ele>
<time>2017-12-22T01:31:21.368Z</time>
</trkpt>
<trkpt lat="22.2329902" lon="113.9165135">
<ele>345.158</ele>
<time>2017-12-22T01:31:28.562Z</time>
</trkpt>
<trkpt lat="22.2329126" lon="113.9164503">
<ele>342.302</ele>
<time>2017-12-22T01:31:36.951Z</time>
</trkpt>
<trkpt lat="22.2328361" lon="113.9163861">
<ele>340.362</ele>
<time>2017-12-22T01:31:46.115Z</time>
</trkpt>
<trkpt lat="22.2328008" lon="113.9162967">
<ele>338.625</ele>
<time>2017-12-22T01:31:59.899Z</time>
</trkpt>
<trkpt lat="22.2327146" lon="113.9162498">
<ele>335.660</ele>
<time>2017-12-22T01:32:12.120Z</time>
</trkpt>
<trkpt lat="22.2326213" lon="113.9162283">
<ele>331.228</ele>
<time>2017-12-22T01:32:22.998Z</time>
</trkpt>
<trkpt lat="22.2326213" lon="113.9162283">
<ele>327.076</ele>
<time>2017-12-22T01:32:32.998Z</time>
</trkpt>
<trkpt lat="22.2326213" lon="113.9162283">
<ele>325.025</ele>
<time>2017-12-22T01:32:45.829Z</time>
</trkpt>
<trkpt lat="22.2325431" lon="113.9161709">
<ele>325.973</ele>
<time>2017-12-22T01:33:06.159Z</time>
</trkpt>
<trkpt lat="22.2324512" lon="113.9161619">
<ele>324.582</ele>
<time>2017-12-22T01:33:16.003Z</time>
</trkpt>
<trkpt lat="22.2324512" lon="113.9161619">
<ele>319.530</ele>
<time>2017-12-22T01:33:32.001Z</time>
</trkpt>
<trkpt lat="22.2324512" lon="113.9161619">
<ele>315.086</ele>
<time>2017-12-22T01:33:32.101Z</time>
</trkpt>
<trkpt lat="22.2323246" lon="113.9160893">
<ele>315.008</ele>
<time>2017-12-22T01:34:12.991Z</time>
</trkpt>
<trkpt lat="22.2322257" lon="113.9160823">
<ele>314.805</ele>
<time>2017-12-22T01:34:25.014Z</time>
</trkpt>
<trkpt lat="22.2321350" lon="113.9160638">
<ele>309.510</ele>
<time>2017-12-22T01:34:35.457Z</time>
</trkpt>
<trkpt lat="22.2320605" lon="113.9160059">
<ele>301.193</ele>
<time>2017-12-22T01:34:44.400Z</time>
</trkpt>
<trkpt lat="22.2319828" lon="113.9159420">
<ele>290.744</ele>
<time>2017-12-22T01:34:52.576Z</time>
</trkpt>
<trkpt lat="22.2319038" lon="113.9158771">
<ele>288.766</ele>
<time>2017-12-22T01:35:00.981Z</time>
</trkpt>
<trkpt lat="22.2318136" lon="113.9158544">
<ele>288.274</ele>
<time>2017-12-22T01:35:07.980Z</time>
</trkpt>
<trkpt lat="22.2317245" lon="113.9158205">
<ele>287.310</ele>
<time>2017-12-22T01:35:16.822Z</time>
</trkpt>
<trkpt lat="22.2316265" lon="113.9158173">
<ele>286.683</ele>
<time>2017-12-22T01:35:25.997Z</time>
</trkpt>
<trkpt lat="22.2316265" lon="113.9158173">
<ele>286.756</ele>
<time>2017-12-22T01:35:34.997Z</time>
</trkpt>
<trkpt lat="22.2316265" lon="113.9158173">
<ele>286.995</ele>
<time>2017-12-22T01:37:10.366Z</time>
</trkpt>
<trkpt lat="22.2312310" lon="113.9155797">
<ele>286.619</ele>
<time>2017-12-22T01:40:30.996Z</time>
</trkpt>
<trkpt lat="22.2312310" lon="113.9155797">
<ele>286.415</ele>
<time>2017-12-22T01:40:30.997Z</time>
</trkpt>
<trkpt lat="22.2312310" lon="113.9155797">
<ele>286.301</ele>
<time>2017-12-22T01:40:31.097Z</time>
</trkpt>
<trkpt lat="22.2312310" lon="113.9155797">
<ele>286.155</ele>
<time>2017-12-22T01:40:44.995Z</time>
</trkpt>
<trkpt lat="22.2312310" lon="113.9155797">
<ele>286.072</ele>
<time>2017-12-22T01:40:45.095Z</time>
</trkpt>
<trkpt lat="22.2311213" lon="113.9155991">
<ele>285.971</ele>
<time>2017-12-22T01:40:56.088Z</time>
</trkpt>
<trkpt lat="22.2310235" lon="113.9155897">
<ele>285.670</ele>
<time>2017-12-22T01:41:01.995Z</time>
</trkpt>
<trkpt lat="22.2310235" lon="113.9155897">
<ele>285.084</ele>
<time>2017-12-22T01:41:07.995Z</time>
</trkpt>
<trkpt lat="22.2310235" lon="113.9155897">
<ele>284.581</ele>
<time>2017-12-22T01:41:15.451Z</time>
</trkpt>
<trkpt lat="22.2309308" lon="113.9154901">
<ele>284.475</ele>
<time>2017-12-22T01:41:30.994Z</time>
</trkpt>
<trkpt lat="22.2309308" lon="113.9154901">
<ele>284.510</ele>
<time>2017-12-22T01:41:33.994Z</time>
</trkpt>
<trkpt lat="22.2309308" lon="113.9154901">
<ele>284.411</ele>
<time>2017-12-22T01:42:37.746Z</time>
</trkpt>
<trkpt lat="22.2308874" lon="113.9154041">
<ele>284.161</ele>
<time>2017-12-22T01:43:05.916Z</time>
</trkpt>
<trkpt lat="22.2308158" lon="113.9153299">
<ele>282.162</ele>
<time>2017-12-22T01:43:11.436Z</time>
</trkpt>
<trkpt lat="22.2307635" lon="113.9152447">
<ele>276.801</ele>
<time>2017-12-22T01:43:16.253Z</time>
</trkpt>
<trkpt lat="22.2307162" lon="113.9151533">
<ele>270.805</ele>
<time>2017-12-22T01:43:20.992Z</time>
</trkpt>
<trkpt lat="22.2307162" lon="113.9151533">
<ele>267.298</ele>
<time>2017-12-22T01:43:31.992Z</time>
</trkpt>
<trkpt lat="22.2307162" lon="113.9151533">
<ele>266.179</ele>
<time>2017-12-22T01:43:32.347Z</time>
</trkpt>
<trkpt lat="22.2306039" lon="113.9151435">
<ele>266.309</ele>
<time>2017-12-22T01:43:45.956Z</time>
</trkpt>
<trkpt lat="22.2305351" lon="113.9150665">
<ele>265.624</ele>
<time>2017-12-22T01:43:54.801Z</time>
</trkpt>
<trkpt lat="22.2304530" lon="113.9150194">
<ele>263.011</ele>
<time>2017-12-22T01:44:03.037Z</time>
</trkpt>
<trkpt lat="22.2303496" lon="113.9150285">
<ele>259.737</ele>
<time>2017-12-22T01:44:10.991Z</time>
</trkpt>
<trkpt lat="22.2303496" lon="113.9150285">
<ele>257.370</ele>
<time>2017-12-22T01:44:19.991Z</time>
</trkpt>
<trkpt lat="22.2303496" lon="113.9150285">
<ele>256.288</ele>
<time>2017-12-22T01:44:29.925Z</time>
</trkpt>
<trkpt lat="22.2302428" lon="113.9149881">
<ele>256.311</ele>
<time>2017-12-22T01:44:43.850Z</time>
</trkpt>
<trkpt lat="22.2301518" lon="113.9149678">
<ele>254.452</ele>
<time>2017-12-22T01:44:53.519Z</time>
</trkpt>
<trkpt lat="22.2300565" lon="113.9149529">
<ele>241.833</ele>
<time>2017-12-22T01:45:08.950Z</time>
</trkpt>
<trkpt lat="22.2299584" lon="113.9149719">
<ele>235.313</ele>
<time>2017-12-22T01:45:22.948Z</time>
</trkpt>
<trkpt lat="22.2299013" lon="113.9150509">
<ele>233.968</ele>
<time>2017-12-22T01:45:29.999Z</time>
</trkpt>
<trkpt lat="22.2299013" lon="113.9150509">
<ele>233.544</ele>
<time>2017-12-22T01:45:43.998Z</time>
</trkpt>
<trkpt lat="22.2299013" lon="113.9150509">
<ele>233.985</ele>
<time>2017-12-22T01:45:50.297Z</time>
</trkpt>
<trkpt lat="22.2298321" lon="113.9151635">
<ele>233.899</ele>
<time>2017-12-22T01:46:04.163Z</time>
</trkpt>
<trkpt lat="22.2297480" lon="113.9152151">
<ele>232.486</ele>
<time>2017-12-22T01:46:11.998Z</time>
</trkpt>
<trkpt lat="22.2297480" lon="113.9152151">
<ele>229.323</ele>
<time>2017-12-22T01:46:15.998Z</time>
</trkpt>
<trkpt lat="22.2297480" lon="113.9152151">
<ele>226.765</ele>
<time>2017-12-22T01:46:16.098Z</time>
</trkpt>
<trkpt lat="22.2296548" lon="113.9152398">
<ele>227.959</ele>
<time>2017-12-22T01:46:35.322Z</time>
</trkpt>
<trkpt lat="22.2295774" lon="113.9152915">
<ele>225.223</ele>
<time>2017-12-22T01:46:50.453Z</time>
</trkpt>
<trkpt lat="22.2294827" lon="113.9152688">
<ele>215.284</ele>
<time>2017-12-22T01:47:07.200Z</time>
</trkpt>
<trkpt lat="22.2293959" lon="113.9152345">
<ele>202.653</ele>
<time>2017-12-22T01:47:15.632Z</time>
</trkpt>
<trkpt lat="22.2293001" lon="113.9151872">
<ele>193.190</ele>
<time>2017-12-22T01:47:25.142Z</time>
</trkpt>
<trkpt lat="22.2292057" lon="113.9152124">
<ele>187.356</ele>
<time>2017-12-22T01:47:34.415Z</time>
</trkpt>
<trkpt lat="22.2291121" lon="113.9152159">
<ele>183.545</ele>
<time>2017-12-22T01:47:43.367Z</time>
</trkpt>
<trkpt lat="22.2290215" lon="113.9152605">
<ele>180.195</ele>
<time>2017-12-22T01:47:53.858Z</time>
</trkpt>
<trkpt lat="22.2289254" lon="113.9153004">
<ele>176.781</ele>
<time>2017-12-22T01:48:05.310Z</time>
</trkpt>
<trkpt lat="22.2288335" lon="113.9152800">
<ele>173.847</ele>
<time>2017-12-22T01:48:15.047Z</time>
</trkpt>
<trkpt lat="22.2287718" lon="113.9153518">
<ele>174.199</ele>
<time>2017-12-22T01:48:21.995Z</time>
</trkpt>
<trkpt lat="22.2287718" lon="113.9153518">
<ele>183.233</ele>
<time>2017-12-22T01:48:25.995Z</time>
</trkpt>
<trkpt lat="22.2287718" lon="113.9153518">
<ele>183.133</ele>
<time>2017-12-22T01:48:26.095Z</time>
</trkpt>
<trkpt lat="22.2286905" lon="113.9154181">
<ele>181.132</ele>
<time>2017-12-22T01:48:55.659Z</time>
</trkpt>
<trkpt lat="22.2285925" lon="113.9154344">
<ele>178.020</ele>
<time>2017-12-22T01:49:04.883Z</time>
</trkpt>
<trkpt lat="22.2285037" lon="113.9154676">
<ele>168.220</ele>
<time>2017-12-22T01:49:13.334Z</time>
</trkpt>
<trkpt lat="22.2284088" lon="113.9154779">
<ele>157.805</ele>
<time>2017-12-22T01:49:24.285Z</time>
</trkpt>
<trkpt lat="22.2283129" lon="113.9154963">
<ele>153.001</ele>
<time>2017-12-22T01:49:34.120Z</time>
</trkpt>
<trkpt lat="22.2282028" lon="113.9155235">
<ele>152.209</ele>
<time>2017-12-22T01:49:44.108Z</time>
</trkpt>
<trkpt lat="22.2281057" lon="113.9155394">
<ele>152.432</ele>
<time>2017-12-22T01:49:54.893Z</time>
</trkpt>
<trkpt lat="22.2280339" lon="113.9156034">
<ele>151.462</ele>
<time>2017-12-22T01:50:01.838Z</time>
</trkpt>
<trkpt lat="22.2279442" lon="113.9156293">
<ele>149.629</ele>
<time>2017-12-22T01:50:08.070Z</time>
</trkpt>
<trkpt lat="22.2278458" lon="113.9156254">
<ele>147.565</ele>
<time>2017-12-22T01:50:15.874Z</time>
</trkpt>
<trkpt lat="22.2277892" lon="113.9157090">
<ele>146.305</ele>
<time>2017-12-22T01:50:25.988Z</time>
</trkpt>
<trkpt lat="22.2277186" lon="113.9157697">
<ele>148.211</ele>
<time>2017-12-22T01:50:35.796Z</time>
</trkpt>
<trkpt lat="22.2276281" lon="113.9158217">
<ele>153.242</ele>
<time>2017-12-22T01:50:44.754Z</time>
</trkpt>
<trkpt lat="22.2275425" lon="113.9158816">
<ele>150.737</ele>
<time>2017-12-22T01:50:52.387Z</time>
</trkpt>
<trkpt lat="22.2274457" lon="113.9158849">
<ele>150.050</ele>
<time>2017-12-22T01:50:59.646Z</time>
</trkpt>
<trkpt lat="22.2273456" lon="113.9158764">
<ele>154.078</ele>
<time>2017-12-22T01:51:08.752Z</time>
</trkpt>
<trkpt lat="22.2272392" lon="113.9158593">
<ele>154.087</ele>
<time>2017-12-22T01:51:18.924Z</time>
</trkpt>
<trkpt lat="22.2271676" lon="113.9159356">
<ele>153.436</ele>
<time>2017-12-22T01:51:28.846Z</time>
</trkpt>
<trkpt lat="22.2270718" lon="113.9159712">
<ele>147.280</ele>
<time>2017-12-22T01:51:37.677Z</time>
</trkpt>
<trkpt lat="22.2269966" lon="113.9160324">
<ele>131.993</ele>
<time>2017-12-22T01:51:46.498Z</time>
</trkpt>
<trkpt lat="22.2269129" lon="113.9160876">
<ele>109.039</ele>
<time>2017-12-22T01:51:55.690Z</time>
</trkpt>
<trkpt lat="22.2268228" lon="113.9161130">
<ele>110.881</ele>
<time>2017-12-22T01:52:03.034Z</time>
</trkpt>
<trkpt lat="22.2267295" lon="113.9161328">
<ele>108.417</ele>
<time>2017-12-22T01:52:07.666Z</time>
</trkpt>
<trkpt lat="22.2266358" lon="113.9161287">
<ele>103.819</ele>
<time>2017-12-22T01:52:11.999Z</time>
</trkpt>
<trkpt lat="22.2266358" lon="113.9161287">
<ele>100.873</ele>
<time>2017-12-22T01:52:11.999Z</time>
</trkpt>
<trkpt lat="22.2266358" lon="113.9161287">
<ele>99.995</ele>
<time>2017-12-22T01:52:33.992Z</time>
</trkpt>
<trkpt lat="22.2266800" lon="113.9160409">
<ele>100.179</ele>
<time>2017-12-22T01:52:57.998Z</time>
</trkpt>
<trkpt lat="22.2266800" lon="113.9160409">
<ele>100.453</ele>
<time>2017-12-22T01:52:58.998Z</time>
</trkpt>
<trkpt lat="22.2266800" lon="113.9160409">
<ele>100.420</ele>
<time>2017-12-22T01:52:59.098Z</time>
</trkpt>
<trkpt lat="22.2266800" lon="113.9160409">
<ele>100.217</ele>
<time>2017-12-22T01:53:12.998Z</time>
</trkpt>
<trkpt lat="22.2266800" lon="113.9160409">
<ele>100.243</ele>
<time>2017-12-22T01:56:41.800Z</time>
</trkpt>
<trkpt lat="22.2266256" lon="113.9159626">
<ele>100.155</ele>
<time>2017-12-22T01:57:06.863Z</time>
</trkpt>
<trkpt lat="22.2265885" lon="113.9158735">
<ele>100.173</ele>
<time>2017-12-22T01:57:13.056Z</time>
</trkpt>
<trkpt lat="22.2265563" lon="113.9157824">
<ele>100.324</ele>
<time>2017-12-22T01:57:18.517Z</time>
</trkpt>
<trkpt lat="22.2265039" lon="113.9156982">
<ele>100.498</ele>
<time>2017-12-22T01:57:24.944Z</time>
</trkpt>
<trkpt lat="22.2264587" lon="113.9156130">
<ele>100.564</ele>
<time>2017-12-22T01:57:31.672Z</time>
</trkpt>
<trkpt lat="22.2264110" lon="113.9155187">
<ele>100.521</ele>
<time>2017-12-22T01:57:39.162Z</time>
</trkpt>
<trkpt lat="22.2263660" lon="113.9154338">
<ele>100.417</ele>
<time>2017-12-22T01:57:45.976Z</time>
</trkpt>
<trkpt lat="22.2263290" lon="113.9153437">
<ele>100.306</ele>
<time>2017-12-22T01:57:52.992Z</time>
</trkpt>
<trkpt lat="22.2263290" lon="113.9153437">
<ele>100.226</ele>
<time>2017-12-22T01:57:56.991Z</time>
</trkpt>
<trkpt lat="22.2263290" lon="113.9153437">
<ele>100.189</ele>
<time>2017-12-22T01:57:57.059Z</time>
</trkpt>
<trkpt lat="22.2262910" lon="113.9154367">
<ele>100.143</ele>
<time>2017-12-22T01:58:13.957Z</time>
</trkpt>
<trkpt lat="22.2262711" lon="113.9155396">
<ele>100.311</ele>
<time>2017-12-22T01:58:23.598Z</time>
</trkpt>
<trkpt lat="22.2262289" lon="113.9156309">
<ele>100.932</ele>
<time>2017-12-22T01:58:32.998Z</time>
</trkpt>
<trkpt lat="22.2262232" lon="113.9157328">
<ele>102.038</ele>
<time>2017-12-22T01:58:42.588Z</time>
</trkpt>
<trkpt lat="22.2261708" lon="113.9158135">
<ele>103.291</ele>
<time>2017-12-22T01:58:51.291Z</time>
</trkpt>
<trkpt lat="22.2260926" lon="113.9158700">
<ele>103.898</ele>
<time>2017-12-22T01:58:58.457Z</time>
</trkpt>
<trkpt lat="22.2260054" lon="113.9159385">
<ele>103.246</ele>
<time>2017-12-22T01:59:05.122Z</time>
</trkpt>
<trkpt lat="22.2259225" lon="113.9160079">
<ele>101.630</ele>
<time>2017-12-22T01:59:11.033Z</time>
</trkpt>
<trkpt lat="22.2258312" lon="113.9160488">
<ele>99.742</ele>
<time>2017-12-22T01:59:17.315Z</time>
</trkpt>
<trkpt lat="22.2257416" lon="113.9160897">
<ele>97.793</ele>
<time>2017-12-22T01:59:25.336Z</time>
</trkpt>
<trkpt lat="22.2256354" lon="113.9160961">
<ele>95.707</ele>
<time>2017-12-22T01:59:34.789Z</time>
</trkpt>
<trkpt lat="22.2255299" lon="113.9161033">
<ele>93.439</ele>
<time>2017-12-22T01:59:42.039Z</time>
</trkpt>
<trkpt lat="22.2254430" lon="113.9161300">
<ele>91.286</ele>
<time>2017-12-22T01:59:46.611Z</time>
</trkpt>
<trkpt lat="22.2253591" lon="113.9161662">
<ele>89.872</ele>
<time>2017-12-22T01:59:51.724Z</time>
</trkpt>
<trkpt lat="22.2252992" lon="113.9162485">
<ele>89.375</ele>
<time>2017-12-22T01:59:57.842Z</time>
</trkpt>
<trkpt lat="22.2252098" lon="113.9162888">
<ele>88.993</ele>
<time>2017-12-22T02:00:06.998Z</time>
</trkpt>
<trkpt lat="22.2252098" lon="113.9162888">
<ele>88.214</ele>
<time>2017-12-22T02:00:18.998Z</time>
</trkpt>
<trkpt lat="22.2252098" lon="113.9162888">
<ele>88.293</ele>
<time>2017-12-22T02:00:24.735Z</time>
</trkpt>
<trkpt lat="22.2251691" lon="113.9163831">
<ele>88.314</ele>
<time>2017-12-22T02:00:39.930Z</time>
</trkpt>
<trkpt lat="22.2250942" lon="113.9164386">
<ele>87.085</ele>
<time>2017-12-22T02:00:46.348Z</time>
</trkpt>
<trkpt lat="22.2250201" lon="113.9165213">
<ele>83.529</ele>
<time>2017-12-22T02:00:53.018Z</time>
</trkpt>
<trkpt lat="22.2249915" lon="113.9166301">
<ele>78.930</ele>
<time>2017-12-22T02:01:01.217Z</time>
</trkpt>
<trkpt lat="22.2249342" lon="113.9167077">
<ele>75.469</ele>
<time>2017-12-22T02:01:08.417Z</time>
</trkpt>
<trkpt lat="22.2248759" lon="113.9167850">
<ele>73.327</ele>
<time>2017-12-22T02:01:17.001Z</time>
</trkpt>
<trkpt lat="22.2248259" lon="113.9168787">
<ele>71.508</ele>
<time>2017-12-22T02:01:24.523Z</time>
</trkpt>
<trkpt lat="22.2247733" lon="113.9169718">
<ele>69.650</ele>
<time>2017-12-22T02:01:32.286Z</time>
</trkpt>
<trkpt lat="22.2246728" lon="113.9169967">
<ele>68.238</ele>
<time>2017-12-22T02:01:39.245Z</time>
</trkpt>
<trkpt lat="22.2245768" lon="113.9170225">
<ele>67.434</ele>
<time>2017-12-22T02:01:45.195Z</time>
</trkpt>
<trkpt lat="22.2245350" lon="113.9171214">
<ele>66.752</ele>
<time>2017-12-22T02:01:51.546Z</time>
</trkpt>
<trkpt lat="22.2245577" lon="113.9172177">
<ele>65.619</ele>
<time>2017-12-22T02:01:58.059Z</time>
</trkpt>
<trkpt lat="22.2245953" lon="113.9173094">
<ele>64.183</ele>
<time>2017-12-22T02:02:03.621Z</time>
</trkpt>
<trkpt lat="22.2246128" lon="113.9174173">
<ele>62.831</ele>
<time>2017-12-22T02:02:09.982Z</time>
</trkpt>
<trkpt lat="22.2245309" lon="113.9174695">
<ele>61.641</ele>
<time>2017-12-22T02:02:17.409Z</time>
</trkpt>
<trkpt lat="22.2244484" lon="113.9175155">
<ele>60.401</ele>
<time>2017-12-22T02:02:25.858Z</time>
</trkpt>
<trkpt lat="22.2243604" lon="113.9175361">
<ele>58.941</ele>
<time>2017-12-22T02:02:33.650Z</time>
</trkpt>
<trkpt lat="22.2243104" lon="113.9176262">
<ele>57.443</ele>
<time>2017-12-22T02:02:42.755Z</time>
</trkpt>
<trkpt lat="22.2242382" lon="113.9177099">
<ele>56.218</ele>
<time>2017-12-22T02:02:52.334Z</time>
</trkpt>
<trkpt lat="22.2242428" lon="113.9178091">
<ele>55.340</ele>
<time>2017-12-22T02:02:58.127Z</time>
</trkpt>
<trkpt lat="22.2242236" lon="113.9179168">
<ele>54.728</ele>
<time>2017-12-22T02:03:03.695Z</time>
</trkpt>
<trkpt lat="22.2241661" lon="113.9179956">
<ele>54.130</ele>
<time>2017-12-22T02:03:08.778Z</time>
</trkpt>
<trkpt lat="22.2240767" lon="113.9179678">
<ele>53.495</ele>
<time>2017-12-22T02:03:14.363Z</time>
</trkpt>
<trkpt lat="22.2239736" lon="113.9179526">
<ele>53.063</ele>
<time>2017-12-22T02:03:21.092Z</time>
</trkpt>
<trkpt lat="22.2238858" lon="113.9179879">
<ele>52.918</ele>
<time>2017-12-22T02:03:27.727Z</time>
</trkpt>
<trkpt lat="22.2237942" lon="113.9180046">
<ele>52.831</ele>
<time>2017-12-22T02:03:36.597Z</time>
</trkpt>
<trkpt lat="22.2237124" lon="113.9180479">
<ele>52.549</ele>
<time>2017-12-22T02:03:50.243Z</time>
</trkpt>
<trkpt lat="22.2236332" lon="113.9180984">
<ele>51.645</ele>
<time>2017-12-22T02:04:04.770Z</time>
</trkpt>
<trkpt lat="22.2235470" lon="113.9181419">
<ele>49.966</ele>
<time>2017-12-22T02:04:14.180Z</time>
</trkpt>
<trkpt lat="22.2234747" lon="113.9182220">
<ele>48.195</ele>
<time>2017-12-22T02:04:23.823Z</time>
</trkpt>
<trkpt lat="22.2233994" lon="113.9182903">
<ele>46.951</ele>
<time>2017-12-22T02:04:33.417Z</time>
</trkpt>
<trkpt lat="22.2233246" lon="113.9183538">
<ele>46.037</ele>
<time>2017-12-22T02:04:42.369Z</time>
</trkpt>
<trkpt lat="22.2232338" lon="113.9183364">
<ele>45.170</ele>
<time>2017-12-22T02:04:51.599Z</time>
</trkpt>
<trkpt lat="22.2231433" lon="113.9183518">
<ele>44.247</ele>
<time>2017-12-22T02:05:00.053Z</time>
</trkpt>
<trkpt lat="22.2230470" lon="113.9183623">
<ele>43.205</ele>
<time>2017-12-22T02:05:08.940Z</time>
</trkpt>
<trkpt lat="22.2229633" lon="113.9184004">
<ele>41.883</ele>
<time>2017-12-22T02:05:19.144Z</time>
</trkpt>
<trkpt lat="22.2228776" lon="113.9184498">
<ele>40.190</ele>
<time>2017-12-22T02:05:32.095Z</time>
</trkpt>
<trkpt lat="22.2227845" lon="113.9184870">
<ele>37.971</ele>
<time>2017-12-22T02:05:45.175Z</time>
</trkpt>
<trkpt lat="22.2227335" lon="113.9185821">
<ele>35.019</ele>
<time>2017-12-22T02:05:54.254Z</time>
</trkpt>
<trkpt lat="22.2227185" lon="113.9186876">
<ele>31.745</ele>
<time>2017-12-22T02:06:04.127Z</time>
</trkpt>
<trkpt lat="22.2226431" lon="113.9187434">
<ele>28.693</ele>
<time>2017-12-22T02:06:14.997Z</time>
</trkpt>
<trkpt lat="22.2226431" lon="113.9187434">
<ele>26.136</ele>
<time>2017-12-22T02:06:21.998Z</time>
</trkpt>
<trkpt lat="22.2226431" lon="113.9187434">
<ele>24.773</ele>
<time>2017-12-22T02:06:22.098Z</time>
</trkpt>
<trkpt lat="22.2225569" lon="113.9187839">
<ele>25.562</ele>
<time>2017-12-22T02:06:51.275Z</time>
</trkpt>
<trkpt lat="22.2224905" lon="113.9188508">
<ele>24.162</ele>
<time>2017-12-22T02:06:59.301Z</time>
</trkpt>
<trkpt lat="22.2225275" lon="113.9189432">
<ele>19.317</ele>
<time>2017-12-22T02:07:06.853Z</time>
</trkpt>
<trkpt lat="22.2224916" lon="113.9190338">
<ele>13.689</ele>
<time>2017-12-22T02:07:14.648Z</time>
</trkpt>
<trkpt lat="22.2225310" lon="113.9191288">
<ele>9.925</ele>
<time>2017-12-22T02:07:25.168Z</time>
</trkpt>
<trkpt lat="22.2225463" lon="113.9192353">
<ele>7.696</ele>
<time>2017-12-22T02:07:34.138Z</time>
</trkpt>
<trkpt lat="22.2225595" lon="113.9193410">
<ele>6.401</ele>
<time>2017-12-22T02:07:39.998Z</time>
</trkpt>
<trkpt lat="22.2225595" lon="113.9193410">
<ele>5.876</ele>
<time>2017-12-22T02:07:40.998Z</time>
</trkpt>
<trkpt lat="22.2225595" lon="113.9193410">
<ele>5.947</ele>
<time>2017-12-22T02:07:41.098Z</time>
</trkpt>
<trkpt lat="22.2225289" lon="113.9194376">
<ele>6.115</ele>
<time>2017-12-22T02:07:50.998Z</time>
</trkpt>
<trkpt lat="22.2225289" lon="113.9194376">
<ele>6.013</ele>
<time>2017-12-22T02:07:56.998Z</time>
</trkpt>
<trkpt lat="22.2225289" lon="113.9194376">
<ele>6.001</ele>
<time>2017-12-22T02:08:03.196Z</time>
</trkpt>
<trkpt lat="22.2225318" lon="113.9195414">
<ele>6.047</ele>
<time>2017-12-22T02:08:20.628Z</time>
</trkpt>
<trkpt lat="22.2224656" lon="113.9196284">
<ele>6.050</ele>
<time>2017-12-22T02:08:30.054Z</time>
</trkpt>
<trkpt lat="22.2223830" lon="113.9195815">
<ele>6.287</ele>
<time>2017-12-22T02:08:37.801Z</time>
</trkpt>
<trkpt lat="22.2223147" lon="113.9195123">
<ele>6.846</ele>
<time>2017-12-22T02:08:44.446Z</time>
</trkpt>
<trkpt lat="22.2222379" lon="113.9194379">
<ele>7.321</ele>
<time>2017-12-22T02:08:50.956Z</time>
</trkpt>
<trkpt lat="22.2221736" lon="113.9193647">
<ele>7.331</ele>
<time>2017-12-22T02:08:56.512Z</time>
</trkpt>
<trkpt lat="22.2221006" lon="113.9193003">
<ele>7.010</ele>
<time>2017-12-22T02:09:01.996Z</time>
</trkpt>
<trkpt lat="22.2219903" lon="113.9192160">
<ele>6.678</ele>
<time>2017-12-22T02:09:10.996Z</time>
</trkpt>
</trkseg>
</trk>
<extensions>
<fpdata xmlns="http://www.motionx.com/GPX-Extensions/1/1" sfv="10" origin="MotionXGPSFull 24.4 Build 5112 R64">
<bin enc="base64">
RgIAAAACAAAAHEZ99e6O1kEBAAAA7ZxsUxqP1kEAAP6FiTDIQOMFAAC/pBAA2QHfc5aq
dEAMRPXDyrUaQAAAAAATAAAAWFYgQWR2IE5pZ2h0d2FsayAyABYAAABEZWMgMjEsIDIw
MTcgIDk6NDkgcG0AAAAAAGaebFMaj9ZBfeikVhqP1kH75AABt3nFkXcEVkAsAAAAAAAA
ACsd0FtZfFxAyBYgz40/NkDZAd9zlqp0QAAAAAAAABRAAAAAAAAAEEAAAAAAACCAQAAA
AAAAAAAAAAAAAFuPwvUolHdAjArjErEQS0ABAAAAp9OtvFZZvb8BAAAAAQAAACw+cdFu
VeY/lqQCQQmj1b8BAAAAAQAAAAYAAAC1lmm8biKfQAAAAAAAAAAAAAAAAAAAAAAAAAAA
AAAAAAAAAAAAAAAAAAAAAAAAAAC1UAAAgci/URqP1kEAAAAAAAAAAAAAAAAAAAAA/yVE
vAIAAAAAAAAAAAAAAAEAAAAnAAAAMjQuMiBCdWlsZCA1MDYzUjY0LCBNWEFFIDguMSBi
LiA2MjZSNjQAAAAAAJ1hAAABAAAAAbQAAADVuztaTGk8WgScUn317o7WQZxSffXujtZB
AAAAAIDaST8AAAAAAjBGffXujtZB5nmWAe+O1kEAAABsZzJIQAAAAAAC7E2gAe+O1kEN
VUY0747WQQAAgGudX29AAAAAAAIdrUk6747WQd19RT3vjtZBAADA5cJucEAAAAAAAm7d
yVzvjtZBZ2QGZu+O1kEAAACk5L1yQAAAAAACSSxIae+O1kFBuMV1747WQQAAAKJH3XVA
AAAAAAJUWEh6747WQStphnzvjtZBAADA18tsdkAAAAAAAs4VyH7vjtZBiLkFle+O1kEA
AEDGNPx7QAAAAAACX5oHl++O1kHoLYXh747WQQAAQNTMTYdAAAAAAAJky8bj747WQUqZ
xeXvjtZBAAAAkaaNh0AAAAAAAs7/B+jvjtZBns6FF/CO1kEAAABrYH2NQAAAAAACKh9H
GvCO1kFPdoY88I7WQQAA0Kel4pBAAAAAAAJDjkg+8I7WQZROhlDwjtZBAADgrIEGkkAA
AAAAAu0QR1PwjtZBldYuWPCO1kEAAGAH/lSSQAAAAAACTNwPYPCO1kEyWkhj8I7WQQAA
wOWFiJJAAAAAAALU0ghq8I7WQfSkxe7wjtZBAADAB1PUmkAAAAAAAl/Tz6HxjtZBuDkI
ufGO1kEAAFBt2UecQAAAAAAC+FWMu/GO1kFnRdD28Y7WQQAAQGQY/J9AAAAAAALc2oX6
8Y7WQUS+LQ3yjtZBAABgTUuToEAAAAAAAtttiBLyjtZBzNOfF/KO1kEAAOh8BrygQAAA
AAAC5gLbGvKO1kHCTNgv8o7WQQAAyMvwY6FAAAAAAAL36As28o7WQS8VhlPyjtZBAACI
LcJPokAAAAAAAuUnDFzyjtZBUoEfp/KO1kEAAPD4XKikQAAAAAACSGpFqvKO1kEkY4Tj
8o7WQQAA0L9UcqZAAAAAAAIEAkjm8o7WQR7jB+ryjtZBAACgyFOQpkAAAAAAAk5GiO3y
jtZBkPfF//SO1kEAAFipIJGzQAAAAAACVS8HBPWO1kGreMUX9Y7WQQAAsM4Z4LNAAAAA
AALLSgYc9Y7WQaJgBST1jtZBAAAMJhYAtEAAAAAAArJKBSb1jtZBvNCENPWO1kEAADQ+
FDq0QAAAAAACTpuIPvWO1kFkz0RB9Y7WQQAAjA4FRbRAAAAAAAJvukhF9Y7WQTykhkb1
jtZBAADAtfxJtEAAAAAAAyL9d4T1jtZBIv13hPWO1kEAAMC1/Em0QAAAAAACBmm+fAaP
1kG9p8h8Bo/WQQAAnLAlSrRAAAAAAAJW8gmLBo/WQdiahY4Gj9ZBAACkUhRYtEAAAAAA
AjenjJUGj9ZB2qxFoAaP1kEAADBp+IK0QAAAAAACyCIHqwaP1kF0zsWuBo/WQQAA4Bfz
kbRAAAAAAAKx3wa1Bo/WQSbjhAEHj9ZBAAC0JevDtUAAAAAAAuFeSi4Hj9ZBoMDEUweP
1kEAALCs1Fm2QAAAAAACft+HWAeP1kGSzoeJB4/WQQAAAGnUHbdAAAAAAALLukiRB4/W
QS4CxpUHj9ZBAACMhskvt0AAAAAAAl2HipgHj9ZBL+BFmweP1kEAANTptjq3QAAAAAAC
6wDInQeP1kGaCcfWB4/WQQAAkAyzHrhAAAAAAAKcbkfjB4/WQTxLxeQHj9ZBAAAQf6ok
uEAAAAAAAuIiieoHj9ZBWFeK8weP1kEAAOhQr0i4QAAAAAACFjJG9weP1kHdzx/4B4/W
QQAABMgVTLhAAAAAAAKrJQn7B4/WQUaaRfsHj9ZBAABwmgdNuEAAAAAAAmQCCREIj9ZB
Ei1GGQiP1kEAAChF/G24QAAAAAAC9u0IIgiP1kFcx4QnCI/WQQAAwKrrg7hAAAAAAALG
pAcrCI/WQaJ5Bi4Ij9ZBAAAw/uaPuEAAAAAAAlt5RzAIj9ZB8YKaMQiP1kEAAIgkM5W4
QAAAAAACuOfIQQiP1kHcL15FCI/WQQAAGEWIo7hAAAAAAAKrQclqCI/WQXYYhaQIj9ZB
AABEoHeKuUAAAAAAAuwUR6sIj9ZBnDeFrgiP1kEAAAQrcJe5QAAAAAAC+HHGsAiP1kER
Ncy2CI/WQQAAaDeHr7lAAAAAAAInocjECI/WQTkOhMsIj9ZBAACw63TKuUAAAAAAAvfo
CN0Ij9ZBRtGE9AiP1kEAAOyMZCi6QAAAAAACcLXIBAmP1kGYvsUFCY/WQQAAjLFYLLpA
AAAAAAIaxEgUCY/WQYiGxxkJj9ZBAABEu1NCukAAAAAAAn+kSFAJj9ZBGhVFUQmP1kEA
ALB9RUa6QAAAAAACF4IIYgmP1kHtnYVjCY/WQQAACO05TLpAAAAAAAI6BAlxCY/WQZ2C
RXIJj9ZBAACU5itRukAAAAAAAtl3yIEJj9ZBLUPEggmP1kEAAOQTG1W6QAAAAAAC9bwI
vwmP1kEWMQXACY/WQQAAaOQMWbpAAAAAAAKKqwfLCY/WQbgDzdIJj9ZBAAAgRSJ4ukAA
AAAAAjo/CeIJj9ZB+WUZ5AmP1kEAABzgYoC6QAAAAAAC1ZOICgqP1kFhGIYLCo/WQQAA
TPJYhLpAAAAAAAKv6ggeCo/WQUT+hR8Kj9ZBAACgQE2KukAAAAAAAhk5SWsKj9ZBbANG
bAqP1kEAAOxpQI66QAAAAAACrMXF5gqP1kGYGBnqCo/WQQAAnLWNm7pAAAAAAALECgfs
Co/WQTBkxu0Kj9ZBAABMG4uiukAAAAAAAmaHif8Kj9ZBLdCEAAuP1kEAAGg+eKa6QAAA
AAACZVUJDwuP1kExeQUQC4/WQQAAmM1oqrpAAAAAAAI7/AxaC4/WQZ1LBVsLj9ZBAAAg
C0quukAAAAAAAk65iHQLj9ZB7q6FeQuP1kEAAKDhPcK6QAAAAAAC0xOHfQuP1kGc+QSG
C4/WQQAAxHg15LpAAAAAAAJOYgi6C4/WQVFPxcILj9ZBAADQLCkHu0AAAAAAAqyOyM4L
j9ZBhQeX2guP1kEAADQQYza7QAAAAAACaD2H6QuP1kGkURrqC4/WQQAAJGGvOLtAAAAA
AALz5Ij7C4/WQTyJBTEMj9ZBAABI8qEOvEAAAAAAAsE2SDgMj9ZB3V5EOQyP1kEAALiS
khK8QAAAAAACVipJWQyP1kGlTkZlDI/WQQAA9COHQrxAAAAAAAJNhsiKDI/WQcUeSZUM
j9ZBAADUhYlsvEAAAAAAAk7tCKMMj9ZBTdhEqQyP1kEAANAxeYW8QAAAAAACSijHqwyP
1kFETgayDI/WQQAAuMl1nrxAAAAAAAJFSki7DI/WQR/Zxb0Mj9ZBAAAgBWyovEAAAAAA
ArqIx8cMj9ZBYFYF6gyP1kEAALg7YzG9QAAAAAACkufI8wyP1kF+woUHDY/WQQAAaKdW
gL1AAAAAAAKbjooTDY/WQbxYxRUNj9ZBAADsz0GJvUAAAAAAAsmrT4sOj9ZBjSlFjA6P
1kEAAPzGF429QAAAAAADwFoOtA6P1kHAWg60Do/WQQAA/MYXjb1AAAAAAASyKca3Do/W
QbIpxrcOj9ZBAAD8xheNvUAAAAAAAoWVEI0Pj9ZBZf5Fjw+P1kEAAHxq7ZW9QAAAAAAC
yokKuA+P1kF4tli6D4/WQQAANB0mn71AAAAAAAIysQa8D4/WQSBjhb0Pj9ZBAADs5CCl
vUAAAAAAAqOwiswPj9ZBdEIH1A+P1kEAADAsE8O9QAAAAAAC4WBHJhCP1kHutsUnEI/W
QQAAZIQMyb1AAAAAAAKQLojDEI/WQVYMxe8Qj9ZBAAB8+/95vkAAAAAAAu+sChERj9ZB
VPyFExGP1kEAABA57YO+QAAAAAACvAVVKxGP1kHiBAYvEY/WQQAAqDWxkr5AAAAAAALf
i8c5EY/WQTJzhj0Rj9ZBAAD00qyhvkAAAAAAAhbAiEwRj9ZBJJfIWhGP1kEAACwvrNq+
QAAAAAACf4aKZRGP1kEe30ZqEY/WQQAAqJGd7b5AAAAAAALRWEdsEY/WQSleRnoRj9ZB
AAAIp5klv0AAAAAAAlYRCooRj9ZBZqSGoBGP1kEAAEjzi3+/QAAAAAACfNZHohGP1kHq
XUbFEY/WQQAAgAjDBcBAAAAAAAKU2kvPEY/WQWRzBtMRj9ZBAAAgOjgNwEAAAAAAAlhz
CNYRj9ZBJLlFJhKP1kEAALjFsq3AQAAAAAACzEeIKRKP1kHrqYgrEo/WQQAA9omzscBA
AAAAAAKscowxEo/WQSKNxjUSj9ZBAADivie6wEAAAAAAAl8lCDwSj9ZB8KOGPxKP1kEA
AAS8JMHAQAAAAAAChZYJQRKP1kEq4IdIEo/WQQAATk8h0MBAAAAAAAIEOQhREo/WQcFW
RVYSj9ZBAADIipvawEAAAAAAAuy8yVcSj9ZBFanHXxKP1kEAABpjl+rAQAAAAAACJCkW
YhKP1kHYfFxqEo/WQQAAggok+8BAAAAAAALgFQlvEo/WQeCbh4ASj9ZBAACCFiEewUAA
AAAAAvpIiYQSj9ZBlgQGixKP1kEAALqNGivBQAAAAAACcM9JmhKP1kHQfsajEo/WQQAA
euwTPsFAAAAAAAIV4wenEo/WQWL1BcUSj9ZBAAAUERB6wUAAAAAAAgtgycoSj9ZBduDI
zRKP1kEAAOoRD4DBQAAAAAAC0t+I1BKP1kHgasThEo/WQQAABiiGmsFAAAAAAAJCkgjl
Eo/WQXx8x+4Sj9ZBAAB6/AOuwUAAAAAAAp5/CgMTj9ZBn1rGChOP1kEAAHyye73BQAAA
AAACnvCIFROP1kF7MUc9E4/WQQAANjT4DMJAAAAAAAKRJ8lME4/WQf61xU8Tj9ZBAAAQ
UfESwkAAAAAAAlzjSVoTj9ZBn68GahOP1kEAAJbpajLCQAAAAAACbjXIfxOP1kEUBsaK
E4/WQQAA4opmSMJAAAAAAAJfXgiiE4/WQUi/haQTj9ZBAAC0TGFNwkAAAAAAAukMR6cT
j9ZBLV7GqxOP1kEAADzvX1bCQAAAAAAC3pGHrhOP1kFGXQqxE4/WQQAADIZlW8JAAAAA
AAKitE/JE4/WQT+PRMoTj9ZBAABGO09dwkAAAAAAArZlUusTj9ZB1lIG8xOP1kEAAIYV
t2zCQAAAAAACOC5G9hOP1kE6rQUXFI/WQQAAihM2rsJAAAAAAAJOCwcaFI/WQTPgxSsU
j9ZBAABUvbPRwkAAAAAAAkgzyTEUj9ZBls5FORSP1kEAAPDzrODCQAAAAAAC2c4IPhSP
1kHl8IU/FI/WQQAACDin48JAAAAAAAKSrcxXFI/WQce8xlkUj9ZBAAByVpvnwkAAAAAA
AmedEK4Uj9ZB002FyhSP1kEAAEq3hCDDQAAAAAACiIEK1xSP1kFia8blFI/WQQAA/or8
PcNAAAAAAAL27A/wFI/WQdS7BwAVj9ZBAAC6KOxdw0AAAAAAAhediAcVj9ZBxoeHFBWP
1kEAABj+6XfDQAAAAAACXMzJJBWP1kHrrEUmFY/WQQAANr/hesNAAAAAAAK6ZsdbFY/W
QbhVhmAVj9ZBAAAynV+Ew0AAAAAAAvSoCGkVj9ZB5SlHfhWP1kEAABSf3K7DQAAAAAAC
SNyHiRWP1kGaQAaKFY/WQQAAuGfZr8NAAAAAAALLLImRFY/WQRovx5IVj9ZBAABWbFWy
w0AAAAAAAkQzS8sVj9ZB3EcG4hWP1kEAAIaVy9/DQAAAAAACh/vI6hWP1kEkYQb1FY/W
QQAAwGBG9MNAAAAAAAJxdUf3FY/WQUwYh/gVj9ZBAAB2psX2w0AAAAAAAlN4SfwVj9ZB
8DbIAxaP1kEAALAjwwXEQAAAAAACBYcHBxaP1kFrLIYJFo/WQQAAfG7ACsRAAAAAAAKO
6AgOFo/WQU3Xhg8Wj9ZBAAD6S7wNxEAAAAAAAtqPiBkWj9ZBo68GHxaP1kEAAIyLuBjE
QAAAAAACoYSJIRaP1kHO+kYnFo/WQQAA5nczJMRAAAAAAAIDQgcsFo/WQRhfR0oWj9ZB
AAAQsrNgxEAAAAAAAnhfS0wWj9ZB7x2GTxaP1kEAAP4uKWfEQAAAAAACIcvGVRaP1kFo
JQVZFo/WQQAAjOOlbcRAAAAAAAL5g4heFo/WQTBoxXIWj9ZBAAD6qx+WxEAAAAAAAu7Q
SYAWj9ZBOllxlhaP1kEAAJK8bsLEQAAAAAACmkKX9BeP1kEyksX1F4/WQQAAwlvLxMRA
AAAAAALACEn3F4/WQb73hSwYj9ZBAAC+OUUvxUAAAAAAAlMIyTIYj9ZBSUxGOxiP1kEA
AKrBP0DFQAAAAAACHovIQRiP1kHH2QRaGI/WQQAA/F64cMVAAAAAAAJHIB11GI/WQdrK
z6MYj9ZBAAAitB3OxUAAAAAAAr04CKYYj9ZBnFCFpxiP1kEAAODjF9HFQAAAAAAC4bMG
qRiP1kHzHYqtGI/WQQAABLge2sVAAAAAAALQm8eyGI/WQW6l0LMYj9ZBAABAyzDcxUAA
AAAAAtBI0McYj9ZB5bhG0RiP1kEAAGqrHe/FQAAAAAACpDWI0xiP1kGSO0XdGI/WQQAA
RreXAsZAAAAAAAK/8cjhGI/WQcLfRfIYj9ZBAABMk5EjxkAAAAAAAhrFB/YYj9ZBQX9F
+hiP1kEAAJoHDSzGQAAAAAACmstG+xiP1kGcosYaGY/WQQAAnrUMa8ZAAAAAAAJc6c8e
GY/WQU91RVMZj9ZBAACEzffTxkAAAAAAAnHIiF4Zj9ZBpg0GXxmP1kEAAO5X8tTGQAAA
AAACq3YHYRmP1kF2x4ViGY/WQQAAhPnu18ZAAAAAAAKcb06aGY/WQWzShqkZj9ZBAAAk
v1/2xkAAAAAAAr4uR6sZj9ZBE/AGzRmP1kEAAM5B3znHQAAAAAACuFrK0BmP1kHXMcYn
Go/WQQAADPDW58dAAAAAAALlt0gqGo/WQd3Ojzsaj9ZBAAD8HWUKyEAAAAAAAtgNDD0a
j9ZBqAGHPxqP1kEAAJwFWw/IQAAAAAABWjCIQhqP1kGLcB9TGo/WQQAA/oWJMMhAAAAA
AAAAAAA=
</bin>
</fpdata>
</extensions>
</gpx>
